<?xml version='1.0' encoding='UTF-8'?><gpx version="1.1" creator="JPX - https://github.com/jenetics/jpx" xmlns="http://www.topografix.com/GPX/1/1"><trk><trkseg><trkpt lat="41.4057276" lon="13.0516807"><ele>3.9999999999999996</ele><time>2026-05-01T07:29:44.373Z</time></trkpt><trkpt lat="41.4057757" lon="13.0515977"><ele>4.0</ele><time>2026-05-01T07:29:50.373Z</time></trkpt><trkpt lat="41.4058393" lon="13.051527"><ele>4.0</ele><time>2026-05-01T07:29:54.373Z</time></trkpt><trkpt lat="41.4058899" lon="13.0514526"><ele>4.0</ele><time>2026-05-01T07:29:57.372Z</time></trkpt><trkpt lat="41.4059505" lon="13.0513769"><ele>3.9999999999999996</ele><time>2026-05-01T07:30:00.372Z</time></trkpt><trkpt lat="41.4060155" lon="13.0513028"><ele>4.0</ele><time>2026-05-01T07:30:03.373Z</time></trkpt><trkpt lat="41.4060612" lon="13.0512447"><ele>3.9999999999999996</ele><time>2026-05-01T07:30:05.372Z</time></trkpt><trkpt lat="41.4061092" lon="13.0511831"><ele>4.0</ele><time>2026-05-01T07:30:07.372Z</time></trkpt><trkpt lat="41.4061479" lon="13.0511168"><ele>4.0</ele><time>2026-05-01T07:30:09.373Z</time></trkpt><trkpt lat="41.4061989" lon="13.0510179"><ele>4.0</ele><time>2026-05-01T07:30:12.373Z</time></trkpt><trkpt lat="41.4061866" lon="13.0509003"><ele>3.9999999999999996</ele><time>2026-05-01T07:30:15.373Z</time></trkpt><trkpt lat="41.4061483" lon="13.0508243"><ele>4.0</ele><time>2026-05-01T07:30:17.373Z</time></trkpt><trkpt lat="41.4060927" lon="13.0507574"><ele>4.166666666666666</ele><time>2026-05-01T07:30:19.372Z</time></trkpt><trkpt lat="41.4060393" lon="13.0506877"><ele>4.333333333333333</ele><time>2026-05-01T07:30:21.373Z</time></trkpt><trkpt lat="41.4059859" lon="13.0506178"><ele>4.5</ele><time>2026-05-01T07:30:23.373Z</time></trkpt><trkpt lat="41.4059348" lon="13.0505499"><ele>4.666666666666667</ele><time>2026-05-01T07:30:25.373Z</time></trkpt><trkpt lat="41.4058783" lon="13.0504655"><ele>4.833333333333334</ele><time>2026-05-01T07:30:28.372Z</time></trkpt><trkpt lat="41.405825" lon="13.050392"><ele>5.0</ele><time>2026-05-01T07:30:31.373Z</time></trkpt><trkpt lat="41.4057631" lon="13.0503276"><ele>5.0</ele><time>2026-05-01T07:30:34.373Z</time></trkpt><trkpt lat="41.405709" lon="13.0502721"><ele>5.0</ele><time>2026-05-01T07:30:37.373Z</time></trkpt><trkpt lat="41.405656" lon="13.0501993"><ele>5.0</ele><time>2026-05-01T07:30:41.373Z</time></trkpt><trkpt lat="41.4056143" lon="13.0501334"><ele>5.0</ele><time>2026-05-01T07:30:44.372Z</time></trkpt><trkpt lat="41.405558" lon="13.0500462"><ele>5.0</ele><time>2026-05-01T07:30:47.373Z</time></trkpt><trkpt lat="41.4054953" lon="13.0499504"><ele>5.0</ele><time>2026-05-01T07:30:50.373Z</time></trkpt><trkpt lat="41.4054453" lon="13.0498923"><ele>5.285714285714286</ele><time>2026-05-01T07:30:52.372Z</time></trkpt><trkpt lat="41.4053936" lon="13.0498273"><ele>5.571428571428571</ele><time>2026-05-01T07:30:54.373Z</time></trkpt><trkpt lat="41.4053483" lon="13.0497608"><ele>5.857142857142858</ele><time>2026-05-01T07:30:56.372Z</time></trkpt><trkpt lat="41.4053169" lon="13.0496864"><ele>6.142857142857142</ele><time>2026-05-01T07:30:58.373Z</time></trkpt><trkpt lat="41.4052493" lon="13.0496203"><ele>6.428571428571429</ele><time>2026-05-01T07:31:15.373Z</time></trkpt><trkpt lat="41.4052148" lon="13.0495161"><ele>6.714285714285714</ele><time>2026-05-01T07:31:18.373Z</time></trkpt><trkpt lat="41.4052687" lon="13.0494561"><ele>7.0</ele><time>2026-05-01T07:31:20.373Z</time></trkpt><trkpt lat="41.4053332" lon="13.0493892"><ele>7.000000000000001</ele><time>2026-05-01T07:31:22.373Z</time></trkpt><trkpt lat="41.4053919" lon="13.0493173"><ele>7.0</ele><time>2026-05-01T07:31:24.372Z</time></trkpt><trkpt lat="41.4054524" lon="13.0492472"><ele>7.0</ele><time>2026-05-01T07:31:26.372Z</time></trkpt><trkpt lat="41.4055126" lon="13.0491697"><ele>7.0</ele><time>2026-05-01T07:31:28.372Z</time></trkpt><trkpt lat="41.4055721" lon="13.0490945"><ele>7.000000000000001</ele><time>2026-05-01T07:31:30.373Z</time></trkpt><trkpt lat="41.4056293" lon="13.0490191"><ele>7.0</ele><time>2026-05-01T07:31:32.372Z</time></trkpt><trkpt lat="41.4056856" lon="13.0489417"><ele>6.833333333333334</ele><time>2026-05-01T07:31:34.373Z</time></trkpt><trkpt lat="41.4057473" lon="13.0488699"><ele>6.666666666666667</ele><time>2026-05-01T07:31:36.373Z</time></trkpt><trkpt lat="41.4058105" lon="13.0488202"><ele>6.5</ele><time>2026-05-01T07:31:38.373Z</time></trkpt><trkpt lat="41.4058851" lon="13.0487791"><ele>6.333333333333334</ele><time>2026-05-01T07:31:40.373Z</time></trkpt><trkpt lat="41.4059444" lon="13.0487097"><ele>6.166666666666667</ele><time>2026-05-01T07:31:42.373Z</time></trkpt><trkpt lat="41.4059808" lon="13.0486145"><ele>6.0</ele><time>2026-05-01T07:31:44.373Z</time></trkpt><trkpt lat="41.406015" lon="13.0485167"><ele>6.0</ele><time>2026-05-01T07:31:46.373Z</time></trkpt><trkpt lat="41.4060729" lon="13.0484288"><ele>6.0</ele><time>2026-05-01T07:31:48.373Z</time></trkpt><trkpt lat="41.4061319" lon="13.0483525"><ele>6.0</ele><time>2026-05-01T07:31:50.373Z</time></trkpt><trkpt lat="41.4061925" lon="13.0482803"><ele>6.0</ele><time>2026-05-01T07:31:52.373Z</time></trkpt><trkpt lat="41.4062526" lon="13.0482042"><ele>6.0</ele><time>2026-05-01T07:31:54.372Z</time></trkpt><trkpt lat="41.4063098" lon="13.0481239"><ele>6.0</ele><time>2026-05-01T07:31:56.373Z</time></trkpt><trkpt lat="41.4063698" lon="13.0480356"><ele>6.166666666666667</ele><time>2026-05-01T07:31:58.372Z</time></trkpt><trkpt lat="41.4064326" lon="13.0479492"><ele>6.333333333333334</ele><time>2026-05-01T07:32:00.373Z</time></trkpt><trkpt lat="41.4064958" lon="13.0478665"><ele>6.5</ele><time>2026-05-01T07:32:02.372Z</time></trkpt><trkpt lat="41.4065567" lon="13.0477876"><ele>6.666666666666667</ele><time>2026-05-01T07:32:04.372Z</time></trkpt><trkpt lat="41.4066139" lon="13.0476997"><ele>6.833333333333334</ele><time>2026-05-01T07:32:06.373Z</time></trkpt><trkpt lat="41.4066761" lon="13.0476154"><ele>7.0</ele><time>2026-05-01T07:32:08.372Z</time></trkpt><trkpt lat="41.4067408" lon="13.0475371"><ele>7.000000000000001</ele><time>2026-05-01T07:32:10.373Z</time></trkpt><trkpt lat="41.406798" lon="13.0474548"><ele>7.0</ele><time>2026-05-01T07:32:12.373Z</time></trkpt><trkpt lat="41.406859" lon="13.0473866"><ele>7.0</ele><time>2026-05-01T07:32:14.373Z</time></trkpt><trkpt lat="41.406911" lon="13.0473243"><ele>7.0</ele><time>2026-05-01T07:32:16.373Z</time></trkpt><trkpt lat="41.4069927" lon="13.047338"><ele>7.000000000000001</ele><time>2026-05-01T07:32:19.373Z</time></trkpt><trkpt lat="41.4070334" lon="13.0474319"><ele>7.0</ele><time>2026-05-01T07:32:21.372Z</time></trkpt><trkpt lat="41.4070838" lon="13.0475218"><ele>7.000000000000001</ele><time>2026-05-01T07:32:23.372Z</time></trkpt><trkpt lat="41.4071365" lon="13.047599"><ele>7.0</ele><time>2026-05-01T07:32:25.373Z</time></trkpt><trkpt lat="41.4071927" lon="13.0476678"><ele>7.0</ele><time>2026-05-01T07:32:27.373Z</time></trkpt><trkpt lat="41.407251" lon="13.0477427"><ele>7.0</ele><time>2026-05-01T07:32:29.372Z</time></trkpt><trkpt lat="41.4073171" lon="13.047827"><ele>7.000000000000001</ele><time>2026-05-01T07:32:31.373Z</time></trkpt><trkpt lat="41.407383" lon="13.0478985"><ele>7.0</ele><time>2026-05-01T07:32:33.373Z</time></trkpt><trkpt lat="41.4074417" lon="13.0479685"><ele>6.833333333333334</ele><time>2026-05-01T07:32:35.373Z</time></trkpt><trkpt lat="41.4075057" lon="13.0480486"><ele>6.666666666666667</ele><time>2026-05-01T07:32:37.373Z</time></trkpt><trkpt lat="41.4075603" lon="13.0481309"><ele>6.5</ele><time>2026-05-01T07:32:39.372Z</time></trkpt><trkpt lat="41.4076239" lon="13.0482157"><ele>6.333333333333334</ele><time>2026-05-01T07:32:41.373Z</time></trkpt><trkpt lat="41.4076815" lon="13.0482936"><ele>6.166666666666667</ele><time>2026-05-01T07:32:43.373Z</time></trkpt><trkpt lat="41.4077367" lon="13.0483788"><ele>6.0</ele><time>2026-05-01T07:32:45.373Z</time></trkpt><trkpt lat="41.4078022" lon="13.0484556"><ele>6.0</ele><time>2026-05-01T07:32:47.373Z</time></trkpt><trkpt lat="41.407867" lon="13.0485375"><ele>6.0</ele><time>2026-05-01T07:32:49.373Z</time></trkpt><trkpt lat="41.4079273" lon="13.0486237"><ele>6.0</ele><time>2026-05-01T07:32:51.372Z</time></trkpt><trkpt lat="41.4079868" lon="13.0487102"><ele>6.0</ele><time>2026-05-01T07:32:53.373Z</time></trkpt><trkpt lat="41.4080428" lon="13.0487951"><ele>6.0</ele><time>2026-05-01T07:32:55.373Z</time></trkpt><trkpt lat="41.4081031" lon="13.0488794"><ele>6.0</ele><time>2026-05-01T07:32:57.373Z</time></trkpt><trkpt lat="41.4081691" lon="13.0489613"><ele>6.0</ele><time>2026-05-01T07:32:59.373Z</time></trkpt><trkpt lat="41.4082315" lon="13.0490453"><ele>6.0</ele><time>2026-05-01T07:33:01.373Z</time></trkpt><trkpt lat="41.4082935" lon="13.0491298"><ele>6.0</ele><time>2026-05-01T07:33:03.373Z</time></trkpt><trkpt lat="41.408351" lon="13.0492173"><ele>6.0</ele><time>2026-05-01T07:33:05.373Z</time></trkpt><trkpt lat="41.4084076" lon="13.0493032"><ele>6.0</ele><time>2026-05-01T07:33:07.373Z</time></trkpt><trkpt lat="41.4084702" lon="13.0493755"><ele>6.0</ele><time>2026-05-01T07:33:09.372Z</time></trkpt><trkpt lat="41.4085337" lon="13.0494607"><ele>6.0</ele><time>2026-05-01T07:33:11.373Z</time></trkpt><trkpt lat="41.4085901" lon="13.0495471"><ele>6.0</ele><time>2026-05-01T07:33:13.373Z</time></trkpt><trkpt lat="41.4086489" lon="13.0496333"><ele>6.0</ele><time>2026-05-01T07:33:15.373Z</time></trkpt><trkpt lat="41.4087128" lon="13.0497099"><ele>6.0</ele><time>2026-05-01T07:33:17.373Z</time></trkpt><trkpt lat="41.4087782" lon="13.0497871"><ele>6.0</ele><time>2026-05-01T07:33:19.373Z</time></trkpt><trkpt lat="41.4088383" lon="13.0498638"><ele>6.0</ele><time>2026-05-01T07:33:21.373Z</time></trkpt><trkpt lat="41.4088971" lon="13.0499468"><ele>6.6</ele><time>2026-05-01T07:33:23.372Z</time></trkpt><trkpt lat="41.4089584" lon="13.0500339"><ele>7.199999999999999</ele><time>2026-05-01T07:33:25.373Z</time></trkpt><trkpt lat="41.4090198" lon="13.0501097"><ele>7.800000000000001</ele><time>2026-05-01T07:33:27.373Z</time></trkpt><trkpt lat="41.4090819" lon="13.0502023"><ele>8.4</ele><time>2026-05-01T07:33:29.372Z</time></trkpt><trkpt lat="41.4091457" lon="13.0502917"><ele>9.0</ele><time>2026-05-01T07:33:31.373Z</time></trkpt><trkpt lat="41.4092068" lon="13.0503844"><ele>9.0</ele><time>2026-05-01T07:33:33.373Z</time></trkpt><trkpt lat="41.4092718" lon="13.0504704"><ele>9.0</ele><time>2026-05-01T07:33:35.373Z</time></trkpt><trkpt lat="41.4093402" lon="13.0505545"><ele>9.0</ele><time>2026-05-01T07:33:37.373Z</time></trkpt><trkpt lat="41.4094004" lon="13.0506501"><ele>9.0</ele><time>2026-05-01T07:33:39.373Z</time></trkpt><trkpt lat="41.4094661" lon="13.0507255"><ele>9.0</ele><time>2026-05-01T07:33:41.373Z</time></trkpt><trkpt lat="41.4095261" lon="13.0508114"><ele>9.0</ele><time>2026-05-01T07:33:43.373Z</time></trkpt><trkpt lat="41.4095886" lon="13.050896"><ele>9.0</ele><time>2026-05-01T07:33:45.373Z</time></trkpt><trkpt lat="41.4096479" lon="13.0509853"><ele>9.0</ele><time>2026-05-01T07:33:47.373Z</time></trkpt><trkpt lat="41.4097099" lon="13.0510697"><ele>9.0</ele><time>2026-05-01T07:33:49.373Z</time></trkpt><trkpt lat="41.4097809" lon="13.0511464"><ele>9.0</ele><time>2026-05-01T07:33:51.372Z</time></trkpt><trkpt lat="41.4098402" lon="13.051234"><ele>9.0</ele><time>2026-05-01T07:33:53.373Z</time></trkpt><trkpt lat="41.4098976" lon="13.0513232"><ele>8.5</ele><time>2026-05-01T07:33:55.372Z</time></trkpt><trkpt lat="41.4099591" lon="13.0514067"><ele>8.0</ele><time>2026-05-01T07:33:57.373Z</time></trkpt><trkpt lat="41.4100264" lon="13.0514885"><ele>7.5</ele><time>2026-05-01T07:33:59.373Z</time></trkpt><trkpt lat="41.4100869" lon="13.0515761"><ele>7.0</ele><time>2026-05-01T07:34:01.373Z</time></trkpt><trkpt lat="41.4101489" lon="13.0516641"><ele>6.5</ele><time>2026-05-01T07:34:03.373Z</time></trkpt><trkpt lat="41.4102119" lon="13.0517479"><ele>6.0</ele><time>2026-05-01T07:34:05.373Z</time></trkpt><trkpt lat="41.4102792" lon="13.0518352"><ele>6.0</ele><time>2026-05-01T07:34:07.373Z</time></trkpt><trkpt lat="41.4103431" lon="13.0519224"><ele>6.0</ele><time>2026-05-01T07:34:09.373Z</time></trkpt><trkpt lat="41.4104019" lon="13.0520111"><ele>6.0</ele><time>2026-05-01T07:34:11.373Z</time></trkpt><trkpt lat="41.4104687" lon="13.0520978"><ele>6.0</ele><time>2026-05-01T07:34:13.373Z</time></trkpt><trkpt lat="41.4105332" lon="13.0521842"><ele>6.0</ele><time>2026-05-01T07:34:15.373Z</time></trkpt><trkpt lat="41.4105974" lon="13.0522721"><ele>6.0</ele><time>2026-05-01T07:34:17.373Z</time></trkpt><trkpt lat="41.4106584" lon="13.0523622"><ele>6.0</ele><time>2026-05-01T07:34:19.373Z</time></trkpt><trkpt lat="41.4107152" lon="13.0524472"><ele>6.0</ele><time>2026-05-01T07:34:21.373Z</time></trkpt><trkpt lat="41.410771" lon="13.0525353"><ele>6.0</ele><time>2026-05-01T07:34:23.373Z</time></trkpt><trkpt lat="41.4108352" lon="13.0526225"><ele>6.0</ele><time>2026-05-01T07:34:25.372Z</time></trkpt><trkpt lat="41.4108962" lon="13.0527149"><ele>6.0</ele><time>2026-05-01T07:34:27.373Z</time></trkpt><trkpt lat="41.4109587" lon="13.052803"><ele>6.0</ele><time>2026-05-01T07:34:29.373Z</time></trkpt><trkpt lat="41.4110216" lon="13.0528853"><ele>6.0</ele><time>2026-05-01T07:34:31.372Z</time></trkpt><trkpt lat="41.4110816" lon="13.0529686"><ele>6.0</ele><time>2026-05-01T07:34:33.373Z</time></trkpt><trkpt lat="41.4111401" lon="13.0530537"><ele>6.0</ele><time>2026-05-01T07:34:35.373Z</time></trkpt><trkpt lat="41.4112003" lon="13.053131"><ele>6.0</ele><time>2026-05-01T07:34:37.373Z</time></trkpt><trkpt lat="41.4112589" lon="13.053215"><ele>6.0</ele><time>2026-05-01T07:34:39.373Z</time></trkpt><trkpt lat="41.4113149" lon="13.053304"><ele>6.199999999999999</ele><time>2026-05-01T07:34:41.373Z</time></trkpt><trkpt lat="41.4113746" lon="13.0533794"><ele>6.3999999999999995</ele><time>2026-05-01T07:34:43.372Z</time></trkpt><trkpt lat="41.4114413" lon="13.0534726"><ele>6.6</ele><time>2026-05-01T07:34:45.373Z</time></trkpt><trkpt lat="41.4115075" lon="13.0535728"><ele>6.8</ele><time>2026-05-01T07:34:47.373Z</time></trkpt><trkpt lat="41.4115699" lon="13.0536586"><ele>7.0</ele><time>2026-05-01T07:34:49.373Z</time></trkpt><trkpt lat="41.411635" lon="13.0537409"><ele>7.0</ele><time>2026-05-01T07:34:51.372Z</time></trkpt><trkpt lat="41.4116998" lon="13.0538271"><ele>6.999999999999999</ele><time>2026-05-01T07:34:53.373Z</time></trkpt><trkpt lat="41.4117641" lon="13.0539136"><ele>6.999999999999999</ele><time>2026-05-01T07:34:55.373Z</time></trkpt><trkpt lat="41.4118252" lon="13.0540016"><ele>7.0</ele><time>2026-05-01T07:34:57.373Z</time></trkpt><trkpt lat="41.4118869" lon="13.0540901"><ele>7.0</ele><time>2026-05-01T07:34:59.373Z</time></trkpt><trkpt lat="41.4119562" lon="13.0541758"><ele>7.199999999999999</ele><time>2026-05-01T07:35:01.372Z</time></trkpt><trkpt lat="41.4120171" lon="13.0542607"><ele>7.3999999999999995</ele><time>2026-05-01T07:35:03.373Z</time></trkpt><trkpt lat="41.4120858" lon="13.0543499"><ele>7.6000000000000005</ele><time>2026-05-01T07:35:05.373Z</time></trkpt><trkpt lat="41.4121496" lon="13.0544368"><ele>7.800000000000001</ele><time>2026-05-01T07:35:07.373Z</time></trkpt><trkpt lat="41.4122092" lon="13.0545196"><ele>8.0</ele><time>2026-05-01T07:35:09.373Z</time></trkpt><trkpt lat="41.4122722" lon="13.0546088"><ele>7.833333333333333</ele><time>2026-05-01T07:35:11.373Z</time></trkpt><trkpt lat="41.4123369" lon="13.0546956"><ele>7.666666666666666</ele><time>2026-05-01T07:35:13.373Z</time></trkpt><trkpt lat="41.4123954" lon="13.0547791"><ele>7.5</ele><time>2026-05-01T07:35:15.372Z</time></trkpt><trkpt lat="41.4124559" lon="13.0548652"><ele>7.333333333333334</ele><time>2026-05-01T07:35:17.373Z</time></trkpt><trkpt lat="41.4125185" lon="13.0549593"><ele>7.166666666666667</ele><time>2026-05-01T07:35:19.373Z</time></trkpt><trkpt lat="41.4125809" lon="13.0550433"><ele>7.0</ele><time>2026-05-01T07:35:21.372Z</time></trkpt><trkpt lat="41.4126439" lon="13.0551364"><ele>7.0</ele><time>2026-05-01T07:35:23.372Z</time></trkpt><trkpt lat="41.412709" lon="13.0552214"><ele>6.999999999999999</ele><time>2026-05-01T07:35:25.373Z</time></trkpt><trkpt lat="41.4127751" lon="13.0553097"><ele>6.999999999999999</ele><time>2026-05-01T07:35:27.372Z</time></trkpt><trkpt lat="41.4128376" lon="13.0553963"><ele>7.0</ele><time>2026-05-01T07:35:29.372Z</time></trkpt><trkpt lat="41.4129033" lon="13.0554815"><ele>7.0</ele><time>2026-05-01T07:35:31.372Z</time></trkpt><trkpt lat="41.4129627" lon="13.0555759"><ele>7.3999999999999995</ele><time>2026-05-01T07:35:33.373Z</time></trkpt><trkpt lat="41.4129927" lon="13.0556876"><ele>7.799999999999999</ele><time>2026-05-01T07:35:35.372Z</time></trkpt><trkpt lat="41.4129509" lon="13.0558015"><ele>8.2</ele><time>2026-05-01T07:35:37.372Z</time></trkpt><trkpt lat="41.4128841" lon="13.0558839"><ele>8.6</ele><time>2026-05-01T07:35:39.373Z</time></trkpt><trkpt lat="41.4128168" lon="13.055968"><ele>9.0</ele><time>2026-05-01T07:35:41.373Z</time></trkpt><trkpt lat="41.4127498" lon="13.0560536"><ele>9.0</ele><time>2026-05-01T07:35:43.372Z</time></trkpt><trkpt lat="41.4126891" lon="13.05614"><ele>9.0</ele><time>2026-05-01T07:35:45.373Z</time></trkpt><trkpt lat="41.4126272" lon="13.0562194"><ele>9.0</ele><time>2026-05-01T07:35:47.373Z</time></trkpt><trkpt lat="41.4125629" lon="13.0562991"><ele>9.0</ele><time>2026-05-01T07:35:49.372Z</time></trkpt><trkpt lat="41.4125017" lon="13.0563713"><ele>9.0</ele><time>2026-05-01T07:35:51.372Z</time></trkpt><trkpt lat="41.4124419" lon="13.0564473"><ele>9.0</ele><time>2026-05-01T07:35:53.373Z</time></trkpt><trkpt lat="41.4123794" lon="13.0565329"><ele>9.0</ele><time>2026-05-01T07:35:55.373Z</time></trkpt><trkpt lat="41.4123173" lon="13.0566092"><ele>9.0</ele><time>2026-05-01T07:35:57.373Z</time></trkpt><trkpt lat="41.4122541" lon="13.0566931"><ele>9.0</ele><time>2026-05-01T07:35:59.373Z</time></trkpt><trkpt lat="41.4121869" lon="13.0567765"><ele>9.0</ele><time>2026-05-01T07:36:01.373Z</time></trkpt><trkpt lat="41.4121241" lon="13.0568611"><ele>9.0</ele><time>2026-05-01T07:36:03.373Z</time></trkpt><trkpt lat="41.4120598" lon="13.0569428"><ele>9.0</ele><time>2026-05-01T07:36:05.372Z</time></trkpt><trkpt lat="41.411994" lon="13.0570227"><ele>8.4</ele><time>2026-05-01T07:36:07.373Z</time></trkpt><trkpt lat="41.4119368" lon="13.0571092"><ele>7.800000000000001</ele><time>2026-05-01T07:36:09.372Z</time></trkpt><trkpt lat="41.4118712" lon="13.0571921"><ele>7.199999999999999</ele><time>2026-05-01T07:36:11.373Z</time></trkpt><trkpt lat="41.4118072" lon="13.0572797"><ele>6.6</ele><time>2026-05-01T07:36:13.373Z</time></trkpt><trkpt lat="41.4117367" lon="13.0573564"><ele>6.0</ele><time>2026-05-01T07:36:15.372Z</time></trkpt><trkpt lat="41.4116723" lon="13.0574443"><ele>5.833333333333333</ele><time>2026-05-01T07:36:17.372Z</time></trkpt><trkpt lat="41.4116079" lon="13.0575259"><ele>5.666666666666667</ele><time>2026-05-01T07:36:19.373Z</time></trkpt><trkpt lat="41.4115491" lon="13.057601"><ele>5.5</ele><time>2026-05-01T07:36:21.373Z</time></trkpt><trkpt lat="41.4114879" lon="13.0576833"><ele>5.333333333333334</ele><time>2026-05-01T07:36:23.372Z</time></trkpt><trkpt lat="41.4114204" lon="13.0577614"><ele>5.166666666666667</ele><time>2026-05-01T07:36:25.372Z</time></trkpt><trkpt lat="41.4113524" lon="13.0578416"><ele>5.0</ele><time>2026-05-01T07:36:27.373Z</time></trkpt><trkpt lat="41.4112939" lon="13.0579183"><ele>5.166666666666667</ele><time>2026-05-01T07:36:29.373Z</time></trkpt><trkpt lat="41.4112268" lon="13.0580004"><ele>5.333333333333334</ele><time>2026-05-01T07:36:31.373Z</time></trkpt><trkpt lat="41.4111605" lon="13.0580829"><ele>5.5</ele><time>2026-05-01T07:36:33.373Z</time></trkpt><trkpt lat="41.4110955" lon="13.058167"><ele>5.666666666666667</ele><time>2026-05-01T07:36:35.373Z</time></trkpt><trkpt lat="41.4110357" lon="13.0582512"><ele>5.833333333333333</ele><time>2026-05-01T07:36:37.373Z</time></trkpt><trkpt lat="41.4109725" lon="13.0583276"><ele>6.0</ele><time>2026-05-01T07:36:39.373Z</time></trkpt><trkpt lat="41.410919" lon="13.0583994"><ele>6.0</ele><time>2026-05-01T07:36:41.373Z</time></trkpt><trkpt lat="41.410857" lon="13.0584739"><ele>6.0</ele><time>2026-05-01T07:36:43.373Z</time></trkpt><trkpt lat="41.4107932" lon="13.0585563"><ele>6.0</ele><time>2026-05-01T07:36:45.373Z</time></trkpt><trkpt lat="41.4107303" lon="13.0586335"><ele>6.0</ele><time>2026-05-01T07:36:47.373Z</time></trkpt><trkpt lat="41.4106695" lon="13.0587168"><ele>6.0</ele><time>2026-05-01T07:36:49.372Z</time></trkpt><trkpt lat="41.4106083" lon="13.0587991"><ele>6.0</ele><time>2026-05-01T07:36:51.373Z</time></trkpt><trkpt lat="41.4105407" lon="13.0588792"><ele>5.666666666666667</ele><time>2026-05-01T07:36:53.373Z</time></trkpt><trkpt lat="41.4104704" lon="13.0589673"><ele>5.333333333333333</ele><time>2026-05-01T07:36:55.372Z</time></trkpt><trkpt lat="41.4104087" lon="13.0590498"><ele>5.0</ele><time>2026-05-01T07:36:57.372Z</time></trkpt><trkpt lat="41.4103464" lon="13.0591346"><ele>4.666666666666666</ele><time>2026-05-01T07:36:59.373Z</time></trkpt><trkpt lat="41.4102837" lon="13.0592183"><ele>4.333333333333333</ele><time>2026-05-01T07:37:01.373Z</time></trkpt><trkpt lat="41.4102247" lon="13.0593046"><ele>4.0</ele><time>2026-05-01T07:37:03.373Z</time></trkpt><trkpt lat="41.4101582" lon="13.0593915"><ele>4.0</ele><time>2026-05-01T07:37:05.373Z</time></trkpt><trkpt lat="41.4100886" lon="13.0594778"><ele>4.0</ele><time>2026-05-01T07:37:07.372Z</time></trkpt><trkpt lat="41.4100209" lon="13.0595666"><ele>4.0</ele><time>2026-05-01T07:37:09.373Z</time></trkpt><trkpt lat="41.4099548" lon="13.0596542"><ele>4.0</ele><time>2026-05-01T07:37:11.373Z</time></trkpt><trkpt lat="41.4098873" lon="13.0597409"><ele>4.0</ele><time>2026-05-01T07:37:13.373Z</time></trkpt><trkpt lat="41.409815" lon="13.059822"><ele>4.0</ele><time>2026-05-01T07:37:15.373Z</time></trkpt><trkpt lat="41.4097523" lon="13.0599108"><ele>4.0</ele><time>2026-05-01T07:37:17.373Z</time></trkpt><trkpt lat="41.4096869" lon="13.0599989"><ele>4.0</ele><time>2026-05-01T07:37:19.373Z</time></trkpt><trkpt lat="41.4096204" lon="13.0600854"><ele>4.0</ele><time>2026-05-01T07:37:21.372Z</time></trkpt><trkpt lat="41.409556" lon="13.0601702"><ele>4.0</ele><time>2026-05-01T07:37:23.373Z</time></trkpt><trkpt lat="41.4094887" lon="13.0602514"><ele>3.8000000000000003</ele><time>2026-05-01T07:37:25.372Z</time></trkpt><trkpt lat="41.4094194" lon="13.0603318"><ele>3.6000000000000005</ele><time>2026-05-01T07:37:27.373Z</time></trkpt><trkpt lat="41.4093543" lon="13.0604244"><ele>3.4</ele><time>2026-05-01T07:37:29.373Z</time></trkpt><trkpt lat="41.4092878" lon="13.0605125"><ele>3.2</ele><time>2026-05-01T07:37:31.373Z</time></trkpt><trkpt lat="41.4092238" lon="13.0605973"><ele>3.0</ele><time>2026-05-01T07:37:33.372Z</time></trkpt><trkpt lat="41.4091575" lon="13.0606857"><ele>3.0</ele><time>2026-05-01T07:37:35.373Z</time></trkpt><trkpt lat="41.4090965" lon="13.0607652"><ele>3.0</ele><time>2026-05-01T07:37:37.372Z</time></trkpt><trkpt lat="41.4090368" lon="13.0608389"><ele>3.0</ele><time>2026-05-01T07:37:39.373Z</time></trkpt><trkpt lat="41.4089676" lon="13.0609238"><ele>3.0</ele><time>2026-05-01T07:37:41.373Z</time></trkpt><trkpt lat="41.4089013" lon="13.0610097"><ele>3.0</ele><time>2026-05-01T07:37:43.372Z</time></trkpt><trkpt lat="41.4088328" lon="13.0610972"><ele>3.0</ele><time>2026-05-01T07:37:45.373Z</time></trkpt><trkpt lat="41.4087662" lon="13.0611822"><ele>2.8</ele><time>2026-05-01T07:37:47.373Z</time></trkpt><trkpt lat="41.4086992" lon="13.0612712"><ele>2.5999999999999996</ele><time>2026-05-01T07:37:49.372Z</time></trkpt><trkpt lat="41.4086343" lon="13.0613588"><ele>2.4000000000000004</ele><time>2026-05-01T07:37:51.373Z</time></trkpt><trkpt lat="41.4085691" lon="13.0614489"><ele>2.2</ele><time>2026-05-01T07:37:53.372Z</time></trkpt><trkpt lat="41.4085029" lon="13.0615333"><ele>2.0</ele><time>2026-05-01T07:37:55.372Z</time></trkpt><trkpt lat="41.4084391" lon="13.0616148"><ele>2.1666666666666665</ele><time>2026-05-01T07:37:57.373Z</time></trkpt><trkpt lat="41.4083771" lon="13.0616907"><ele>2.333333333333333</ele><time>2026-05-01T07:37:59.373Z</time></trkpt><trkpt lat="41.4083177" lon="13.0617674"><ele>2.5</ele><time>2026-05-01T07:38:01.373Z</time></trkpt><trkpt lat="41.4082533" lon="13.0618505"><ele>2.6666666666666665</ele><time>2026-05-01T07:38:03.373Z</time></trkpt><trkpt lat="41.4081902" lon="13.0619308"><ele>2.8333333333333335</ele><time>2026-05-01T07:38:05.372Z</time></trkpt><trkpt lat="41.4081281" lon="13.0620099"><ele>3.0</ele><time>2026-05-01T07:38:07.373Z</time></trkpt><trkpt lat="41.4080642" lon="13.0620863"><ele>3.0</ele><time>2026-05-01T07:38:09.373Z</time></trkpt><trkpt lat="41.407999" lon="13.0621723"><ele>3.0</ele><time>2026-05-01T07:38:11.373Z</time></trkpt><trkpt lat="41.4079298" lon="13.0622605"><ele>3.0</ele><time>2026-05-01T07:38:13.373Z</time></trkpt><trkpt lat="41.4078622" lon="13.0623451"><ele>3.0</ele><time>2026-05-01T07:38:15.373Z</time></trkpt><trkpt lat="41.4077949" lon="13.0624279"><ele>3.0</ele><time>2026-05-01T07:38:17.373Z</time></trkpt><trkpt lat="41.4077338" lon="13.0625038"><ele>3.666666666666667</ele><time>2026-05-01T07:38:19.373Z</time></trkpt><trkpt lat="41.4076746" lon="13.0625825"><ele>4.333333333333334</ele><time>2026-05-01T07:38:21.373Z</time></trkpt><trkpt lat="41.4076219" lon="13.0626589"><ele>5.0</ele><time>2026-05-01T07:38:23.373Z</time></trkpt><trkpt lat="41.4075673" lon="13.0627319"><ele>5.666666666666667</ele><time>2026-05-01T07:38:25.373Z</time></trkpt><trkpt lat="41.4075083" lon="13.062807"><ele>6.333333333333334</ele><time>2026-05-01T07:38:27.373Z</time></trkpt><trkpt lat="41.4074482" lon="13.0628814"><ele>7.0</ele><time>2026-05-01T07:38:29.373Z</time></trkpt><trkpt lat="41.4073867" lon="13.0629489"><ele>7.000000000000001</ele><time>2026-05-01T07:38:31.373Z</time></trkpt><trkpt lat="41.407328" lon="13.063025"><ele>7.0</ele><time>2026-05-01T07:38:33.373Z</time></trkpt><trkpt lat="41.4072654" lon="13.0631005"><ele>7.0</ele><time>2026-05-01T07:38:35.372Z</time></trkpt><trkpt lat="41.4072073" lon="13.0631811"><ele>7.0</ele><time>2026-05-01T07:38:37.373Z</time></trkpt><trkpt lat="41.4071468" lon="13.0632559"><ele>7.000000000000001</ele><time>2026-05-01T07:38:39.372Z</time></trkpt><trkpt lat="41.4070867" lon="13.0633365"><ele>7.0</ele><time>2026-05-01T07:38:41.373Z</time></trkpt><trkpt lat="41.4070236" lon="13.0634175"><ele>6.833333333333334</ele><time>2026-05-01T07:38:43.373Z</time></trkpt><trkpt lat="41.4069589" lon="13.0634967"><ele>6.666666666666667</ele><time>2026-05-01T07:38:45.373Z</time></trkpt><trkpt lat="41.4068955" lon="13.0635797"><ele>6.5</ele><time>2026-05-01T07:38:47.373Z</time></trkpt><trkpt lat="41.4068301" lon="13.0636628"><ele>6.333333333333334</ele><time>2026-05-01T07:38:49.373Z</time></trkpt><trkpt lat="41.4067673" lon="13.0637468"><ele>6.166666666666667</ele><time>2026-05-01T07:38:51.373Z</time></trkpt><trkpt lat="41.4067054" lon="13.0638267"><ele>6.0</ele><time>2026-05-01T07:38:53.372Z</time></trkpt><trkpt lat="41.4066415" lon="13.0639146"><ele>6.0</ele><time>2026-05-01T07:38:55.373Z</time></trkpt><trkpt lat="41.4065793" lon="13.0639926"><ele>6.0</ele><time>2026-05-01T07:38:57.373Z</time></trkpt><trkpt lat="41.4065163" lon="13.064067"><ele>6.0</ele><time>2026-05-01T07:38:59.373Z</time></trkpt><trkpt lat="41.4064515" lon="13.0641463"><ele>6.0</ele><time>2026-05-01T07:39:01.372Z</time></trkpt><trkpt lat="41.4063897" lon="13.0642261"><ele>6.0</ele><time>2026-05-01T07:39:03.373Z</time></trkpt><trkpt lat="41.4063303" lon="13.0643064"><ele>6.0</ele><time>2026-05-01T07:39:05.373Z</time></trkpt><trkpt lat="41.4062662" lon="13.0643883"><ele>5.166666666666667</ele><time>2026-05-01T07:39:07.373Z</time></trkpt><trkpt lat="41.4062036" lon="13.0644701"><ele>4.333333333333333</ele><time>2026-05-01T07:39:09.373Z</time></trkpt><trkpt lat="41.4061415" lon="13.0645591"><ele>3.5</ele><time>2026-05-01T07:39:11.372Z</time></trkpt><trkpt lat="41.4060771" lon="13.0646374"><ele>2.6666666666666665</ele><time>2026-05-01T07:39:13.372Z</time></trkpt><trkpt lat="41.4060143" lon="13.064713"><ele>1.8333333333333333</ele><time>2026-05-01T07:39:15.373Z</time></trkpt><trkpt lat="41.4059537" lon="13.0647897"><ele>1.0</ele><time>2026-05-01T07:39:17.373Z</time></trkpt><trkpt lat="41.4058938" lon="13.0648704"><ele>1.1666666666666665</ele><time>2026-05-01T07:39:19.372Z</time></trkpt><trkpt lat="41.4058296" lon="13.0649592"><ele>1.3333333333333333</ele><time>2026-05-01T07:39:21.372Z</time></trkpt><trkpt lat="41.4057654" lon="13.0650438"><ele>1.5</ele><time>2026-05-01T07:39:23.373Z</time></trkpt><trkpt lat="41.4057008" lon="13.0651251"><ele>1.6666666666666665</ele><time>2026-05-01T07:39:25.373Z</time></trkpt><trkpt lat="41.4056381" lon="13.0652036"><ele>1.8333333333333333</ele><time>2026-05-01T07:39:27.373Z</time></trkpt><trkpt lat="41.4055778" lon="13.0652852"><ele>2.0</ele><time>2026-05-01T07:39:29.373Z</time></trkpt><trkpt lat="41.4055138" lon="13.0653632"><ele>1.9999999999999998</ele><time>2026-05-01T07:39:31.373Z</time></trkpt><trkpt lat="41.4054534" lon="13.0654394"><ele>2.0</ele><time>2026-05-01T07:39:33.373Z</time></trkpt><trkpt lat="41.4053971" lon="13.0655174"><ele>2.0</ele><time>2026-05-01T07:39:35.372Z</time></trkpt><trkpt lat="41.4053433" lon="13.0655963"><ele>2.0</ele><time>2026-05-01T07:39:37.373Z</time></trkpt><trkpt lat="41.4052776" lon="13.0656763"><ele>1.9999999999999998</ele><time>2026-05-01T07:39:39.373Z</time></trkpt><trkpt lat="41.4052167" lon="13.0657537"><ele>2.0</ele><time>2026-05-01T07:39:41.373Z</time></trkpt><trkpt lat="41.4051552" lon="13.0658332"><ele>2.1666666666666665</ele><time>2026-05-01T07:39:43.373Z</time></trkpt><trkpt lat="41.4050962" lon="13.0659158"><ele>2.333333333333333</ele><time>2026-05-01T07:39:45.373Z</time></trkpt><trkpt lat="41.4050327" lon="13.065994"><ele>2.5</ele><time>2026-05-01T07:39:47.373Z</time></trkpt><trkpt lat="41.4049742" lon="13.0660734"><ele>2.6666666666666665</ele><time>2026-05-01T07:39:49.372Z</time></trkpt><trkpt lat="41.4049115" lon="13.0661462"><ele>2.8333333333333335</ele><time>2026-05-01T07:39:51.372Z</time></trkpt><trkpt lat="41.404851" lon="13.0662208"><ele>3.0</ele><time>2026-05-01T07:39:53.372Z</time></trkpt><trkpt lat="41.404789" lon="13.0662926"><ele>3.0</ele><time>2026-05-01T07:39:55.373Z</time></trkpt><trkpt lat="41.4047324" lon="13.0663671"><ele>3.0</ele><time>2026-05-01T07:39:57.372Z</time></trkpt><trkpt lat="41.4046743" lon="13.0664457"><ele>3.0</ele><time>2026-05-01T07:39:59.373Z</time></trkpt><trkpt lat="41.4046187" lon="13.0665226"><ele>3.0</ele><time>2026-05-01T07:40:01.373Z</time></trkpt><trkpt lat="41.4045587" lon="13.0666006"><ele>3.0</ele><time>2026-05-01T07:40:03.373Z</time></trkpt><trkpt lat="41.4044971" lon="13.0666751"><ele>3.0</ele><time>2026-05-01T07:40:05.372Z</time></trkpt><trkpt lat="41.404443" lon="13.0667524"><ele>2.5</ele><time>2026-05-01T07:40:07.372Z</time></trkpt><trkpt lat="41.404382" lon="13.0668245"><ele>2.0</ele><time>2026-05-01T07:40:09.373Z</time></trkpt><trkpt lat="41.4043223" lon="13.0668999"><ele>1.5</ele><time>2026-05-01T07:40:11.373Z</time></trkpt><trkpt lat="41.4042619" lon="13.0669743"><ele>1.0</ele><time>2026-05-01T07:40:13.372Z</time></trkpt><trkpt lat="41.4042052" lon="13.0670498"><ele>0.5</ele><time>2026-05-01T07:40:15.373Z</time></trkpt><trkpt lat="41.4041456" lon="13.067128"><ele>0.0</ele><time>2026-05-01T07:40:17.373Z</time></trkpt><trkpt lat="41.4040822" lon="13.0672048"><ele>0.0</ele><time>2026-05-01T07:40:19.372Z</time></trkpt><trkpt lat="41.4040251" lon="13.0672749"><ele>0.0</ele><time>2026-05-01T07:40:21.373Z</time></trkpt><trkpt lat="41.4039663" lon="13.0673524"><ele>0.0</ele><time>2026-05-01T07:40:23.373Z</time></trkpt><trkpt lat="41.4039111" lon="13.0674395"><ele>0.0</ele><time>2026-05-01T07:40:25.373Z</time></trkpt><trkpt lat="41.4038522" lon="13.0675147"><ele>0.0</ele><time>2026-05-01T07:40:27.373Z</time></trkpt><trkpt lat="41.4037902" lon="13.0675875"><ele>0.0</ele><time>2026-05-01T07:40:29.373Z</time></trkpt><trkpt lat="41.4037285" lon="13.0676695"><ele>1.1666666666666667</ele><time>2026-05-01T07:40:31.372Z</time></trkpt><trkpt lat="41.4036702" lon="13.0677479"><ele>2.3333333333333335</ele><time>2026-05-01T07:40:33.372Z</time></trkpt><trkpt lat="41.4036089" lon="13.0678202"><ele>3.5</ele><time>2026-05-01T07:40:35.372Z</time></trkpt><trkpt lat="41.4035431" lon="13.067893"><ele>4.666666666666667</ele><time>2026-05-01T07:40:37.371Z</time></trkpt><trkpt lat="41.4034811" lon="13.0679631"><ele>5.833333333333334</ele><time>2026-05-01T07:40:39.372Z</time></trkpt><trkpt lat="41.4034217" lon="13.0680478"><ele>7.0</ele><time>2026-05-01T07:40:41.372Z</time></trkpt><trkpt lat="41.4033648" lon="13.0681292"><ele>7.000000000000001</ele><time>2026-05-01T07:40:43.372Z</time></trkpt><trkpt lat="41.4033031" lon="13.0682074"><ele>7.0</ele><time>2026-05-01T07:40:45.372Z</time></trkpt><trkpt lat="41.4032456" lon="13.0682828"><ele>7.0</ele><time>2026-05-01T07:40:47.372Z</time></trkpt><trkpt lat="41.4031853" lon="13.0683582"><ele>7.0</ele><time>2026-05-01T07:40:49.372Z</time></trkpt><trkpt lat="41.4031226" lon="13.0684311"><ele>7.000000000000001</ele><time>2026-05-01T07:40:51.372Z</time></trkpt><trkpt lat="41.4030609" lon="13.068509"><ele>7.0</ele><time>2026-05-01T07:40:53.372Z</time></trkpt><trkpt lat="41.4029975" lon="13.0685848"><ele>7.000000000000001</ele><time>2026-05-01T07:40:55.371Z</time></trkpt><trkpt lat="41.4029419" lon="13.0686722"><ele>7.0</ele><time>2026-05-01T07:40:57.372Z</time></trkpt><trkpt lat="41.4028827" lon="13.0687517"><ele>7.0</ele><time>2026-05-01T07:40:59.371Z</time></trkpt><trkpt lat="41.4028233" lon="13.0688277"><ele>7.0</ele><time>2026-05-01T07:41:01.372Z</time></trkpt><trkpt lat="41.4027635" lon="13.0688986"><ele>7.000000000000001</ele><time>2026-05-01T07:41:03.372Z</time></trkpt><trkpt lat="41.4026989" lon="13.0689706"><ele>7.0</ele><time>2026-05-01T07:41:05.372Z</time></trkpt><trkpt lat="41.4026386" lon="13.0690462"><ele>7.333333333333334</ele><time>2026-05-01T07:41:07.372Z</time></trkpt><trkpt lat="41.4025816" lon="13.0691276"><ele>7.666666666666667</ele><time>2026-05-01T07:41:09.371Z</time></trkpt><trkpt lat="41.4025195" lon="13.0692078"><ele>8.0</ele><time>2026-05-01T07:41:11.372Z</time></trkpt><trkpt lat="41.4024572" lon="13.0692859"><ele>8.333333333333334</ele><time>2026-05-01T07:41:13.371Z</time></trkpt><trkpt lat="41.4023934" lon="13.0693633"><ele>8.666666666666666</ele><time>2026-05-01T07:41:15.371Z</time></trkpt><trkpt lat="41.402334" lon="13.0694444"><ele>9.0</ele><time>2026-05-01T07:41:17.372Z</time></trkpt><trkpt lat="41.4022775" lon="13.0695201"><ele>9.0</ele><time>2026-05-01T07:41:19.372Z</time></trkpt><trkpt lat="41.4022173" lon="13.0696009"><ele>9.0</ele><time>2026-05-01T07:41:21.372Z</time></trkpt><trkpt lat="41.4021637" lon="13.0696799"><ele>9.0</ele><time>2026-05-01T07:41:23.372Z</time></trkpt><trkpt lat="41.402103" lon="13.0697578"><ele>9.0</ele><time>2026-05-01T07:41:25.372Z</time></trkpt><trkpt lat="41.4020358" lon="13.0698347"><ele>9.0</ele><time>2026-05-01T07:41:27.372Z</time></trkpt><trkpt lat="41.4019714" lon="13.069913"><ele>9.0</ele><time>2026-05-01T07:41:29.372Z</time></trkpt><trkpt lat="41.4019091" lon="13.0699846"><ele>9.5</ele><time>2026-05-01T07:41:31.372Z</time></trkpt><trkpt lat="41.4018477" lon="13.070062"><ele>10.0</ele><time>2026-05-01T07:41:33.371Z</time></trkpt><trkpt lat="41.4017863" lon="13.0701416"><ele>10.5</ele><time>2026-05-01T07:41:35.372Z</time></trkpt><trkpt lat="41.4017266" lon="13.070224"><ele>11.0</ele><time>2026-05-01T07:41:37.372Z</time></trkpt><trkpt lat="41.4016696" lon="13.0703056"><ele>11.5</ele><time>2026-05-01T07:41:39.371Z</time></trkpt><trkpt lat="41.4016087" lon="13.0703872"><ele>12.0</ele><time>2026-05-01T07:41:41.372Z</time></trkpt><trkpt lat="41.4015448" lon="13.0704736"><ele>12.0</ele><time>2026-05-01T07:41:43.372Z</time></trkpt><trkpt lat="41.4014839" lon="13.0705488"><ele>12.0</ele><time>2026-05-01T07:41:45.372Z</time></trkpt><trkpt lat="41.4014235" lon="13.0706306"><ele>12.0</ele><time>2026-05-01T07:41:47.372Z</time></trkpt><trkpt lat="41.4013661" lon="13.0707"><ele>12.0</ele><time>2026-05-01T07:41:49.372Z</time></trkpt><trkpt lat="41.4013113" lon="13.0707649"><ele>12.0</ele><time>2026-05-01T07:41:51.372Z</time></trkpt><trkpt lat="41.4012567" lon="13.0708335"><ele>12.0</ele><time>2026-05-01T07:41:53.372Z</time></trkpt><trkpt lat="41.4012043" lon="13.0709092"><ele>11.333333333333334</ele><time>2026-05-01T07:41:55.372Z</time></trkpt><trkpt lat="41.4011426" lon="13.0709772"><ele>10.666666666666666</ele><time>2026-05-01T07:41:57.372Z</time></trkpt><trkpt lat="41.4010803" lon="13.0710545"><ele>10.0</ele><time>2026-05-01T07:41:59.372Z</time></trkpt><trkpt lat="41.4010207" lon="13.0711343"><ele>9.333333333333332</ele><time>2026-05-01T07:42:01.372Z</time></trkpt><trkpt lat="41.4009611" lon="13.0712111"><ele>8.666666666666666</ele><time>2026-05-01T07:42:03.372Z</time></trkpt><trkpt lat="41.4009005" lon="13.0712891"><ele>8.0</ele><time>2026-05-01T07:42:05.371Z</time></trkpt><trkpt lat="41.4008436" lon="13.0713636"><ele>7.999999999999999</ele><time>2026-05-01T07:42:07.372Z</time></trkpt><trkpt lat="41.4007916" lon="13.0714348"><ele>8.0</ele><time>2026-05-01T07:42:09.371Z</time></trkpt><trkpt lat="41.4007357" lon="13.0715134"><ele>8.0</ele><time>2026-05-01T07:42:11.371Z</time></trkpt><trkpt lat="41.4006784" lon="13.0715853"><ele>8.0</ele><time>2026-05-01T07:42:13.372Z</time></trkpt><trkpt lat="41.4006166" lon="13.0716594"><ele>7.999999999999999</ele><time>2026-05-01T07:42:15.372Z</time></trkpt><trkpt lat="41.4005569" lon="13.0717376"><ele>8.0</ele><time>2026-05-01T07:42:17.372Z</time></trkpt><trkpt lat="41.4004986" lon="13.0718162"><ele>7.999999999999999</ele><time>2026-05-01T07:42:19.372Z</time></trkpt><trkpt lat="41.4004413" lon="13.071889"><ele>8.0</ele><time>2026-05-01T07:42:21.372Z</time></trkpt><trkpt lat="41.4003836" lon="13.0719653"><ele>8.0</ele><time>2026-05-01T07:42:23.371Z</time></trkpt><trkpt lat="41.4003245" lon="13.0720403"><ele>8.0</ele><time>2026-05-01T07:42:25.372Z</time></trkpt><trkpt lat="41.400266" lon="13.0721115"><ele>7.999999999999999</ele><time>2026-05-01T07:42:27.372Z</time></trkpt><trkpt lat="41.4002068" lon="13.0721839"><ele>8.0</ele><time>2026-05-01T07:42:29.371Z</time></trkpt><trkpt lat="41.4001502" lon="13.072264"><ele>7.999999999999999</ele><time>2026-05-01T07:42:31.371Z</time></trkpt><trkpt lat="41.4000891" lon="13.0723383"><ele>8.0</ele><time>2026-05-01T07:42:33.372Z</time></trkpt><trkpt lat="41.4000308" lon="13.0724139"><ele>8.0</ele><time>2026-05-01T07:42:35.372Z</time></trkpt><trkpt lat="41.3999699" lon="13.0724873"><ele>8.0</ele><time>2026-05-01T07:42:37.371Z</time></trkpt><trkpt lat="41.3999068" lon="13.072567"><ele>7.999999999999999</ele><time>2026-05-01T07:42:39.372Z</time></trkpt><trkpt lat="41.3998513" lon="13.0726429"><ele>8.0</ele><time>2026-05-01T07:42:41.372Z</time></trkpt><trkpt lat="41.3997936" lon="13.0727169"><ele>7.999999999999999</ele><time>2026-05-01T07:42:43.372Z</time></trkpt><trkpt lat="41.3997323" lon="13.0727929"><ele>8.0</ele><time>2026-05-01T07:42:45.372Z</time></trkpt><trkpt lat="41.3996783" lon="13.0728676"><ele>8.0</ele><time>2026-05-01T07:42:47.372Z</time></trkpt><trkpt lat="41.3996169" lon="13.0729449"><ele>8.0</ele><time>2026-05-01T07:42:49.372Z</time></trkpt><trkpt lat="41.3995561" lon="13.0730206"><ele>7.999999999999999</ele><time>2026-05-01T07:42:51.372Z</time></trkpt><trkpt lat="41.3995033" lon="13.0730856"><ele>8.0</ele><time>2026-05-01T07:42:53.372Z</time></trkpt><trkpt lat="41.3994451" lon="13.0731586"><ele>7.999999999999999</ele><time>2026-05-01T07:42:55.371Z</time></trkpt><trkpt lat="41.3993835" lon="13.0732359"><ele>8.0</ele><time>2026-05-01T07:42:57.371Z</time></trkpt><trkpt lat="41.3993265" lon="13.0733126"><ele>8.0</ele><time>2026-05-01T07:42:59.372Z</time></trkpt><trkpt lat="41.3992695" lon="13.0733898"><ele>8.0</ele><time>2026-05-01T07:43:01.372Z</time></trkpt><trkpt lat="41.3992153" lon="13.0734673"><ele>7.999999999999999</ele><time>2026-05-01T07:43:03.372Z</time></trkpt><trkpt lat="41.399156" lon="13.0735413"><ele>8.0</ele><time>2026-05-01T07:43:05.372Z</time></trkpt><trkpt lat="41.3990963" lon="13.0736189"><ele>7.666666666666666</ele><time>2026-05-01T07:43:07.371Z</time></trkpt><trkpt lat="41.3990378" lon="13.073702"><ele>7.333333333333333</ele><time>2026-05-01T07:43:09.372Z</time></trkpt><trkpt lat="41.3989768" lon="13.0737715"><ele>7.0</ele><time>2026-05-01T07:43:11.372Z</time></trkpt><trkpt lat="41.3989129" lon="13.07385"><ele>6.666666666666666</ele><time>2026-05-01T07:43:13.371Z</time></trkpt><trkpt lat="41.3988529" lon="13.0739241"><ele>6.333333333333333</ele><time>2026-05-01T07:43:15.372Z</time></trkpt><trkpt lat="41.3987894" lon="13.0740013"><ele>6.0</ele><time>2026-05-01T07:43:17.372Z</time></trkpt><trkpt lat="41.3987296" lon="13.0740779"><ele>6.166666666666667</ele><time>2026-05-01T07:43:19.372Z</time></trkpt><trkpt lat="41.3986706" lon="13.0741595"><ele>6.333333333333334</ele><time>2026-05-01T07:43:21.371Z</time></trkpt><trkpt lat="41.3986088" lon="13.0742401"><ele>6.5</ele><time>2026-05-01T07:43:23.372Z</time></trkpt><trkpt lat="41.3985502" lon="13.0743171"><ele>6.666666666666667</ele><time>2026-05-01T07:43:25.371Z</time></trkpt><trkpt lat="41.3984827" lon="13.0743932"><ele>6.833333333333334</ele><time>2026-05-01T07:43:27.372Z</time></trkpt><trkpt lat="41.3984248" lon="13.0744692"><ele>7.0</ele><time>2026-05-01T07:43:29.371Z</time></trkpt><trkpt lat="41.398366" lon="13.0745529"><ele>7.000000000000001</ele><time>2026-05-01T07:43:31.372Z</time></trkpt><trkpt lat="41.3983074" lon="13.0746274"><ele>7.0</ele><time>2026-05-01T07:43:33.372Z</time></trkpt><trkpt lat="41.3982558" lon="13.0747079"><ele>7.0</ele><time>2026-05-01T07:43:35.372Z</time></trkpt><trkpt lat="41.3981995" lon="13.0747772"><ele>7.0</ele><time>2026-05-01T07:43:37.371Z</time></trkpt><trkpt lat="41.3981416" lon="13.0748453"><ele>7.000000000000001</ele><time>2026-05-01T07:43:39.372Z</time></trkpt><trkpt lat="41.3980883" lon="13.0749262"><ele>7.0</ele><time>2026-05-01T07:43:41.371Z</time></trkpt><trkpt lat="41.3980204" lon="13.0750063"><ele>8.0</ele><time>2026-05-01T07:43:43.372Z</time></trkpt><trkpt lat="41.3979588" lon="13.0750859"><ele>9.0</ele><time>2026-05-01T07:43:45.372Z</time></trkpt><trkpt lat="41.397894" lon="13.0751673"><ele>10.0</ele><time>2026-05-01T07:43:47.372Z</time></trkpt><trkpt lat="41.3978364" lon="13.0752504"><ele>11.0</ele><time>2026-05-01T07:43:49.371Z</time></trkpt><trkpt lat="41.3977721" lon="13.0753307"><ele>11.999999999999998</ele><time>2026-05-01T07:43:51.372Z</time></trkpt><trkpt lat="41.3977057" lon="13.0754091"><ele>13.0</ele><time>2026-05-01T07:43:53.371Z</time></trkpt><trkpt lat="41.3976429" lon="13.0754826"><ele>12.999999999999998</ele><time>2026-05-01T07:43:55.372Z</time></trkpt><trkpt lat="41.3975866" lon="13.0755575"><ele>13.0</ele><time>2026-05-01T07:43:57.372Z</time></trkpt><trkpt lat="41.3975229" lon="13.0756409"><ele>13.0</ele><time>2026-05-01T07:43:59.372Z</time></trkpt><trkpt lat="41.3974592" lon="13.0757278"><ele>13.0</ele><time>2026-05-01T07:44:01.372Z</time></trkpt><trkpt lat="41.3974002" lon="13.07581"><ele>12.999999999999998</ele><time>2026-05-01T07:44:03.372Z</time></trkpt><trkpt lat="41.397331" lon="13.0758891"><ele>13.0</ele><time>2026-05-01T07:44:05.372Z</time></trkpt><trkpt lat="41.3972592" lon="13.0759709"><ele>13.166666666666666</ele><time>2026-05-01T07:44:07.371Z</time></trkpt><trkpt lat="41.3972016" lon="13.0760513"><ele>13.333333333333332</ele><time>2026-05-01T07:44:09.372Z</time></trkpt><trkpt lat="41.3971372" lon="13.07613"><ele>13.5</ele><time>2026-05-01T07:44:11.372Z</time></trkpt><trkpt lat="41.3970744" lon="13.0762166"><ele>13.666666666666668</ele><time>2026-05-01T07:44:13.371Z</time></trkpt><trkpt lat="41.3970176" lon="13.0762939"><ele>13.833333333333334</ele><time>2026-05-01T07:44:15.372Z</time></trkpt><trkpt lat="41.3969595" lon="13.0763781"><ele>14.0</ele><time>2026-05-01T07:44:17.372Z</time></trkpt><trkpt lat="41.3968988" lon="13.0764573"><ele>13.000000000000002</ele><time>2026-05-01T07:44:19.372Z</time></trkpt><trkpt lat="41.3968374" lon="13.0765363"><ele>12.0</ele><time>2026-05-01T07:44:21.372Z</time></trkpt><trkpt lat="41.3967761" lon="13.0766169"><ele>11.0</ele><time>2026-05-01T07:44:23.372Z</time></trkpt><trkpt lat="41.3967158" lon="13.0766945"><ele>10.0</ele><time>2026-05-01T07:44:25.372Z</time></trkpt><trkpt lat="41.396656" lon="13.0767744"><ele>9.0</ele><time>2026-05-01T07:44:27.372Z</time></trkpt><trkpt lat="41.3965935" lon="13.0768587"><ele>8.0</ele><time>2026-05-01T07:44:29.371Z</time></trkpt><trkpt lat="41.3965229" lon="13.0769383"><ele>7.999999999999999</ele><time>2026-05-01T07:44:31.371Z</time></trkpt><trkpt lat="41.3964579" lon="13.077018"><ele>8.0</ele><time>2026-05-01T07:44:33.372Z</time></trkpt><trkpt lat="41.3963939" lon="13.0770987"><ele>8.0</ele><time>2026-05-01T07:44:35.371Z</time></trkpt><trkpt lat="41.3963247" lon="13.0771751"><ele>8.0</ele><time>2026-05-01T07:44:37.371Z</time></trkpt><trkpt lat="41.3962611" lon="13.0772538"><ele>7.999999999999999</ele><time>2026-05-01T07:44:39.372Z</time></trkpt><trkpt lat="41.3961991" lon="13.0773293"><ele>8.0</ele><time>2026-05-01T07:44:41.372Z</time></trkpt><trkpt lat="41.3961435" lon="13.0774093"><ele>8.166666666666666</ele><time>2026-05-01T07:44:43.372Z</time></trkpt><trkpt lat="41.3960819" lon="13.0774887"><ele>8.333333333333332</ele><time>2026-05-01T07:44:45.372Z</time></trkpt><trkpt lat="41.396023" lon="13.0775674"><ele>8.5</ele><time>2026-05-01T07:44:47.372Z</time></trkpt><trkpt lat="41.3959587" lon="13.0776437"><ele>8.666666666666666</ele><time>2026-05-01T07:44:49.371Z</time></trkpt><trkpt lat="41.3959013" lon="13.0777243"><ele>8.833333333333334</ele><time>2026-05-01T07:44:51.371Z</time></trkpt><trkpt lat="41.3958397" lon="13.0778049"><ele>9.0</ele><time>2026-05-01T07:44:53.372Z</time></trkpt><trkpt lat="41.3957653" lon="13.0778827"><ele>9.0</ele><time>2026-05-01T07:44:55.371Z</time></trkpt><trkpt lat="41.395702" lon="13.0779627"><ele>9.0</ele><time>2026-05-01T07:44:57.371Z</time></trkpt><trkpt lat="41.3956394" lon="13.0780486"><ele>9.0</ele><time>2026-05-01T07:44:59.372Z</time></trkpt><trkpt lat="41.3955771" lon="13.0781315"><ele>9.0</ele><time>2026-05-01T07:45:01.372Z</time></trkpt><trkpt lat="41.3955152" lon="13.0782045"><ele>9.0</ele><time>2026-05-01T07:45:03.372Z</time></trkpt><trkpt lat="41.3954518" lon="13.0782836"><ele>9.0</ele><time>2026-05-01T07:45:05.372Z</time></trkpt><trkpt lat="41.3953867" lon="13.0783693"><ele>8.666666666666666</ele><time>2026-05-01T07:45:07.372Z</time></trkpt><trkpt lat="41.395326" lon="13.0784517"><ele>8.333333333333334</ele><time>2026-05-01T07:45:09.371Z</time></trkpt><trkpt lat="41.3952665" lon="13.0785301"><ele>8.0</ele><time>2026-05-01T07:45:11.372Z</time></trkpt><trkpt lat="41.3952064" lon="13.078611"><ele>7.666666666666667</ele><time>2026-05-01T07:45:13.371Z</time></trkpt><trkpt lat="41.3951475" lon="13.0786921"><ele>7.333333333333334</ele><time>2026-05-01T07:45:15.372Z</time></trkpt><trkpt lat="41.3950832" lon="13.0787744"><ele>7.0</ele><time>2026-05-01T07:45:17.372Z</time></trkpt><trkpt lat="41.3950246" lon="13.0788498"><ele>7.000000000000001</ele><time>2026-05-01T07:45:19.372Z</time></trkpt><trkpt lat="41.3949604" lon="13.0789318"><ele>7.0</ele><time>2026-05-01T07:45:21.372Z</time></trkpt><trkpt lat="41.394898" lon="13.0790103"><ele>7.0</ele><time>2026-05-01T07:45:23.372Z</time></trkpt><trkpt lat="41.3948403" lon="13.0790911"><ele>7.0</ele><time>2026-05-01T07:45:25.372Z</time></trkpt><trkpt lat="41.3947812" lon="13.0791692"><ele>7.000000000000001</ele><time>2026-05-01T07:45:27.372Z</time></trkpt><trkpt lat="41.3947174" lon="13.0792512"><ele>7.0</ele><time>2026-05-01T07:45:29.372Z</time></trkpt><trkpt lat="41.3946567" lon="13.0793314"><ele>7.166666666666667</ele><time>2026-05-01T07:45:31.371Z</time></trkpt><trkpt lat="41.3945952" lon="13.0794069"><ele>7.333333333333334</ele><time>2026-05-01T07:45:33.371Z</time></trkpt><trkpt lat="41.3945334" lon="13.0794836"><ele>7.5</ele><time>2026-05-01T07:45:35.372Z</time></trkpt><trkpt lat="41.3944724" lon="13.079567"><ele>7.666666666666666</ele><time>2026-05-01T07:45:37.372Z</time></trkpt><trkpt lat="41.3944047" lon="13.0796512"><ele>7.833333333333333</ele><time>2026-05-01T07:45:39.371Z</time></trkpt><trkpt lat="41.3943422" lon="13.0797217"><ele>8.0</ele><time>2026-05-01T07:45:41.372Z</time></trkpt><trkpt lat="41.394276" lon="13.0798042"><ele>7.999999999999999</ele><time>2026-05-01T07:45:43.372Z</time></trkpt><trkpt lat="41.3942179" lon="13.0798889"><ele>8.0</ele><time>2026-05-01T07:45:45.372Z</time></trkpt><trkpt lat="41.3941553" lon="13.079968"><ele>8.0</ele><time>2026-05-01T07:45:47.372Z</time></trkpt><trkpt lat="41.3940957" lon="13.080044"><ele>8.0</ele><time>2026-05-01T07:45:49.372Z</time></trkpt><trkpt lat="41.3940348" lon="13.0801202"><ele>7.999999999999999</ele><time>2026-05-01T07:45:51.372Z</time></trkpt><trkpt lat="41.3939731" lon="13.0801981"><ele>8.0</ele><time>2026-05-01T07:45:53.371Z</time></trkpt><trkpt lat="41.3939127" lon="13.0802824"><ele>7.999999999999999</ele><time>2026-05-01T07:45:55.372Z</time></trkpt><trkpt lat="41.3938473" lon="13.0803757"><ele>8.0</ele><time>2026-05-01T07:45:57.372Z</time></trkpt><trkpt lat="41.3937821" lon="13.0804559"><ele>8.0</ele><time>2026-05-01T07:45:59.372Z</time></trkpt><trkpt lat="41.3937186" lon="13.0805402"><ele>8.0</ele><time>2026-05-01T07:46:01.372Z</time></trkpt><trkpt lat="41.3936556" lon="13.0806175"><ele>7.999999999999999</ele><time>2026-05-01T07:46:03.372Z</time></trkpt><trkpt lat="41.3935969" lon="13.0806925"><ele>8.0</ele><time>2026-05-01T07:46:05.372Z</time></trkpt><trkpt lat="41.3935424" lon="13.080774"><ele>7.999999999999999</ele><time>2026-05-01T07:46:07.371Z</time></trkpt><trkpt lat="41.3934842" lon="13.0808423"><ele>8.0</ele><time>2026-05-01T07:46:09.372Z</time></trkpt><trkpt lat="41.3934191" lon="13.0809118"><ele>8.0</ele><time>2026-05-01T07:46:11.372Z</time></trkpt><trkpt lat="41.3933612" lon="13.0809934"><ele>8.0</ele><time>2026-05-01T07:46:13.372Z</time></trkpt><trkpt lat="41.3933041" lon="13.081071"><ele>7.999999999999999</ele><time>2026-05-01T07:46:15.372Z</time></trkpt><trkpt lat="41.3932418" lon="13.0811446"><ele>8.0</ele><time>2026-05-01T07:46:17.372Z</time></trkpt><trkpt lat="41.3931825" lon="13.0812203"><ele>7.999999999999999</ele><time>2026-05-01T07:46:19.372Z</time></trkpt><trkpt lat="41.3931213" lon="13.081301"><ele>8.0</ele><time>2026-05-01T07:46:21.372Z</time></trkpt><trkpt lat="41.3930582" lon="13.0813831"><ele>8.0</ele><time>2026-05-01T07:46:23.372Z</time></trkpt><trkpt lat="41.3929964" lon="13.0814612"><ele>8.0</ele><time>2026-05-01T07:46:25.372Z</time></trkpt><trkpt lat="41.3929346" lon="13.0815351"><ele>7.999999999999999</ele><time>2026-05-01T07:46:27.372Z</time></trkpt><trkpt lat="41.3928774" lon="13.0816064"><ele>8.0</ele><time>2026-05-01T07:46:29.372Z</time></trkpt><trkpt lat="41.3928223" lon="13.0816907"><ele>8.333333333333332</ele><time>2026-05-01T07:46:31.371Z</time></trkpt><trkpt lat="41.3927649" lon="13.0817701"><ele>8.666666666666666</ele><time>2026-05-01T07:46:33.371Z</time></trkpt><trkpt lat="41.392694" lon="13.0818347"><ele>9.0</ele><time>2026-05-01T07:46:35.372Z</time></trkpt><trkpt lat="41.3926384" lon="13.0819125"><ele>9.333333333333334</ele><time>2026-05-01T07:46:37.372Z</time></trkpt><trkpt lat="41.3925764" lon="13.081998"><ele>9.666666666666668</ele><time>2026-05-01T07:46:39.372Z</time></trkpt><trkpt lat="41.3925194" lon="13.0820869"><ele>10.0</ele><time>2026-05-01T07:46:41.371Z</time></trkpt><trkpt lat="41.3924541" lon="13.0821628"><ele>10.0</ele><time>2026-05-01T07:46:43.372Z</time></trkpt><trkpt lat="41.3923931" lon="13.0822413"><ele>10.0</ele><time>2026-05-01T07:46:45.371Z</time></trkpt><trkpt lat="41.3923316" lon="13.082318"><ele>10.0</ele><time>2026-05-01T07:46:47.372Z</time></trkpt><trkpt lat="41.3922692" lon="13.0823957"><ele>10.0</ele><time>2026-05-01T07:46:49.372Z</time></trkpt><trkpt lat="41.3922121" lon="13.0824715"><ele>10.0</ele><time>2026-05-01T07:46:51.372Z</time></trkpt><trkpt lat="41.3921555" lon="13.0825502"><ele>10.0</ele><time>2026-05-01T07:46:53.372Z</time></trkpt><trkpt lat="41.3920997" lon="13.082637"><ele>9.666666666666668</ele><time>2026-05-01T07:46:55.371Z</time></trkpt><trkpt lat="41.3920379" lon="13.082712"><ele>9.333333333333334</ele><time>2026-05-01T07:46:57.372Z</time></trkpt><trkpt lat="41.3919768" lon="13.0827848"><ele>9.0</ele><time>2026-05-01T07:46:59.372Z</time></trkpt><trkpt lat="41.3919177" lon="13.0828535"><ele>8.666666666666666</ele><time>2026-05-01T07:47:01.371Z</time></trkpt><trkpt lat="41.3918603" lon="13.082922"><ele>8.333333333333332</ele><time>2026-05-01T07:47:03.372Z</time></trkpt><trkpt lat="41.3917973" lon="13.0829882"><ele>8.0</ele><time>2026-05-01T07:47:05.372Z</time></trkpt><trkpt lat="41.3917416" lon="13.0830635"><ele>7.999999999999999</ele><time>2026-05-01T07:47:07.372Z</time></trkpt><trkpt lat="41.3916888" lon="13.0831453"><ele>8.0</ele><time>2026-05-01T07:47:09.371Z</time></trkpt><trkpt lat="41.3916354" lon="13.0832181"><ele>8.0</ele><time>2026-05-01T07:47:11.371Z</time></trkpt><trkpt lat="41.3915823" lon="13.0832894"><ele>8.0</ele><time>2026-05-01T07:47:13.371Z</time></trkpt><trkpt lat="41.3915186" lon="13.083364"><ele>7.999999999999999</ele><time>2026-05-01T07:47:15.372Z</time></trkpt><trkpt lat="41.3914576" lon="13.083437"><ele>8.0</ele><time>2026-05-01T07:47:17.372Z</time></trkpt><trkpt lat="41.3913979" lon="13.0835223"><ele>7.833333333333333</ele><time>2026-05-01T07:47:19.371Z</time></trkpt><trkpt lat="41.3913314" lon="13.0836047"><ele>7.666666666666666</ele><time>2026-05-01T07:47:21.372Z</time></trkpt><trkpt lat="41.3912687" lon="13.0836886"><ele>7.5</ele><time>2026-05-01T07:47:23.371Z</time></trkpt><trkpt lat="41.39121" lon="13.0837736"><ele>7.333333333333334</ele><time>2026-05-01T07:47:25.372Z</time></trkpt><trkpt lat="41.3911412" lon="13.0838527"><ele>7.166666666666667</ele><time>2026-05-01T07:47:27.372Z</time></trkpt><trkpt lat="41.391077" lon="13.083939"><ele>7.0</ele><time>2026-05-01T07:47:29.372Z</time></trkpt><trkpt lat="41.3910183" lon="13.0840218"><ele>7.000000000000001</ele><time>2026-05-01T07:47:31.372Z</time></trkpt><trkpt lat="41.3909565" lon="13.0840946"><ele>7.0</ele><time>2026-05-01T07:47:33.372Z</time></trkpt><trkpt lat="41.3908932" lon="13.0841689"><ele>7.0</ele><time>2026-05-01T07:47:35.372Z</time></trkpt><trkpt lat="41.3908268" lon="13.084243"><ele>7.0</ele><time>2026-05-01T07:47:37.372Z</time></trkpt><trkpt lat="41.3907657" lon="13.084316"><ele>7.000000000000001</ele><time>2026-05-01T07:47:39.372Z</time></trkpt><trkpt lat="41.3906996" lon="13.0844023"><ele>7.0</ele><time>2026-05-01T07:47:41.371Z</time></trkpt><trkpt lat="41.3906315" lon="13.0844871"><ele>7.166666666666667</ele><time>2026-05-01T07:47:43.372Z</time></trkpt><trkpt lat="41.390567" lon="13.084569"><ele>7.333333333333334</ele><time>2026-05-01T07:47:45.372Z</time></trkpt><trkpt lat="41.3905" lon="13.0846547"><ele>7.5</ele><time>2026-05-01T07:47:47.372Z</time></trkpt><trkpt lat="41.3904377" lon="13.0847393"><ele>7.666666666666666</ele><time>2026-05-01T07:47:49.371Z</time></trkpt><trkpt lat="41.3903758" lon="13.0848202"><ele>7.833333333333333</ele><time>2026-05-01T07:47:51.372Z</time></trkpt><trkpt lat="41.3903163" lon="13.0848983"><ele>8.0</ele><time>2026-05-01T07:47:53.372Z</time></trkpt><trkpt lat="41.3902492" lon="13.0849797"><ele>8.166666666666666</ele><time>2026-05-01T07:47:55.372Z</time></trkpt><trkpt lat="41.3901865" lon="13.0850697"><ele>8.333333333333332</ele><time>2026-05-01T07:47:57.372Z</time></trkpt><trkpt lat="41.3901239" lon="13.0851501"><ele>8.5</ele><time>2026-05-01T07:47:59.372Z</time></trkpt><trkpt lat="41.3900625" lon="13.0852328"><ele>8.666666666666666</ele><time>2026-05-01T07:48:01.371Z</time></trkpt><trkpt lat="41.390004" lon="13.0853137"><ele>8.833333333333334</ele><time>2026-05-01T07:48:03.372Z</time></trkpt><trkpt lat="41.38994" lon="13.085392"><ele>9.0</ele><time>2026-05-01T07:48:05.372Z</time></trkpt><trkpt lat="41.3898839" lon="13.0854644"><ele>9.0</ele><time>2026-05-01T07:48:07.372Z</time></trkpt><trkpt lat="41.3898229" lon="13.0855368"><ele>9.0</ele><time>2026-05-01T07:48:09.372Z</time></trkpt><trkpt lat="41.3897619" lon="13.0856153"><ele>9.0</ele><time>2026-05-01T07:48:11.371Z</time></trkpt><trkpt lat="41.3897035" lon="13.0856904"><ele>9.0</ele><time>2026-05-01T07:48:13.372Z</time></trkpt><trkpt lat="41.3896424" lon="13.0857707"><ele>9.0</ele><time>2026-05-01T07:48:15.372Z</time></trkpt><trkpt lat="41.3895753" lon="13.0858454"><ele>9.0</ele><time>2026-05-01T07:48:17.371Z</time></trkpt><trkpt lat="41.3895158" lon="13.0859201"><ele>8.5</ele><time>2026-05-01T07:48:19.371Z</time></trkpt><trkpt lat="41.3894533" lon="13.0859951"><ele>8.0</ele><time>2026-05-01T07:48:21.372Z</time></trkpt><trkpt lat="41.3893871" lon="13.0860757"><ele>7.5</ele><time>2026-05-01T07:48:23.371Z</time></trkpt><trkpt lat="41.3893198" lon="13.0861617"><ele>7.0</ele><time>2026-05-01T07:48:25.372Z</time></trkpt><trkpt lat="41.3892622" lon="13.0862494"><ele>6.5</ele><time>2026-05-01T07:48:27.371Z</time></trkpt><trkpt lat="41.389201" lon="13.0863311"><ele>6.0</ele><time>2026-05-01T07:48:29.372Z</time></trkpt><trkpt lat="41.3891369" lon="13.0864023"><ele>6.0</ele><time>2026-05-01T07:48:31.372Z</time></trkpt><trkpt lat="41.3890771" lon="13.0864823"><ele>6.0</ele><time>2026-05-01T07:48:33.371Z</time></trkpt><trkpt lat="41.3890126" lon="13.0865587"><ele>6.0</ele><time>2026-05-01T07:48:35.371Z</time></trkpt><trkpt lat="41.3889474" lon="13.086635"><ele>6.0</ele><time>2026-05-01T07:48:37.372Z</time></trkpt><trkpt lat="41.3888879" lon="13.0867171"><ele>6.0</ele><time>2026-05-01T07:48:39.372Z</time></trkpt><trkpt lat="41.3888315" lon="13.0867984"><ele>6.0</ele><time>2026-05-01T07:48:41.372Z</time></trkpt><trkpt lat="41.3887639" lon="13.0868687"><ele>5.6</ele><time>2026-05-01T07:48:43.372Z</time></trkpt><trkpt lat="41.3887028" lon="13.0869541"><ele>5.199999999999999</ele><time>2026-05-01T07:48:45.372Z</time></trkpt><trkpt lat="41.3886397" lon="13.0870439"><ele>4.800000000000001</ele><time>2026-05-01T07:48:47.372Z</time></trkpt><trkpt lat="41.3885688" lon="13.087133"><ele>4.4</ele><time>2026-05-01T07:48:49.372Z</time></trkpt><trkpt lat="41.3885037" lon="13.08722"><ele>4.0</ele><time>2026-05-01T07:48:51.372Z</time></trkpt><trkpt lat="41.3884416" lon="13.0873107"><ele>4.0</ele><time>2026-05-01T07:48:53.372Z</time></trkpt><trkpt lat="41.388377" lon="13.0874008"><ele>4.0</ele><time>2026-05-01T07:48:55.372Z</time></trkpt><trkpt lat="41.3883046" lon="13.0874791"><ele>4.0</ele><time>2026-05-01T07:48:57.372Z</time></trkpt><trkpt lat="41.388239" lon="13.0875714"><ele>4.0</ele><time>2026-05-01T07:48:59.372Z</time></trkpt><trkpt lat="41.3881685" lon="13.0876492"><ele>4.0</ele><time>2026-05-01T07:49:01.372Z</time></trkpt><trkpt lat="41.3881006" lon="13.0877457"><ele>4.0</ele><time>2026-05-01T07:49:03.372Z</time></trkpt><trkpt lat="41.3880282" lon="13.087833"><ele>4.0</ele><time>2026-05-01T07:49:05.371Z</time></trkpt><trkpt lat="41.3879622" lon="13.0879254"><ele>4.0</ele><time>2026-05-01T07:49:07.372Z</time></trkpt><trkpt lat="41.3878907" lon="13.0880136"><ele>4.0</ele><time>2026-05-01T07:49:09.372Z</time></trkpt><trkpt lat="41.3878205" lon="13.0881014"><ele>4.0</ele><time>2026-05-01T07:49:11.372Z</time></trkpt><trkpt lat="41.3877544" lon="13.0881856"><ele>4.2</ele><time>2026-05-01T07:49:13.372Z</time></trkpt><trkpt lat="41.3876841" lon="13.0882685"><ele>4.4</ele><time>2026-05-01T07:49:15.372Z</time></trkpt><trkpt lat="41.3876168" lon="13.0883546"><ele>4.6</ele><time>2026-05-01T07:49:17.372Z</time></trkpt><trkpt lat="41.3875452" lon="13.0884446"><ele>4.8</ele><time>2026-05-01T07:49:19.372Z</time></trkpt><trkpt lat="41.3874748" lon="13.0885417"><ele>5.0</ele><time>2026-05-01T07:49:21.372Z</time></trkpt><trkpt lat="41.3874031" lon="13.0886377"><ele>5.0</ele><time>2026-05-01T07:49:23.372Z</time></trkpt><trkpt lat="41.3873299" lon="13.088731"><ele>5.0</ele><time>2026-05-01T07:49:25.371Z</time></trkpt><trkpt lat="41.3872555" lon="13.0888187"><ele>5.0</ele><time>2026-05-01T07:49:27.372Z</time></trkpt><trkpt lat="41.3871798" lon="13.0889093"><ele>5.0</ele><time>2026-05-01T07:49:29.372Z</time></trkpt><trkpt lat="41.3871072" lon="13.0890056"><ele>5.0</ele><time>2026-05-01T07:49:31.372Z</time></trkpt><trkpt lat="41.3870393" lon="13.0890963"><ele>5.4</ele><time>2026-05-01T07:49:33.372Z</time></trkpt><trkpt lat="41.3869632" lon="13.0891847"><ele>5.8</ele><time>2026-05-01T07:49:35.371Z</time></trkpt><trkpt lat="41.3868953" lon="13.0892838"><ele>6.199999999999999</ele><time>2026-05-01T07:49:37.372Z</time></trkpt><trkpt lat="41.3868182" lon="13.0893672"><ele>6.6</ele><time>2026-05-01T07:49:39.372Z</time></trkpt><trkpt lat="41.3867437" lon="13.0894579"><ele>7.0</ele><time>2026-05-01T07:49:41.372Z</time></trkpt><trkpt lat="41.3866666" lon="13.0895553"><ele>7.0</ele><time>2026-05-01T07:49:43.372Z</time></trkpt><trkpt lat="41.3865994" lon="13.0896512"><ele>6.999999999999999</ele><time>2026-05-01T07:49:45.372Z</time></trkpt><trkpt lat="41.3865304" lon="13.0897413"><ele>6.999999999999999</ele><time>2026-05-01T07:49:47.371Z</time></trkpt><trkpt lat="41.3864579" lon="13.0898295"><ele>7.0</ele><time>2026-05-01T07:49:49.372Z</time></trkpt><trkpt lat="41.3863877" lon="13.089919"><ele>7.0</ele><time>2026-05-01T07:49:51.372Z</time></trkpt><trkpt lat="41.3863185" lon="13.0900082"><ele>6.6</ele><time>2026-05-01T07:49:53.372Z</time></trkpt><trkpt lat="41.3862493" lon="13.0901056"><ele>6.199999999999999</ele><time>2026-05-01T07:49:55.371Z</time></trkpt><trkpt lat="41.3861766" lon="13.0901878"><ele>5.8</ele><time>2026-05-01T07:49:57.372Z</time></trkpt><trkpt lat="41.3861043" lon="13.0902788"><ele>5.4</ele><time>2026-05-01T07:49:59.372Z</time></trkpt><trkpt lat="41.3860401" lon="13.090374"><ele>5.0</ele><time>2026-05-01T07:50:01.371Z</time></trkpt><trkpt lat="41.3859658" lon="13.090469"><ele>5.0</ele><time>2026-05-01T07:50:03.372Z</time></trkpt><trkpt lat="41.385893" lon="13.090558"><ele>5.0</ele><time>2026-05-01T07:50:05.371Z</time></trkpt><trkpt lat="41.3858238" lon="13.0906453"><ele>5.0</ele><time>2026-05-01T07:50:07.372Z</time></trkpt><trkpt lat="41.3857526" lon="13.0907402"><ele>5.0</ele><time>2026-05-01T07:50:09.372Z</time></trkpt><trkpt lat="41.3856843" lon="13.0908348"><ele>5.0</ele><time>2026-05-01T07:50:11.372Z</time></trkpt><trkpt lat="41.3856169" lon="13.0909241"><ele>5.2</ele><time>2026-05-01T07:50:13.371Z</time></trkpt><trkpt lat="41.3855453" lon="13.0910129"><ele>5.4</ele><time>2026-05-01T07:50:15.372Z</time></trkpt><trkpt lat="41.3854717" lon="13.0910991"><ele>5.6</ele><time>2026-05-01T07:50:17.371Z</time></trkpt><trkpt lat="41.3854039" lon="13.0911951"><ele>5.8</ele><time>2026-05-01T07:50:19.372Z</time></trkpt><trkpt lat="41.385336" lon="13.091285"><ele>6.0</ele><time>2026-05-01T07:50:21.372Z</time></trkpt><trkpt lat="41.3852632" lon="13.0913743"><ele>6.0</ele><time>2026-05-01T07:50:23.372Z</time></trkpt><trkpt lat="41.3851934" lon="13.091461"><ele>6.0</ele><time>2026-05-01T07:50:25.372Z</time></trkpt><trkpt lat="41.3851181" lon="13.0915498"><ele>6.0</ele><time>2026-05-01T07:50:27.372Z</time></trkpt><trkpt lat="41.3850553" lon="13.0916349"><ele>6.0</ele><time>2026-05-01T07:50:29.372Z</time></trkpt><trkpt lat="41.3849897" lon="13.0917216"><ele>6.0</ele><time>2026-05-01T07:50:31.372Z</time></trkpt><trkpt lat="41.3849284" lon="13.0917951"><ele>5.833333333333333</ele><time>2026-05-01T07:50:33.372Z</time></trkpt><trkpt lat="41.3848632" lon="13.0918729"><ele>5.666666666666667</ele><time>2026-05-01T07:50:35.371Z</time></trkpt><trkpt lat="41.3848022" lon="13.0919582"><ele>5.5</ele><time>2026-05-01T07:50:37.372Z</time></trkpt><trkpt lat="41.3847457" lon="13.0920419"><ele>5.333333333333334</ele><time>2026-05-01T07:50:39.371Z</time></trkpt><trkpt lat="41.3846849" lon="13.0921168"><ele>5.166666666666667</ele><time>2026-05-01T07:50:41.372Z</time></trkpt><trkpt lat="41.3846295" lon="13.0921909"><ele>5.0</ele><time>2026-05-01T07:50:43.371Z</time></trkpt><trkpt lat="41.3845791" lon="13.0922628"><ele>5.0</ele><time>2026-05-01T07:50:45.371Z</time></trkpt><trkpt lat="41.3845351" lon="13.0923321"><ele>5.0</ele><time>2026-05-01T07:50:47.371Z</time></trkpt><trkpt lat="41.3844496" lon="13.092353"><ele>5.0</ele><time>2026-05-01T07:50:50.371Z</time></trkpt><trkpt lat="41.3843934" lon="13.0922598"><ele>5.0</ele><time>2026-05-01T07:50:53.372Z</time></trkpt><trkpt lat="41.3843434" lon="13.0921607"><ele>5.0</ele><time>2026-05-01T07:50:56.372Z</time></trkpt><trkpt lat="41.3842365" lon="13.0920406"><ele>5.0</ele><time>2026-05-01T07:51:32.372Z</time></trkpt><trkpt lat="41.3841834" lon="13.0919783"><ele>5.0</ele><time>2026-05-01T07:51:34.371Z</time></trkpt><trkpt lat="41.3841333" lon="13.0919023"><ele>5.0</ele><time>2026-05-01T07:51:36.372Z</time></trkpt><trkpt lat="41.3840744" lon="13.0918353"><ele>5.0</ele><time>2026-05-01T07:51:38.372Z</time></trkpt><trkpt lat="41.3840204" lon="13.091764"><ele>5.0</ele><time>2026-05-01T07:51:40.372Z</time></trkpt><trkpt lat="41.383973" lon="13.0916799"><ele>5.0</ele><time>2026-05-01T07:51:42.372Z</time></trkpt><trkpt lat="41.3839232" lon="13.0915986"><ele>5.0</ele><time>2026-05-01T07:51:44.372Z</time></trkpt><trkpt lat="41.3838714" lon="13.0915225"><ele>5.0</ele><time>2026-05-01T07:51:46.372Z</time></trkpt><trkpt lat="41.3838111" lon="13.0914419"><ele>5.0</ele><time>2026-05-01T07:51:48.372Z</time></trkpt><trkpt lat="41.3837513" lon="13.0913625"><ele>5.0</ele><time>2026-05-01T07:51:50.372Z</time></trkpt><trkpt lat="41.3836859" lon="13.0912855"><ele>5.0</ele><time>2026-05-01T07:51:52.372Z</time></trkpt><trkpt lat="41.383618" lon="13.0911961"><ele>5.0</ele><time>2026-05-01T07:51:54.372Z</time></trkpt><trkpt lat="41.3835538" lon="13.0911131"><ele>5.2</ele><time>2026-05-01T07:51:56.372Z</time></trkpt><trkpt lat="41.3834936" lon="13.0910186"><ele>5.4</ele><time>2026-05-01T07:51:58.372Z</time></trkpt><trkpt lat="41.383428" lon="13.0909216"><ele>5.6</ele><time>2026-05-01T07:52:00.371Z</time></trkpt><trkpt lat="41.3833619" lon="13.0908358"><ele>5.8</ele><time>2026-05-01T07:52:02.372Z</time></trkpt><trkpt lat="41.3832911" lon="13.0907438"><ele>6.0</ele><time>2026-05-01T07:52:04.372Z</time></trkpt><trkpt lat="41.383225" lon="13.0906551"><ele>6.0</ele><time>2026-05-01T07:52:06.372Z</time></trkpt><trkpt lat="41.3831551" lon="13.0905504"><ele>6.0</ele><time>2026-05-01T07:52:08.372Z</time></trkpt><trkpt lat="41.3830888" lon="13.0904544"><ele>6.0</ele><time>2026-05-01T07:52:10.371Z</time></trkpt><trkpt lat="41.3830217" lon="13.0903615"><ele>6.0</ele><time>2026-05-01T07:52:12.372Z</time></trkpt><trkpt lat="41.382955" lon="13.0902652"><ele>6.0</ele><time>2026-05-01T07:52:14.371Z</time></trkpt><trkpt lat="41.382878" lon="13.0901668"><ele>6.0</ele><time>2026-05-01T07:52:16.372Z</time></trkpt><trkpt lat="41.3827996" lon="13.0900689"><ele>6.0</ele><time>2026-05-01T07:52:18.372Z</time></trkpt><trkpt lat="41.382731" lon="13.0899682"><ele>6.0</ele><time>2026-05-01T07:52:20.372Z</time></trkpt><trkpt lat="41.3826606" lon="13.0898684"><ele>6.0</ele><time>2026-05-01T07:52:22.372Z</time></trkpt><trkpt lat="41.3825927" lon="13.0897704"><ele>6.0</ele><time>2026-05-01T07:52:24.372Z</time></trkpt><trkpt lat="41.3825208" lon="13.0896739"><ele>6.0</ele><time>2026-05-01T07:52:26.372Z</time></trkpt><trkpt lat="41.382455" lon="13.0895806"><ele>6.0</ele><time>2026-05-01T07:52:28.372Z</time></trkpt><trkpt lat="41.3823868" lon="13.08949"><ele>6.0</ele><time>2026-05-01T07:52:30.372Z</time></trkpt><trkpt lat="41.3823173" lon="13.0893988"><ele>6.0</ele><time>2026-05-01T07:52:32.372Z</time></trkpt><trkpt lat="41.3822514" lon="13.0893097"><ele>6.0</ele><time>2026-05-01T07:52:34.372Z</time></trkpt><trkpt lat="41.3821809" lon="13.089217"><ele>6.0</ele><time>2026-05-01T07:52:36.372Z</time></trkpt><trkpt lat="41.3821119" lon="13.0891234"><ele>6.0</ele><time>2026-05-01T07:52:38.371Z</time></trkpt><trkpt lat="41.3820437" lon="13.0890295"><ele>6.0</ele><time>2026-05-01T07:52:40.372Z</time></trkpt><trkpt lat="41.3819777" lon="13.0889383"><ele>6.0</ele><time>2026-05-01T07:52:42.372Z</time></trkpt><trkpt lat="41.3819103" lon="13.0888378"><ele>6.0</ele><time>2026-05-01T07:52:44.372Z</time></trkpt><trkpt lat="41.3818367" lon="13.0887486"><ele>6.199999999999999</ele><time>2026-05-01T07:52:46.372Z</time></trkpt><trkpt lat="41.3817678" lon="13.088652"><ele>6.3999999999999995</ele><time>2026-05-01T07:52:48.372Z</time></trkpt><trkpt lat="41.381701" lon="13.0885607"><ele>6.6</ele><time>2026-05-01T07:52:50.371Z</time></trkpt><trkpt lat="41.3816353" lon="13.0884669"><ele>6.8</ele><time>2026-05-01T07:52:52.372Z</time></trkpt><trkpt lat="41.3815622" lon="13.0883726"><ele>7.0</ele><time>2026-05-01T07:52:54.371Z</time></trkpt><trkpt lat="41.3814984" lon="13.0882743"><ele>6.6</ele><time>2026-05-01T07:52:56.372Z</time></trkpt><trkpt lat="41.3814324" lon="13.0881846"><ele>6.199999999999999</ele><time>2026-05-01T07:52:58.372Z</time></trkpt><trkpt lat="41.381367" lon="13.0880965"><ele>5.8</ele><time>2026-05-01T07:53:00.372Z</time></trkpt><trkpt lat="41.3812984" lon="13.0880003"><ele>5.4</ele><time>2026-05-01T07:53:02.369Z</time></trkpt><trkpt lat="41.3812256" lon="13.0879143"><ele>5.0</ele><time>2026-05-01T07:53:04.372Z</time></trkpt><trkpt lat="41.3811589" lon="13.0878266"><ele>4.8</ele><time>2026-05-01T07:53:06.371Z</time></trkpt><trkpt lat="41.3810868" lon="13.0877293"><ele>4.6</ele><time>2026-05-01T07:53:08.372Z</time></trkpt><trkpt lat="41.3810175" lon="13.0876276"><ele>4.4</ele><time>2026-05-01T07:53:10.372Z</time></trkpt><trkpt lat="41.3809493" lon="13.0875283"><ele>4.2</ele><time>2026-05-01T07:53:12.371Z</time></trkpt><trkpt lat="41.3808806" lon="13.0874315"><ele>4.0</ele><time>2026-05-01T07:53:14.372Z</time></trkpt><trkpt lat="41.3808101" lon="13.0873377"><ele>4.0</ele><time>2026-05-01T07:53:16.372Z</time></trkpt><trkpt lat="41.3807361" lon="13.0872444"><ele>4.0</ele><time>2026-05-01T07:53:18.372Z</time></trkpt><trkpt lat="41.3806717" lon="13.0871465"><ele>4.0</ele><time>2026-05-01T07:53:20.372Z</time></trkpt><trkpt lat="41.3806011" lon="13.0870545"><ele>4.0</ele><time>2026-05-01T07:53:22.372Z</time></trkpt><trkpt lat="41.3805333" lon="13.0869579"><ele>4.0</ele><time>2026-05-01T07:53:24.372Z</time></trkpt><trkpt lat="41.3804665" lon="13.0868666"><ele>4.0</ele><time>2026-05-01T07:53:26.372Z</time></trkpt><trkpt lat="41.3803979" lon="13.0867762"><ele>4.0</ele><time>2026-05-01T07:53:28.372Z</time></trkpt><trkpt lat="41.3803342" lon="13.0866847"><ele>4.0</ele><time>2026-05-01T07:53:30.371Z</time></trkpt><trkpt lat="41.3802678" lon="13.0865944"><ele>4.0</ele><time>2026-05-01T07:53:32.372Z</time></trkpt><trkpt lat="41.380202" lon="13.0865005"><ele>4.0</ele><time>2026-05-01T07:53:34.371Z</time></trkpt><trkpt lat="41.3801321" lon="13.0864053"><ele>4.2</ele><time>2026-05-01T07:53:36.371Z</time></trkpt><trkpt lat="41.3800634" lon="13.0863102"><ele>4.4</ele><time>2026-05-01T07:53:38.372Z</time></trkpt><trkpt lat="41.3799937" lon="13.0862161"><ele>4.6</ele><time>2026-05-01T07:53:40.372Z</time></trkpt><trkpt lat="41.379919" lon="13.0861219"><ele>4.8</ele><time>2026-05-01T07:53:42.372Z</time></trkpt><trkpt lat="41.3798506" lon="13.086023"><ele>5.0</ele><time>2026-05-01T07:53:44.372Z</time></trkpt><trkpt lat="41.3797786" lon="13.0859286"><ele>5.0</ele><time>2026-05-01T07:53:46.372Z</time></trkpt><trkpt lat="41.3797057" lon="13.0858317"><ele>5.0</ele><time>2026-05-01T07:53:48.372Z</time></trkpt><trkpt lat="41.3796329" lon="13.0857344"><ele>5.0</ele><time>2026-05-01T07:53:50.372Z</time></trkpt><trkpt lat="41.3795661" lon="13.0856412"><ele>5.0</ele><time>2026-05-01T07:53:52.371Z</time></trkpt><trkpt lat="41.3794934" lon="13.0855552"><ele>5.0</ele><time>2026-05-01T07:53:54.372Z</time></trkpt><trkpt lat="41.3794231" lon="13.0854559"><ele>5.2</ele><time>2026-05-01T07:53:56.372Z</time></trkpt><trkpt lat="41.3793553" lon="13.0853573"><ele>5.4</ele><time>2026-05-01T07:53:58.371Z</time></trkpt><trkpt lat="41.3792805" lon="13.0852532"><ele>5.6</ele><time>2026-05-01T07:54:00.372Z</time></trkpt><trkpt lat="41.3792093" lon="13.0851568"><ele>5.8</ele><time>2026-05-01T07:54:02.371Z</time></trkpt><trkpt lat="41.379134" lon="13.0850582"><ele>6.0</ele><time>2026-05-01T07:54:04.372Z</time></trkpt><trkpt lat="41.3790611" lon="13.0849559"><ele>6.0</ele><time>2026-05-01T07:54:06.372Z</time></trkpt><trkpt lat="41.3789859" lon="13.0848512"><ele>6.0</ele><time>2026-05-01T07:54:08.372Z</time></trkpt><trkpt lat="41.3789121" lon="13.0847523"><ele>6.0</ele><time>2026-05-01T07:54:10.372Z</time></trkpt><trkpt lat="41.3788333" lon="13.0846587"><ele>6.0</ele><time>2026-05-01T07:54:12.372Z</time></trkpt><trkpt lat="41.3787629" lon="13.0845578"><ele>6.0</ele><time>2026-05-01T07:54:14.372Z</time></trkpt><trkpt lat="41.3786943" lon="13.0844572"><ele>6.0</ele><time>2026-05-01T07:54:16.372Z</time></trkpt><trkpt lat="41.3786204" lon="13.0843544"><ele>6.0</ele><time>2026-05-01T07:54:18.372Z</time></trkpt><trkpt lat="41.3785506" lon="13.0842529"><ele>6.0</ele><time>2026-05-01T07:54:20.372Z</time></trkpt><trkpt lat="41.3784808" lon="13.0841518"><ele>6.0</ele><time>2026-05-01T07:54:22.372Z</time></trkpt><trkpt lat="41.3784128" lon="13.0840576"><ele>6.0</ele><time>2026-05-01T07:54:24.371Z</time></trkpt><trkpt lat="41.3783483" lon="13.0839737"><ele>6.0</ele><time>2026-05-01T07:54:26.37Z</time></trkpt><trkpt lat="41.3782802" lon="13.0838893"><ele>6.0</ele><time>2026-05-01T07:54:28.37Z</time></trkpt><trkpt lat="41.378212" lon="13.0837931"><ele>6.0</ele><time>2026-05-01T07:54:30.371Z</time></trkpt><trkpt lat="41.3781446" lon="13.083708"><ele>6.0</ele><time>2026-05-01T07:54:32.37Z</time></trkpt><trkpt lat="41.3780807" lon="13.0836235"><ele>6.0</ele><time>2026-05-01T07:54:34.371Z</time></trkpt><trkpt lat="41.3780225" lon="13.0835382"><ele>6.0</ele><time>2026-05-01T07:54:36.371Z</time></trkpt><trkpt lat="41.3779572" lon="13.0834514"><ele>6.0</ele><time>2026-05-01T07:54:38.371Z</time></trkpt><trkpt lat="41.3778942" lon="13.0833634"><ele>6.0</ele><time>2026-05-01T07:54:40.37Z</time></trkpt><trkpt lat="41.377828" lon="13.0832776"><ele>6.0</ele><time>2026-05-01T07:54:42.371Z</time></trkpt><trkpt lat="41.3777596" lon="13.0831822"><ele>6.0</ele><time>2026-05-01T07:54:44.37Z</time></trkpt><trkpt lat="41.3776963" lon="13.0830933"><ele>6.0</ele><time>2026-05-01T07:54:46.371Z</time></trkpt><trkpt lat="41.3776297" lon="13.0830052"><ele>6.0</ele><time>2026-05-01T07:54:48.371Z</time></trkpt><trkpt lat="41.3775596" lon="13.0829084"><ele>6.0</ele><time>2026-05-01T07:54:50.37Z</time></trkpt><trkpt lat="41.3774876" lon="13.082819"><ele>6.0</ele><time>2026-05-01T07:54:52.371Z</time></trkpt><trkpt lat="41.3774139" lon="13.0827295"><ele>6.0</ele><time>2026-05-01T07:54:54.371Z</time></trkpt><trkpt lat="41.377346" lon="13.0826352"><ele>6.0</ele><time>2026-05-01T07:54:56.371Z</time></trkpt><trkpt lat="41.3772833" lon="13.082543"><ele>6.0</ele><time>2026-05-01T07:54:58.371Z</time></trkpt><trkpt lat="41.3772104" lon="13.0824535"><ele>6.0</ele><time>2026-05-01T07:55:00.371Z</time></trkpt><trkpt lat="41.3771433" lon="13.0823614"><ele>6.0</ele><time>2026-05-01T07:55:02.371Z</time></trkpt><trkpt lat="41.377078" lon="13.0822677"><ele>6.0</ele><time>2026-05-01T07:55:04.371Z</time></trkpt><trkpt lat="41.3770104" lon="13.082181"><ele>6.0</ele><time>2026-05-01T07:55:06.371Z</time></trkpt><trkpt lat="41.3769475" lon="13.0820946"><ele>6.0</ele><time>2026-05-01T07:55:08.371Z</time></trkpt><trkpt lat="41.3768911" lon="13.082004"><ele>6.0</ele><time>2026-05-01T07:55:10.371Z</time></trkpt><trkpt lat="41.3768337" lon="13.0819151"><ele>6.0</ele><time>2026-05-01T07:55:12.371Z</time></trkpt><trkpt lat="41.3767802" lon="13.0818403"><ele>6.0</ele><time>2026-05-01T07:55:14.371Z</time></trkpt><trkpt lat="41.3767191" lon="13.0817628"><ele>6.0</ele><time>2026-05-01T07:55:16.371Z</time></trkpt><trkpt lat="41.3766577" lon="13.0816742"><ele>6.0</ele><time>2026-05-01T07:55:18.371Z</time></trkpt><trkpt lat="41.3765952" lon="13.0815822"><ele>6.0</ele><time>2026-05-01T07:55:20.371Z</time></trkpt><trkpt lat="41.3765326" lon="13.0815006"><ele>6.0</ele><time>2026-05-01T07:55:22.37Z</time></trkpt><trkpt lat="41.376467" lon="13.0814218"><ele>6.0</ele><time>2026-05-01T07:55:24.371Z</time></trkpt><trkpt lat="41.3763992" lon="13.0813393"><ele>6.0</ele><time>2026-05-01T07:55:26.371Z</time></trkpt><trkpt lat="41.3763316" lon="13.0812447"><ele>6.199999999999999</ele><time>2026-05-01T07:55:28.37Z</time></trkpt><trkpt lat="41.3762651" lon="13.0811528"><ele>6.3999999999999995</ele><time>2026-05-01T07:55:30.371Z</time></trkpt><trkpt lat="41.3762044" lon="13.0810617"><ele>6.6</ele><time>2026-05-01T07:55:32.371Z</time></trkpt><trkpt lat="41.3761384" lon="13.080972"><ele>6.8</ele><time>2026-05-01T07:55:34.371Z</time></trkpt><trkpt lat="41.3760739" lon="13.0808785"><ele>7.0</ele><time>2026-05-01T07:55:36.371Z</time></trkpt><trkpt lat="41.3760051" lon="13.0807839"><ele>7.199999999999999</ele><time>2026-05-01T07:55:38.371Z</time></trkpt><trkpt lat="41.3759379" lon="13.0806914"><ele>7.3999999999999995</ele><time>2026-05-01T07:55:40.371Z</time></trkpt><trkpt lat="41.3758719" lon="13.0806006"><ele>7.6000000000000005</ele><time>2026-05-01T07:55:42.371Z</time></trkpt><trkpt lat="41.3758066" lon="13.0805135"><ele>7.800000000000001</ele><time>2026-05-01T07:55:44.371Z</time></trkpt><trkpt lat="41.3757414" lon="13.0804203"><ele>8.0</ele><time>2026-05-01T07:55:46.371Z</time></trkpt><trkpt lat="41.3756716" lon="13.0803342"><ele>8.0</ele><time>2026-05-01T07:55:48.371Z</time></trkpt><trkpt lat="41.3756065" lon="13.080242"><ele>8.0</ele><time>2026-05-01T07:55:50.371Z</time></trkpt><trkpt lat="41.3755403" lon="13.0801495"><ele>8.0</ele><time>2026-05-01T07:55:52.371Z</time></trkpt><trkpt lat="41.3754752" lon="13.0800569"><ele>8.0</ele><time>2026-05-01T07:55:54.371Z</time></trkpt><trkpt lat="41.375406" lon="13.0799612"><ele>8.0</ele><time>2026-05-01T07:55:56.371Z</time></trkpt><trkpt lat="41.3753381" lon="13.0798652"><ele>7.6000000000000005</ele><time>2026-05-01T07:55:58.371Z</time></trkpt><trkpt lat="41.3752704" lon="13.0797777"><ele>7.200000000000001</ele><time>2026-05-01T07:56:00.37Z</time></trkpt><trkpt lat="41.3752035" lon="13.0796844"><ele>6.8</ele><time>2026-05-01T07:56:02.371Z</time></trkpt><trkpt lat="41.3751313" lon="13.0795875"><ele>6.4</ele><time>2026-05-01T07:56:04.37Z</time></trkpt><trkpt lat="41.3750598" lon="13.0794941"><ele>6.0</ele><time>2026-05-01T07:56:06.371Z</time></trkpt><trkpt lat="41.3749907" lon="13.0793969"><ele>6.0</ele><time>2026-05-01T07:56:08.371Z</time></trkpt><trkpt lat="41.3749157" lon="13.0793013"><ele>6.0</ele><time>2026-05-01T07:56:10.37Z</time></trkpt><trkpt lat="41.3748432" lon="13.0792032"><ele>6.0</ele><time>2026-05-01T07:56:12.371Z</time></trkpt><trkpt lat="41.3747704" lon="13.0791051"><ele>6.0</ele><time>2026-05-01T07:56:14.371Z</time></trkpt><trkpt lat="41.3746988" lon="13.0790122"><ele>6.0</ele><time>2026-05-01T07:56:16.371Z</time></trkpt><trkpt lat="41.3746283" lon="13.0789171"><ele>6.0</ele><time>2026-05-01T07:56:18.371Z</time></trkpt><trkpt lat="41.3745632" lon="13.0788197"><ele>6.0</ele><time>2026-05-01T07:56:20.371Z</time></trkpt><trkpt lat="41.3744881" lon="13.078719"><ele>6.0</ele><time>2026-05-01T07:56:22.371Z</time></trkpt><trkpt lat="41.3744138" lon="13.0786163"><ele>6.0</ele><time>2026-05-01T07:56:24.371Z</time></trkpt><trkpt lat="41.3743382" lon="13.0785139"><ele>6.0</ele><time>2026-05-01T07:56:26.371Z</time></trkpt><trkpt lat="41.3742637" lon="13.0784157"><ele>6.0</ele><time>2026-05-01T07:56:28.371Z</time></trkpt><trkpt lat="41.3741941" lon="13.0783181"><ele>6.0</ele><time>2026-05-01T07:56:30.371Z</time></trkpt><trkpt lat="41.374125" lon="13.0782223"><ele>6.0</ele><time>2026-05-01T07:56:32.371Z</time></trkpt><trkpt lat="41.3740537" lon="13.0781255"><ele>6.0</ele><time>2026-05-01T07:56:34.371Z</time></trkpt><trkpt lat="41.3739795" lon="13.0780231"><ele>6.0</ele><time>2026-05-01T07:56:36.371Z</time></trkpt><trkpt lat="41.373907" lon="13.0779234"><ele>6.0</ele><time>2026-05-01T07:56:38.37Z</time></trkpt><trkpt lat="41.3738323" lon="13.077819"><ele>6.0</ele><time>2026-05-01T07:56:40.371Z</time></trkpt><trkpt lat="41.3737601" lon="13.0777247"><ele>6.0</ele><time>2026-05-01T07:56:42.371Z</time></trkpt><trkpt lat="41.3736869" lon="13.0776215"><ele>6.0</ele><time>2026-05-01T07:56:44.371Z</time></trkpt><trkpt lat="41.3736146" lon="13.0775131"><ele>6.0</ele><time>2026-05-01T07:56:46.371Z</time></trkpt><trkpt lat="41.3735393" lon="13.0774129"><ele>6.199999999999999</ele><time>2026-05-01T07:56:48.371Z</time></trkpt><trkpt lat="41.373468" lon="13.0773126"><ele>6.3999999999999995</ele><time>2026-05-01T07:56:50.371Z</time></trkpt><trkpt lat="41.3733957" lon="13.0772179"><ele>6.6</ele><time>2026-05-01T07:56:52.371Z</time></trkpt><trkpt lat="41.3733252" lon="13.077123"><ele>6.8</ele><time>2026-05-01T07:56:54.371Z</time></trkpt><trkpt lat="41.3732551" lon="13.0770291"><ele>7.0</ele><time>2026-05-01T07:56:56.371Z</time></trkpt><trkpt lat="41.3731855" lon="13.0769359"><ele>7.0</ele><time>2026-05-01T07:56:58.371Z</time></trkpt><trkpt lat="41.3731166" lon="13.0768453"><ele>6.999999999999999</ele><time>2026-05-01T07:57:00.371Z</time></trkpt><trkpt lat="41.3730509" lon="13.0767516"><ele>6.999999999999999</ele><time>2026-05-01T07:57:02.371Z</time></trkpt><trkpt lat="41.3729871" lon="13.0766563"><ele>7.0</ele><time>2026-05-01T07:57:04.371Z</time></trkpt><trkpt lat="41.3729167" lon="13.0765663"><ele>7.0</ele><time>2026-05-01T07:57:06.37Z</time></trkpt><trkpt lat="41.3728517" lon="13.0764775"><ele>7.3999999999999995</ele><time>2026-05-01T07:57:08.37Z</time></trkpt><trkpt lat="41.3727869" lon="13.0763916"><ele>7.799999999999999</ele><time>2026-05-01T07:57:10.371Z</time></trkpt><trkpt lat="41.3727247" lon="13.0763067"><ele>8.2</ele><time>2026-05-01T07:57:12.37Z</time></trkpt><trkpt lat="41.3726604" lon="13.076213"><ele>8.6</ele><time>2026-05-01T07:57:14.371Z</time></trkpt><trkpt lat="41.3725971" lon="13.0761263"><ele>9.0</ele><time>2026-05-01T07:57:16.371Z</time></trkpt><trkpt lat="41.372531" lon="13.0760373"><ele>9.0</ele><time>2026-05-01T07:57:18.37Z</time></trkpt><trkpt lat="41.3724722" lon="13.0759493"><ele>9.0</ele><time>2026-05-01T07:57:20.371Z</time></trkpt><trkpt lat="41.3724048" lon="13.0758582"><ele>9.0</ele><time>2026-05-01T07:57:22.371Z</time></trkpt><trkpt lat="41.3723416" lon="13.0757712"><ele>9.0</ele><time>2026-05-01T07:57:24.37Z</time></trkpt><trkpt lat="41.3722802" lon="13.0756901"><ele>9.0</ele><time>2026-05-01T07:57:26.371Z</time></trkpt><trkpt lat="41.3722175" lon="13.0756011"><ele>9.5</ele><time>2026-05-01T07:57:28.371Z</time></trkpt><trkpt lat="41.372154" lon="13.0755213"><ele>10.0</ele><time>2026-05-01T07:57:30.371Z</time></trkpt><trkpt lat="41.372094" lon="13.0754374"><ele>10.5</ele><time>2026-05-01T07:57:32.37Z</time></trkpt><trkpt lat="41.3720355" lon="13.0753531"><ele>11.0</ele><time>2026-05-01T07:57:34.371Z</time></trkpt><trkpt lat="41.3719765" lon="13.0752686"><ele>11.5</ele><time>2026-05-01T07:57:36.37Z</time></trkpt><trkpt lat="41.3719221" lon="13.0751825"><ele>12.0</ele><time>2026-05-01T07:57:38.37Z</time></trkpt><trkpt lat="41.3718728" lon="13.075094"><ele>12.0</ele><time>2026-05-01T07:57:40.371Z</time></trkpt><trkpt lat="41.3718595" lon="13.0749833"><ele>12.0</ele><time>2026-05-01T07:57:42.371Z</time></trkpt><trkpt lat="41.3718928" lon="13.0748806"><ele>12.0</ele><time>2026-05-01T07:57:44.37Z</time></trkpt><trkpt lat="41.3719521" lon="13.0747849"><ele>12.0</ele><time>2026-05-01T07:57:46.371Z</time></trkpt><trkpt lat="41.3720123" lon="13.0747076"><ele>12.0</ele><time>2026-05-01T07:57:48.371Z</time></trkpt><trkpt lat="41.3720792" lon="13.0746267"><ele>12.0</ele><time>2026-05-01T07:57:50.371Z</time></trkpt><trkpt lat="41.3721493" lon="13.0745434"><ele>12.0</ele><time>2026-05-01T07:57:52.371Z</time></trkpt><trkpt lat="41.3722178" lon="13.0744516"><ele>12.0</ele><time>2026-05-01T07:57:54.371Z</time></trkpt><trkpt lat="41.3722869" lon="13.0743447"><ele>12.0</ele><time>2026-05-01T07:57:56.371Z</time></trkpt><trkpt lat="41.372355" lon="13.0742503"><ele>12.0</ele><time>2026-05-01T07:57:58.37Z</time></trkpt><trkpt lat="41.3724193" lon="13.0741642"><ele>12.0</ele><time>2026-05-01T07:58:00.371Z</time></trkpt><trkpt lat="41.3724861" lon="13.0740794"><ele>12.0</ele><time>2026-05-01T07:58:02.371Z</time></trkpt><trkpt lat="41.3725573" lon="13.0739908"><ele>12.0</ele><time>2026-05-01T07:58:04.371Z</time></trkpt><trkpt lat="41.372625" lon="13.073901"><ele>12.0</ele><time>2026-05-01T07:58:06.371Z</time></trkpt><trkpt lat="41.3726926" lon="13.0738136"><ele>12.0</ele><time>2026-05-01T07:58:08.371Z</time></trkpt><trkpt lat="41.3727547" lon="13.0737219"><ele>12.0</ele><time>2026-05-01T07:58:10.371Z</time></trkpt><trkpt lat="41.3728211" lon="13.073627"><ele>12.0</ele><time>2026-05-01T07:58:12.371Z</time></trkpt><trkpt lat="41.3728947" lon="13.0735384"><ele>12.0</ele><time>2026-05-01T07:58:14.371Z</time></trkpt><trkpt lat="41.3729636" lon="13.0734489"><ele>12.0</ele><time>2026-05-01T07:58:16.371Z</time></trkpt><trkpt lat="41.3730316" lon="13.0733572"><ele>12.0</ele><time>2026-05-01T07:58:18.37Z</time></trkpt><trkpt lat="41.3730996" lon="13.073258"><ele>12.0</ele><time>2026-05-01T07:58:20.371Z</time></trkpt><trkpt lat="41.3731572" lon="13.0731721"><ele>12.0</ele><time>2026-05-01T07:58:22.371Z</time></trkpt><trkpt lat="41.3732218" lon="13.0730954"><ele>12.0</ele><time>2026-05-01T07:58:24.37Z</time></trkpt><trkpt lat="41.3732838" lon="13.0730079"><ele>12.0</ele><time>2026-05-01T07:58:26.371Z</time></trkpt><trkpt lat="41.3733482" lon="13.072923"><ele>12.0</ele><time>2026-05-01T07:58:28.37Z</time></trkpt><trkpt lat="41.3734115" lon="13.072836"><ele>12.0</ele><time>2026-05-01T07:58:30.371Z</time></trkpt><trkpt lat="41.3734779" lon="13.072751"><ele>12.0</ele><time>2026-05-01T07:58:32.371Z</time></trkpt><trkpt lat="41.3735429" lon="13.0726681"><ele>12.0</ele><time>2026-05-01T07:58:34.371Z</time></trkpt><trkpt lat="41.3736043" lon="13.0725808"><ele>12.0</ele><time>2026-05-01T07:58:36.371Z</time></trkpt><trkpt lat="41.3736653" lon="13.0724987"><ele>12.0</ele><time>2026-05-01T07:58:38.371Z</time></trkpt><trkpt lat="41.3737376" lon="13.0724186"><ele>12.0</ele><time>2026-05-01T07:58:40.371Z</time></trkpt><trkpt lat="41.3738046" lon="13.0723363"><ele>12.166666666666666</ele><time>2026-05-01T07:58:42.371Z</time></trkpt><trkpt lat="41.3738604" lon="13.0722553"><ele>12.333333333333332</ele><time>2026-05-01T07:58:44.371Z</time></trkpt><trkpt lat="41.3739279" lon="13.072174"><ele>12.5</ele><time>2026-05-01T07:58:46.371Z</time></trkpt><trkpt lat="41.3739865" lon="13.07209"><ele>12.666666666666666</ele><time>2026-05-01T07:58:48.371Z</time></trkpt><trkpt lat="41.3740479" lon="13.0720012"><ele>12.833333333333332</ele><time>2026-05-01T07:58:50.371Z</time></trkpt><trkpt lat="41.3741091" lon="13.0719173"><ele>13.0</ele><time>2026-05-01T07:58:52.371Z</time></trkpt><trkpt lat="41.3741671" lon="13.0718325"><ele>12.999999999999998</ele><time>2026-05-01T07:58:54.371Z</time></trkpt><trkpt lat="41.3742285" lon="13.0717491"><ele>13.0</ele><time>2026-05-01T07:58:56.37Z</time></trkpt><trkpt lat="41.3742883" lon="13.0716684"><ele>13.0</ele><time>2026-05-01T07:58:58.371Z</time></trkpt><trkpt lat="41.3743478" lon="13.0715918"><ele>13.0</ele><time>2026-05-01T07:59:00.371Z</time></trkpt><trkpt lat="41.3744065" lon="13.0715149"><ele>12.999999999999998</ele><time>2026-05-01T07:59:02.371Z</time></trkpt><trkpt lat="41.3744736" lon="13.0714362"><ele>13.0</ele><time>2026-05-01T07:59:04.371Z</time></trkpt><trkpt lat="41.3745346" lon="13.0713546"><ele>12.999999999999998</ele><time>2026-05-01T07:59:06.371Z</time></trkpt><trkpt lat="41.374597" lon="13.0712813"><ele>13.0</ele><time>2026-05-01T07:59:08.371Z</time></trkpt><trkpt lat="41.3746571" lon="13.0712105"><ele>13.0</ele><time>2026-05-01T07:59:10.371Z</time></trkpt><trkpt lat="41.3747144" lon="13.0711266"><ele>13.0</ele><time>2026-05-01T07:59:12.371Z</time></trkpt><trkpt lat="41.3747724" lon="13.0710409"><ele>12.999999999999998</ele><time>2026-05-01T07:59:14.371Z</time></trkpt><trkpt lat="41.374833" lon="13.0709576"><ele>13.0</ele><time>2026-05-01T07:59:16.371Z</time></trkpt><trkpt lat="41.3748946" lon="13.0708822"><ele>12.999999999999998</ele><time>2026-05-01T07:59:18.37Z</time></trkpt><trkpt lat="41.3749524" lon="13.0707972"><ele>13.0</ele><time>2026-05-01T07:59:20.371Z</time></trkpt><trkpt lat="41.3750119" lon="13.0707175"><ele>13.0</ele><time>2026-05-01T07:59:22.371Z</time></trkpt><trkpt lat="41.3750788" lon="13.0706331"><ele>13.0</ele><time>2026-05-01T07:59:24.371Z</time></trkpt><trkpt lat="41.3751384" lon="13.070556"><ele>12.999999999999998</ele><time>2026-05-01T07:59:26.371Z</time></trkpt><trkpt lat="41.3751995" lon="13.0704635"><ele>13.0</ele><time>2026-05-01T07:59:28.371Z</time></trkpt><trkpt lat="41.3752602" lon="13.0703821"><ele>12.999999999999998</ele><time>2026-05-01T07:59:30.371Z</time></trkpt><trkpt lat="41.3753243" lon="13.0703014"><ele>13.0</ele><time>2026-05-01T07:59:32.371Z</time></trkpt><trkpt lat="41.3753869" lon="13.0702128"><ele>13.0</ele><time>2026-05-01T07:59:34.37Z</time></trkpt><trkpt lat="41.3754469" lon="13.0701231"><ele>13.0</ele><time>2026-05-01T07:59:36.371Z</time></trkpt><trkpt lat="41.3755091" lon="13.070047"><ele>12.999999999999998</ele><time>2026-05-01T07:59:38.371Z</time></trkpt><trkpt lat="41.3755662" lon="13.0699662"><ele>13.0</ele><time>2026-05-01T07:59:40.371Z</time></trkpt><trkpt lat="41.3756309" lon="13.0698911"><ele>12.999999999999998</ele><time>2026-05-01T07:59:42.371Z</time></trkpt><trkpt lat="41.3756944" lon="13.0698113"><ele>13.0</ele><time>2026-05-01T07:59:44.371Z</time></trkpt><trkpt lat="41.3757522" lon="13.0697304"><ele>13.0</ele><time>2026-05-01T07:59:46.37Z</time></trkpt><trkpt lat="41.3758081" lon="13.0696556"><ele>13.0</ele><time>2026-05-01T07:59:48.37Z</time></trkpt><trkpt lat="41.3758656" lon="13.0695774"><ele>12.999999999999998</ele><time>2026-05-01T07:59:50.371Z</time></trkpt><trkpt lat="41.3759284" lon="13.0694936"><ele>13.0</ele><time>2026-05-01T07:59:52.371Z</time></trkpt><trkpt lat="41.3759911" lon="13.0694213"><ele>12.999999999999998</ele><time>2026-05-01T07:59:54.371Z</time></trkpt><trkpt lat="41.3760467" lon="13.0693414"><ele>13.0</ele><time>2026-05-01T07:59:56.37Z</time></trkpt><trkpt lat="41.3761054" lon="13.0692576"><ele>13.0</ele><time>2026-05-01T07:59:58.371Z</time></trkpt><trkpt lat="41.3761679" lon="13.0691676"><ele>13.0</ele><time>2026-05-01T08:00:00.371Z</time></trkpt><trkpt lat="41.3762233" lon="13.0690898"><ele>12.999999999999998</ele><time>2026-05-01T08:00:02.371Z</time></trkpt><trkpt lat="41.3762818" lon="13.0690177"><ele>13.0</ele><time>2026-05-01T08:00:04.371Z</time></trkpt><trkpt lat="41.3763471" lon="13.0689377"><ele>12.833333333333332</ele><time>2026-05-01T08:00:06.371Z</time></trkpt><trkpt lat="41.376406" lon="13.0688602"><ele>12.666666666666666</ele><time>2026-05-01T08:00:08.371Z</time></trkpt><trkpt lat="41.3764634" lon="13.0687723"><ele>12.5</ele><time>2026-05-01T08:00:10.371Z</time></trkpt><trkpt lat="41.3765302" lon="13.068695"><ele>12.333333333333332</ele><time>2026-05-01T08:00:12.371Z</time></trkpt><trkpt lat="41.3765955" lon="13.0686189"><ele>12.166666666666666</ele><time>2026-05-01T08:00:14.371Z</time></trkpt><trkpt lat="41.3766576" lon="13.0685337"><ele>12.0</ele><time>2026-05-01T08:00:16.371Z</time></trkpt><trkpt lat="41.3767165" lon="13.0684489"><ele>12.0</ele><time>2026-05-01T08:00:18.37Z</time></trkpt><trkpt lat="41.3767766" lon="13.068369"><ele>12.0</ele><time>2026-05-01T08:00:20.371Z</time></trkpt><trkpt lat="41.3768361" lon="13.0682911"><ele>12.0</ele><time>2026-05-01T08:00:22.371Z</time></trkpt><trkpt lat="41.3768948" lon="13.0682075"><ele>12.0</ele><time>2026-05-01T08:00:24.371Z</time></trkpt><trkpt lat="41.3769578" lon="13.0681289"><ele>12.0</ele><time>2026-05-01T08:00:26.371Z</time></trkpt><trkpt lat="41.3770227" lon="13.0680456"><ele>12.0</ele><time>2026-05-01T08:00:28.371Z</time></trkpt><trkpt lat="41.377079" lon="13.0679626"><ele>12.0</ele><time>2026-05-01T08:00:30.37Z</time></trkpt><trkpt lat="41.3771383" lon="13.0678758"><ele>12.0</ele><time>2026-05-01T08:00:32.371Z</time></trkpt><trkpt lat="41.3771998" lon="13.0677859"><ele>12.0</ele><time>2026-05-01T08:00:34.371Z</time></trkpt><trkpt lat="41.3772653" lon="13.0677096"><ele>12.0</ele><time>2026-05-01T08:00:36.371Z</time></trkpt><trkpt lat="41.3773258" lon="13.0676408"><ele>12.0</ele><time>2026-05-01T08:00:38.37Z</time></trkpt><trkpt lat="41.3773801" lon="13.0675593"><ele>12.0</ele><time>2026-05-01T08:00:40.371Z</time></trkpt><trkpt lat="41.3774274" lon="13.0674974"><ele>12.0</ele><time>2026-05-01T08:00:42.37Z</time></trkpt><trkpt lat="41.3774922" lon="13.067411"><ele>12.0</ele><time>2026-05-01T08:00:45.371Z</time></trkpt><trkpt lat="41.3775455" lon="13.0673213"><ele>12.0</ele><time>2026-05-01T08:00:48.371Z</time></trkpt><trkpt lat="41.3775987" lon="13.0672446"><ele>12.0</ele><time>2026-05-01T08:00:51.371Z</time></trkpt><trkpt lat="41.3776615" lon="13.0671635"><ele>12.0</ele><time>2026-05-01T08:00:54.371Z</time></trkpt><trkpt lat="41.377711" lon="13.0670972"><ele>12.0</ele><time>2026-05-01T08:00:56.371Z</time></trkpt><trkpt lat="41.3777734" lon="13.0670203"><ele>12.0</ele><time>2026-05-01T08:00:58.371Z</time></trkpt><trkpt lat="41.3778352" lon="13.0669405"><ele>12.0</ele><time>2026-05-01T08:01:00.371Z</time></trkpt><trkpt lat="41.3778915" lon="13.0668472"><ele>12.0</ele><time>2026-05-01T08:01:02.37Z</time></trkpt><trkpt lat="41.3779459" lon="13.0667538"><ele>12.0</ele><time>2026-05-01T08:01:04.371Z</time></trkpt><trkpt lat="41.3780057" lon="13.0666602"><ele>12.0</ele><time>2026-05-01T08:01:06.371Z</time></trkpt><trkpt lat="41.378067" lon="13.0665618"><ele>12.2</ele><time>2026-05-01T08:01:08.371Z</time></trkpt><trkpt lat="41.3781252" lon="13.0664593"><ele>12.399999999999999</ele><time>2026-05-01T08:01:10.371Z</time></trkpt><trkpt lat="41.3781775" lon="13.066356"><ele>12.600000000000001</ele><time>2026-05-01T08:01:12.371Z</time></trkpt><trkpt lat="41.3782318" lon="13.0662528"><ele>12.8</ele><time>2026-05-01T08:01:14.371Z</time></trkpt><trkpt lat="41.3782847" lon="13.0661504"><ele>13.0</ele><time>2026-05-01T08:01:16.371Z</time></trkpt><trkpt lat="41.3783389" lon="13.0660531"><ele>13.0</ele><time>2026-05-01T08:01:18.371Z</time></trkpt><trkpt lat="41.3783954" lon="13.065951"><ele>13.0</ele><time>2026-05-01T08:01:20.371Z</time></trkpt><trkpt lat="41.3784513" lon="13.065853"><ele>13.0</ele><time>2026-05-01T08:01:22.37Z</time></trkpt><trkpt lat="41.3785036" lon="13.0657478"><ele>13.0</ele><time>2026-05-01T08:01:24.371Z</time></trkpt><trkpt lat="41.3785564" lon="13.0656444"><ele>13.0</ele><time>2026-05-01T08:01:26.371Z</time></trkpt><trkpt lat="41.3786132" lon="13.065547"><ele>12.8</ele><time>2026-05-01T08:01:28.37Z</time></trkpt><trkpt lat="41.3786706" lon="13.0654475"><ele>12.600000000000001</ele><time>2026-05-01T08:01:30.371Z</time></trkpt><trkpt lat="41.378727" lon="13.0653441"><ele>12.399999999999999</ele><time>2026-05-01T08:01:32.371Z</time></trkpt><trkpt lat="41.378783" lon="13.0652412"><ele>12.2</ele><time>2026-05-01T08:01:34.371Z</time></trkpt><trkpt lat="41.3788377" lon="13.0651342"><ele>12.0</ele><time>2026-05-01T08:01:36.371Z</time></trkpt><trkpt lat="41.3788975" lon="13.0650296"><ele>12.2</ele><time>2026-05-01T08:01:38.371Z</time></trkpt><trkpt lat="41.3789576" lon="13.0649269"><ele>12.399999999999999</ele><time>2026-05-01T08:01:40.37Z</time></trkpt><trkpt lat="41.3790182" lon="13.0648262"><ele>12.600000000000001</ele><time>2026-05-01T08:01:42.371Z</time></trkpt><trkpt lat="41.379079" lon="13.0647196"><ele>12.8</ele><time>2026-05-01T08:01:44.37Z</time></trkpt><trkpt lat="41.3791343" lon="13.0646119"><ele>13.0</ele><time>2026-05-01T08:01:46.37Z</time></trkpt><trkpt lat="41.379185" lon="13.0645068"><ele>13.0</ele><time>2026-05-01T08:01:48.37Z</time></trkpt><trkpt lat="41.3792402" lon="13.0644074"><ele>13.0</ele><time>2026-05-01T08:01:50.371Z</time></trkpt><trkpt lat="41.3792988" lon="13.0643066"><ele>13.0</ele><time>2026-05-01T08:01:52.371Z</time></trkpt><trkpt lat="41.3793557" lon="13.0641992"><ele>13.0</ele><time>2026-05-01T08:01:54.371Z</time></trkpt><trkpt lat="41.3794109" lon="13.0640882"><ele>13.0</ele><time>2026-05-01T08:01:56.371Z</time></trkpt><trkpt lat="41.3794697" lon="13.0639816"><ele>13.0</ele><time>2026-05-01T08:01:58.37Z</time></trkpt><trkpt lat="41.3795244" lon="13.0638726"><ele>13.0</ele><time>2026-05-01T08:02:00.371Z</time></trkpt><trkpt lat="41.3795823" lon="13.0637705"><ele>13.0</ele><time>2026-05-01T08:02:02.371Z</time></trkpt><trkpt lat="41.3796378" lon="13.0636689"><ele>13.0</ele><time>2026-05-01T08:02:04.371Z</time></trkpt><trkpt lat="41.3796938" lon="13.0635633"><ele>13.0</ele><time>2026-05-01T08:02:06.371Z</time></trkpt><trkpt lat="41.3797482" lon="13.0634566"><ele>12.8</ele><time>2026-05-01T08:02:08.371Z</time></trkpt><trkpt lat="41.3798069" lon="13.0633553"><ele>12.600000000000001</ele><time>2026-05-01T08:02:10.371Z</time></trkpt><trkpt lat="41.3798675" lon="13.063254"><ele>12.399999999999999</ele><time>2026-05-01T08:02:12.371Z</time></trkpt><trkpt lat="41.3799292" lon="13.0631506"><ele>12.2</ele><time>2026-05-01T08:02:14.371Z</time></trkpt><trkpt lat="41.3799844" lon="13.0630505"><ele>12.0</ele><time>2026-05-01T08:02:16.371Z</time></trkpt><trkpt lat="41.3800369" lon="13.0629503"><ele>12.0</ele><time>2026-05-01T08:02:18.371Z</time></trkpt><trkpt lat="41.3800886" lon="13.0628501"><ele>12.0</ele><time>2026-05-01T08:02:20.371Z</time></trkpt><trkpt lat="41.3801447" lon="13.0627536"><ele>12.0</ele><time>2026-05-01T08:02:22.371Z</time></trkpt><trkpt lat="41.3801982" lon="13.0626546"><ele>12.0</ele><time>2026-05-01T08:02:24.371Z</time></trkpt><trkpt lat="41.3802501" lon="13.0625551"><ele>12.0</ele><time>2026-05-01T08:02:26.371Z</time></trkpt><trkpt lat="41.3803011" lon="13.0624505"><ele>11.8</ele><time>2026-05-01T08:02:28.371Z</time></trkpt><trkpt lat="41.380356" lon="13.0623509"><ele>11.6</ele><time>2026-05-01T08:02:30.371Z</time></trkpt><trkpt lat="41.380414" lon="13.0622509"><ele>11.4</ele><time>2026-05-01T08:02:32.371Z</time></trkpt><trkpt lat="41.3804616" lon="13.0621527"><ele>11.200000000000001</ele><time>2026-05-01T08:02:34.371Z</time></trkpt><trkpt lat="41.3805196" lon="13.0620575"><ele>11.0</ele><time>2026-05-01T08:02:36.37Z</time></trkpt><trkpt lat="41.3805767" lon="13.0619562"><ele>11.0</ele><time>2026-05-01T08:02:38.371Z</time></trkpt><trkpt lat="41.3806337" lon="13.0618582"><ele>11.0</ele><time>2026-05-01T08:02:40.37Z</time></trkpt><trkpt lat="41.3806854" lon="13.0617671"><ele>11.0</ele><time>2026-05-01T08:02:42.371Z</time></trkpt><trkpt lat="41.380738" lon="13.0616599"><ele>11.0</ele><time>2026-05-01T08:02:44.371Z</time></trkpt><trkpt lat="41.3807893" lon="13.0615611"><ele>11.0</ele><time>2026-05-01T08:02:46.371Z</time></trkpt><trkpt lat="41.3808394" lon="13.0614723"><ele>11.0</ele><time>2026-05-01T08:02:48.371Z</time></trkpt><trkpt lat="41.3808917" lon="13.0613787"><ele>11.0</ele><time>2026-05-01T08:02:50.37Z</time></trkpt><trkpt lat="41.3809456" lon="13.0612843"><ele>11.0</ele><time>2026-05-01T08:02:52.371Z</time></trkpt><trkpt lat="41.3809958" lon="13.0611867"><ele>11.0</ele><time>2026-05-01T08:02:54.371Z</time></trkpt><trkpt lat="41.3810469" lon="13.0610896"><ele>11.0</ele><time>2026-05-01T08:02:56.371Z</time></trkpt><trkpt lat="41.381097" lon="13.0610003"><ele>11.0</ele><time>2026-05-01T08:02:58.37Z</time></trkpt><trkpt lat="41.3811465" lon="13.0609097"><ele>11.0</ele><time>2026-05-01T08:03:00.371Z</time></trkpt><trkpt lat="41.3811938" lon="13.0608183"><ele>11.0</ele><time>2026-05-01T08:03:02.371Z</time></trkpt><trkpt lat="41.3812446" lon="13.0607303"><ele>11.0</ele><time>2026-05-01T08:03:04.371Z</time></trkpt><trkpt lat="41.3812981" lon="13.0606501"><ele>11.0</ele><time>2026-05-01T08:03:06.371Z</time></trkpt><trkpt lat="41.3813442" lon="13.0605673"><ele>11.0</ele><time>2026-05-01T08:03:08.371Z</time></trkpt><trkpt lat="41.3813905" lon="13.0604737"><ele>11.0</ele><time>2026-05-01T08:03:10.371Z</time></trkpt><trkpt lat="41.3814371" lon="13.0603902"><ele>11.0</ele><time>2026-05-01T08:03:12.371Z</time></trkpt><trkpt lat="41.3814822" lon="13.0603058"><ele>11.0</ele><time>2026-05-01T08:03:14.37Z</time></trkpt><trkpt lat="41.3815288" lon="13.060215"><ele>11.0</ele><time>2026-05-01T08:03:16.37Z</time></trkpt><trkpt lat="41.3815767" lon="13.0601274"><ele>11.0</ele><time>2026-05-01T08:03:18.371Z</time></trkpt><trkpt lat="41.3816259" lon="13.060042"><ele>11.0</ele><time>2026-05-01T08:03:20.37Z</time></trkpt><trkpt lat="41.3816712" lon="13.0599577"><ele>11.0</ele><time>2026-05-01T08:03:22.371Z</time></trkpt><trkpt lat="41.3817198" lon="13.0598756"><ele>11.0</ele><time>2026-05-01T08:03:24.37Z</time></trkpt><trkpt lat="41.3817592" lon="13.0597806"><ele>11.0</ele><time>2026-05-01T08:03:26.371Z</time></trkpt><trkpt lat="41.3818119" lon="13.0596853"><ele>11.0</ele><time>2026-05-01T08:03:28.37Z</time></trkpt><trkpt lat="41.3818638" lon="13.0595992"><ele>11.0</ele><time>2026-05-01T08:03:30.371Z</time></trkpt><trkpt lat="41.3819148" lon="13.0595055"><ele>11.0</ele><time>2026-05-01T08:03:32.37Z</time></trkpt><trkpt lat="41.3819679" lon="13.0594157"><ele>11.0</ele><time>2026-05-01T08:03:34.371Z</time></trkpt><trkpt lat="41.3820248" lon="13.0593195"><ele>11.0</ele><time>2026-05-01T08:03:36.371Z</time></trkpt><trkpt lat="41.382072" lon="13.0592202"><ele>11.0</ele><time>2026-05-01T08:03:38.371Z</time></trkpt><trkpt lat="41.3821221" lon="13.0591318"><ele>11.0</ele><time>2026-05-01T08:03:40.37Z</time></trkpt><trkpt lat="41.3821737" lon="13.0590386"><ele>11.0</ele><time>2026-05-01T08:03:42.371Z</time></trkpt><trkpt lat="41.3822261" lon="13.058946"><ele>11.0</ele><time>2026-05-01T08:03:44.371Z</time></trkpt><trkpt lat="41.3822756" lon="13.0588533"><ele>11.0</ele><time>2026-05-01T08:03:46.37Z</time></trkpt><trkpt lat="41.3823237" lon="13.0587588"><ele>11.0</ele><time>2026-05-01T08:03:48.371Z</time></trkpt><trkpt lat="41.3823735" lon="13.058669"><ele>11.0</ele><time>2026-05-01T08:03:50.371Z</time></trkpt><trkpt lat="41.3824227" lon="13.0585814"><ele>11.0</ele><time>2026-05-01T08:03:52.371Z</time></trkpt><trkpt lat="41.3824731" lon="13.058488"><ele>11.0</ele><time>2026-05-01T08:03:54.37Z</time></trkpt><trkpt lat="41.3825241" lon="13.0583882"><ele>11.0</ele><time>2026-05-01T08:03:56.371Z</time></trkpt><trkpt lat="41.3825718" lon="13.058292"><ele>11.0</ele><time>2026-05-01T08:03:58.37Z</time></trkpt><trkpt lat="41.3826223" lon="13.0581934"><ele>11.0</ele><time>2026-05-01T08:04:00.371Z</time></trkpt><trkpt lat="41.3826801" lon="13.0580979"><ele>10.833333333333332</ele><time>2026-05-01T08:04:02.371Z</time></trkpt><trkpt lat="41.3827362" lon="13.0579995"><ele>10.666666666666666</ele><time>2026-05-01T08:04:04.371Z</time></trkpt><trkpt lat="41.382789" lon="13.057907"><ele>10.5</ele><time>2026-05-01T08:04:06.371Z</time></trkpt><trkpt lat="41.3828388" lon="13.0578161"><ele>10.333333333333334</ele><time>2026-05-01T08:04:08.371Z</time></trkpt><trkpt lat="41.3828975" lon="13.0577309"><ele>10.166666666666668</ele><time>2026-05-01T08:04:10.371Z</time></trkpt><trkpt lat="41.3829466" lon="13.0576373"><ele>10.0</ele><time>2026-05-01T08:04:12.371Z</time></trkpt><trkpt lat="41.3829974" lon="13.0575343"><ele>10.6</ele><time>2026-05-01T08:04:14.371Z</time></trkpt><trkpt lat="41.3830512" lon="13.0574342"><ele>11.2</ele><time>2026-05-01T08:04:16.37Z</time></trkpt><trkpt lat="41.3831063" lon="13.0573428"><ele>11.8</ele><time>2026-05-01T08:04:18.37Z</time></trkpt><trkpt lat="41.3831622" lon="13.05724"><ele>12.4</ele><time>2026-05-01T08:04:20.371Z</time></trkpt><trkpt lat="41.3832154" lon="13.0571403"><ele>13.0</ele><time>2026-05-01T08:04:22.371Z</time></trkpt><trkpt lat="41.3832699" lon="13.0570387"><ele>12.999999999999998</ele><time>2026-05-01T08:04:24.369Z</time></trkpt><trkpt lat="41.3833217" lon="13.0569431"><ele>13.0</ele><time>2026-05-01T08:04:26.369Z</time></trkpt><trkpt lat="41.3833695" lon="13.0568417"><ele>13.0</ele><time>2026-05-01T08:04:28.37Z</time></trkpt><trkpt lat="41.38342" lon="13.0567413"><ele>13.0</ele><time>2026-05-01T08:04:30.37Z</time></trkpt><trkpt lat="41.3834739" lon="13.0566477"><ele>12.999999999999998</ele><time>2026-05-01T08:04:32.37Z</time></trkpt><trkpt lat="41.3835261" lon="13.0565673"><ele>13.0</ele><time>2026-05-01T08:04:34.37Z</time></trkpt><trkpt lat="41.3835699" lon="13.0564728"><ele>12.999999999999998</ele><time>2026-05-01T08:04:36.37Z</time></trkpt><trkpt lat="41.3836201" lon="13.056384"><ele>13.0</ele><time>2026-05-01T08:04:38.369Z</time></trkpt><trkpt lat="41.3836693" lon="13.0562865"><ele>13.0</ele><time>2026-05-01T08:04:40.37Z</time></trkpt><trkpt lat="41.3837237" lon="13.0561933"><ele>13.0</ele><time>2026-05-01T08:04:42.37Z</time></trkpt><trkpt lat="41.3837746" lon="13.0560992"><ele>12.999999999999998</ele><time>2026-05-01T08:04:44.37Z</time></trkpt><trkpt lat="41.3838218" lon="13.0560035"><ele>13.0</ele><time>2026-05-01T08:04:46.369Z</time></trkpt><trkpt lat="41.3838661" lon="13.0559106"><ele>13.166666666666666</ele><time>2026-05-01T08:04:48.369Z</time></trkpt><trkpt lat="41.3839276" lon="13.0558245"><ele>13.333333333333332</ele><time>2026-05-01T08:04:50.37Z</time></trkpt><trkpt lat="41.3839807" lon="13.0557292"><ele>13.5</ele><time>2026-05-01T08:04:52.37Z</time></trkpt><trkpt lat="41.3840356" lon="13.0556402"><ele>13.666666666666668</ele><time>2026-05-01T08:04:54.37Z</time></trkpt><trkpt lat="41.3840851" lon="13.0555556"><ele>13.833333333333334</ele><time>2026-05-01T08:04:56.369Z</time></trkpt><trkpt lat="41.3841351" lon="13.0554705"><ele>14.0</ele><time>2026-05-01T08:04:58.37Z</time></trkpt><trkpt lat="41.3841911" lon="13.0553884"><ele>14.166666666666668</ele><time>2026-05-01T08:05:00.37Z</time></trkpt><trkpt lat="41.3842496" lon="13.0553038"><ele>14.333333333333334</ele><time>2026-05-01T08:05:02.369Z</time></trkpt><trkpt lat="41.3843077" lon="13.0552265"><ele>14.5</ele><time>2026-05-01T08:05:04.37Z</time></trkpt><trkpt lat="41.3843691" lon="13.055151"><ele>14.666666666666668</ele><time>2026-05-01T08:05:06.369Z</time></trkpt><trkpt lat="41.3844279" lon="13.0550793"><ele>14.833333333333334</ele><time>2026-05-01T08:05:08.37Z</time></trkpt><trkpt lat="41.3844913" lon="13.0549949"><ele>15.0</ele><time>2026-05-01T08:05:10.37Z</time></trkpt><trkpt lat="41.3845492" lon="13.0549139"><ele>14.833333333333334</ele><time>2026-05-01T08:05:12.369Z</time></trkpt><trkpt lat="41.3846135" lon="13.0548339"><ele>14.666666666666668</ele><time>2026-05-01T08:05:14.37Z</time></trkpt><trkpt lat="41.3846758" lon="13.0547565"><ele>14.5</ele><time>2026-05-01T08:05:16.369Z</time></trkpt><trkpt lat="41.3847368" lon="13.0546752"><ele>14.333333333333334</ele><time>2026-05-01T08:05:18.37Z</time></trkpt><trkpt lat="41.3848003" lon="13.0545982"><ele>14.166666666666668</ele><time>2026-05-01T08:05:20.369Z</time></trkpt><trkpt lat="41.3848645" lon="13.0545177"><ele>14.0</ele><time>2026-05-01T08:05:22.369Z</time></trkpt><trkpt lat="41.3849217" lon="13.0544332"><ele>14.000000000000002</ele><time>2026-05-01T08:05:24.37Z</time></trkpt><trkpt lat="41.3849841" lon="13.0543534"><ele>14.0</ele><time>2026-05-01T08:05:26.37Z</time></trkpt><trkpt lat="41.3850417" lon="13.0542711"><ele>14.0</ele><time>2026-05-01T08:05:28.369Z</time></trkpt><trkpt lat="41.3851025" lon="13.0541965"><ele>14.0</ele><time>2026-05-01T08:05:30.37Z</time></trkpt><trkpt lat="41.3851577" lon="13.0541196"><ele>14.000000000000002</ele><time>2026-05-01T08:05:32.37Z</time></trkpt><trkpt lat="41.3852153" lon="13.0540371"><ele>14.0</ele><time>2026-05-01T08:05:34.369Z</time></trkpt><trkpt lat="41.3852738" lon="13.0539658"><ele>13.833333333333334</ele><time>2026-05-01T08:05:36.37Z</time></trkpt><trkpt lat="41.3853348" lon="13.0538865"><ele>13.666666666666668</ele><time>2026-05-01T08:05:38.37Z</time></trkpt><trkpt lat="41.3853949" lon="13.0538167"><ele>13.5</ele><time>2026-05-01T08:05:40.37Z</time></trkpt><trkpt lat="41.3854524" lon="13.0537414"><ele>13.333333333333332</ele><time>2026-05-01T08:05:42.37Z</time></trkpt><trkpt lat="41.3855099" lon="13.0536602"><ele>13.166666666666666</ele><time>2026-05-01T08:05:44.37Z</time></trkpt><trkpt lat="41.3855672" lon="13.0535861"><ele>13.0</ele><time>2026-05-01T08:05:46.369Z</time></trkpt><trkpt lat="41.3856312" lon="13.0535098"><ele>12.833333333333332</ele><time>2026-05-01T08:05:48.369Z</time></trkpt><trkpt lat="41.3856879" lon="13.0534331"><ele>12.666666666666666</ele><time>2026-05-01T08:05:50.37Z</time></trkpt><trkpt lat="41.3857459" lon="13.0533614"><ele>12.5</ele><time>2026-05-01T08:05:52.369Z</time></trkpt><trkpt lat="41.3858142" lon="13.0532859"><ele>12.333333333333332</ele><time>2026-05-01T08:05:54.369Z</time></trkpt><trkpt lat="41.3858713" lon="13.0532049"><ele>12.166666666666666</ele><time>2026-05-01T08:05:56.37Z</time></trkpt><trkpt lat="41.3859282" lon="13.0531262"><ele>12.0</ele><time>2026-05-01T08:05:58.37Z</time></trkpt><trkpt lat="41.3859891" lon="13.0530443"><ele>12.0</ele><time>2026-05-01T08:06:00.37Z</time></trkpt><trkpt lat="41.3860443" lon="13.0529664"><ele>12.0</ele><time>2026-05-01T08:06:02.37Z</time></trkpt><trkpt lat="41.3861044" lon="13.0528871"><ele>12.0</ele><time>2026-05-01T08:06:04.37Z</time></trkpt><trkpt lat="41.3861673" lon="13.0528087"><ele>12.0</ele><time>2026-05-01T08:06:06.37Z</time></trkpt><trkpt lat="41.3862256" lon="13.0527327"><ele>12.0</ele><time>2026-05-01T08:06:08.37Z</time></trkpt><trkpt lat="41.3862832" lon="13.0526569"><ele>12.0</ele><time>2026-05-01T08:06:10.37Z</time></trkpt><trkpt lat="41.3863447" lon="13.0525788"><ele>12.0</ele><time>2026-05-01T08:06:12.37Z</time></trkpt><trkpt lat="41.3864041" lon="13.0525002"><ele>12.0</ele><time>2026-05-01T08:06:14.37Z</time></trkpt><trkpt lat="41.3864633" lon="13.0524181"><ele>12.0</ele><time>2026-05-01T08:06:16.37Z</time></trkpt><trkpt lat="41.3865219" lon="13.0523435"><ele>12.0</ele><time>2026-05-01T08:06:18.369Z</time></trkpt><trkpt lat="41.3865853" lon="13.0522529"><ele>12.0</ele><time>2026-05-01T08:06:20.369Z</time></trkpt><trkpt lat="41.3866439" lon="13.0521769"><ele>12.0</ele><time>2026-05-01T08:06:22.37Z</time></trkpt><trkpt lat="41.3867057" lon="13.0521027"><ele>11.833333333333334</ele><time>2026-05-01T08:06:24.37Z</time></trkpt><trkpt lat="41.386767" lon="13.0520243"><ele>11.666666666666666</ele><time>2026-05-01T08:06:26.369Z</time></trkpt><trkpt lat="41.38683" lon="13.0519546"><ele>11.5</ele><time>2026-05-01T08:06:28.369Z</time></trkpt><trkpt lat="41.3868865" lon="13.0518739"><ele>11.333333333333332</ele><time>2026-05-01T08:06:30.37Z</time></trkpt><trkpt lat="41.3869481" lon="13.0517948"><ele>11.166666666666666</ele><time>2026-05-01T08:06:32.37Z</time></trkpt><trkpt lat="41.3870101" lon="13.0517182"><ele>11.0</ele><time>2026-05-01T08:06:34.37Z</time></trkpt><trkpt lat="41.3870742" lon="13.0516436"><ele>10.833333333333332</ele><time>2026-05-01T08:06:36.369Z</time></trkpt><trkpt lat="41.3871333" lon="13.0515562"><ele>10.666666666666666</ele><time>2026-05-01T08:06:38.37Z</time></trkpt><trkpt lat="41.3871924" lon="13.051481"><ele>10.5</ele><time>2026-05-01T08:06:40.37Z</time></trkpt><trkpt lat="41.3872489" lon="13.0514064"><ele>10.333333333333334</ele><time>2026-05-01T08:06:42.37Z</time></trkpt><trkpt lat="41.3873077" lon="13.0513313"><ele>10.166666666666668</ele><time>2026-05-01T08:06:44.369Z</time></trkpt><trkpt lat="41.3873663" lon="13.0512533"><ele>10.0</ele><time>2026-05-01T08:06:46.37Z</time></trkpt><trkpt lat="41.3874248" lon="13.0511788"><ele>10.333333333333334</ele><time>2026-05-01T08:06:48.37Z</time></trkpt><trkpt lat="41.3874828" lon="13.0511003"><ele>10.666666666666668</ele><time>2026-05-01T08:06:50.369Z</time></trkpt><trkpt lat="41.3875405" lon="13.0510192"><ele>11.0</ele><time>2026-05-01T08:06:52.37Z</time></trkpt><trkpt lat="41.3875936" lon="13.0509357"><ele>11.333333333333334</ele><time>2026-05-01T08:06:54.369Z</time></trkpt><trkpt lat="41.3876569" lon="13.0508579"><ele>11.666666666666666</ele><time>2026-05-01T08:06:56.369Z</time></trkpt><trkpt lat="41.3877173" lon="13.0507862"><ele>12.0</ele><time>2026-05-01T08:06:58.37Z</time></trkpt><trkpt lat="41.3877705" lon="13.0507138"><ele>11.999999999999998</ele><time>2026-05-01T08:07:00.37Z</time></trkpt><trkpt lat="41.3878203" lon="13.0506513"><ele>12.0</ele><time>2026-05-01T08:07:02.37Z</time></trkpt><trkpt lat="41.387867" lon="13.0505856"><ele>12.0</ele><time>2026-05-01T08:07:04.37Z</time></trkpt><trkpt lat="41.3879147" lon="13.0505243"><ele>12.0</ele><time>2026-05-01T08:07:06.369Z</time></trkpt><trkpt lat="41.3879658" lon="13.0504604"><ele>12.0</ele><time>2026-05-01T08:07:08.37Z</time></trkpt><trkpt lat="41.3880245" lon="13.0503893"><ele>11.999999999999998</ele><time>2026-05-01T08:07:10.37Z</time></trkpt><trkpt lat="41.3880793" lon="13.0503172"><ele>12.0</ele><time>2026-05-01T08:07:12.37Z</time></trkpt><trkpt lat="41.3881341" lon="13.0502456"><ele>12.333333333333334</ele><time>2026-05-01T08:07:14.37Z</time></trkpt><trkpt lat="41.3881924" lon="13.0501741"><ele>12.666666666666668</ele><time>2026-05-01T08:07:16.369Z</time></trkpt><trkpt lat="41.3882502" lon="13.0500953"><ele>13.0</ele><time>2026-05-01T08:07:18.37Z</time></trkpt><trkpt lat="41.3883065" lon="13.0500207"><ele>13.333333333333334</ele><time>2026-05-01T08:07:20.37Z</time></trkpt><trkpt lat="41.3883642" lon="13.0499388"><ele>13.666666666666668</ele><time>2026-05-01T08:07:22.37Z</time></trkpt><trkpt lat="41.3884281" lon="13.0498636"><ele>14.0</ele><time>2026-05-01T08:07:24.369Z</time></trkpt><trkpt lat="41.38849" lon="13.0497846"><ele>14.166666666666668</ele><time>2026-05-01T08:07:26.37Z</time></trkpt><trkpt lat="41.3885449" lon="13.0497062"><ele>14.333333333333334</ele><time>2026-05-01T08:07:28.37Z</time></trkpt><trkpt lat="41.3886035" lon="13.0496283"><ele>14.5</ele><time>2026-05-01T08:07:30.37Z</time></trkpt><trkpt lat="41.3886694" lon="13.0495514"><ele>14.666666666666668</ele><time>2026-05-01T08:07:32.369Z</time></trkpt><trkpt lat="41.3887247" lon="13.0494699"><ele>14.833333333333334</ele><time>2026-05-01T08:07:34.37Z</time></trkpt><trkpt lat="41.3887863" lon="13.0493922"><ele>15.0</ele><time>2026-05-01T08:07:36.37Z</time></trkpt><trkpt lat="41.3888467" lon="13.0493198"><ele>14.833333333333334</ele><time>2026-05-01T08:07:38.369Z</time></trkpt><trkpt lat="41.3889058" lon="13.0492448"><ele>14.666666666666668</ele><time>2026-05-01T08:07:40.37Z</time></trkpt><trkpt lat="41.3889663" lon="13.049172"><ele>14.5</ele><time>2026-05-01T08:07:42.37Z</time></trkpt><trkpt lat="41.3890283" lon="13.0490888"><ele>14.333333333333334</ele><time>2026-05-01T08:07:44.369Z</time></trkpt><trkpt lat="41.3890879" lon="13.0490075"><ele>14.166666666666668</ele><time>2026-05-01T08:07:46.369Z</time></trkpt><trkpt lat="41.3891526" lon="13.0489268"><ele>14.0</ele><time>2026-05-01T08:07:48.37Z</time></trkpt><trkpt lat="41.3892152" lon="13.048845"><ele>14.000000000000002</ele><time>2026-05-01T08:07:50.369Z</time></trkpt><trkpt lat="41.3892765" lon="13.0487592"><ele>14.0</ele><time>2026-05-01T08:07:52.37Z</time></trkpt><trkpt lat="41.3893396" lon="13.0486743"><ele>14.0</ele><time>2026-05-01T08:07:54.37Z</time></trkpt><trkpt lat="41.389403" lon="13.0485993"><ele>14.0</ele><time>2026-05-01T08:07:56.37Z</time></trkpt><trkpt lat="41.3894681" lon="13.0485239"><ele>14.000000000000002</ele><time>2026-05-01T08:07:58.37Z</time></trkpt><trkpt lat="41.3895241" lon="13.0484486"><ele>14.0</ele><time>2026-05-01T08:08:00.37Z</time></trkpt><trkpt lat="41.3895894" lon="13.048365"><ele>13.6</ele><time>2026-05-01T08:08:02.369Z</time></trkpt><trkpt lat="41.3896523" lon="13.0482791"><ele>13.2</ele><time>2026-05-01T08:08:04.37Z</time></trkpt><trkpt lat="41.3897205" lon="13.0481918"><ele>12.799999999999999</ele><time>2026-05-01T08:08:06.369Z</time></trkpt><trkpt lat="41.3897827" lon="13.048111"><ele>12.399999999999999</ele><time>2026-05-01T08:08:08.369Z</time></trkpt><trkpt lat="41.389852" lon="13.0480258"><ele>12.0</ele><time>2026-05-01T08:08:10.37Z</time></trkpt><trkpt lat="41.3899161" lon="13.0479515"><ele>12.0</ele><time>2026-05-01T08:08:12.37Z</time></trkpt><trkpt lat="41.3899824" lon="13.0478663"><ele>12.0</ele><time>2026-05-01T08:08:14.37Z</time></trkpt><trkpt lat="41.390043" lon="13.0477894"><ele>12.0</ele><time>2026-05-01T08:08:16.37Z</time></trkpt><trkpt lat="41.3901035" lon="13.0477092"><ele>12.0</ele><time>2026-05-01T08:08:18.37Z</time></trkpt><trkpt lat="41.3901656" lon="13.0476259"><ele>12.0</ele><time>2026-05-01T08:08:20.37Z</time></trkpt><trkpt lat="41.3902235" lon="13.0475535"><ele>12.0</ele><time>2026-05-01T08:08:22.369Z</time></trkpt><trkpt lat="41.3902842" lon="13.0474748"><ele>12.166666666666666</ele><time>2026-05-01T08:08:24.37Z</time></trkpt><trkpt lat="41.3903432" lon="13.0473851"><ele>12.333333333333332</ele><time>2026-05-01T08:08:26.37Z</time></trkpt><trkpt lat="41.3904052" lon="13.0473065"><ele>12.5</ele><time>2026-05-01T08:08:28.37Z</time></trkpt><trkpt lat="41.3904737" lon="13.0472196"><ele>12.666666666666666</ele><time>2026-05-01T08:08:30.37Z</time></trkpt><trkpt lat="41.3905343" lon="13.047138"><ele>12.833333333333332</ele><time>2026-05-01T08:08:32.37Z</time></trkpt><trkpt lat="41.3905989" lon="13.0470559"><ele>13.0</ele><time>2026-05-01T08:08:34.37Z</time></trkpt><trkpt lat="41.3906613" lon="13.0469721"><ele>12.999999999999998</ele><time>2026-05-01T08:08:36.37Z</time></trkpt><trkpt lat="41.3907198" lon="13.0468845"><ele>13.0</ele><time>2026-05-01T08:08:38.37Z</time></trkpt><trkpt lat="41.3907853" lon="13.0468041"><ele>13.0</ele><time>2026-05-01T08:08:40.369Z</time></trkpt><trkpt lat="41.3908482" lon="13.0467186"><ele>13.0</ele><time>2026-05-01T08:08:42.37Z</time></trkpt><trkpt lat="41.3909121" lon="13.0466337"><ele>12.999999999999998</ele><time>2026-05-01T08:08:44.37Z</time></trkpt><trkpt lat="41.3909738" lon="13.0465485"><ele>13.0</ele><time>2026-05-01T08:08:46.37Z</time></trkpt><trkpt lat="41.3910398" lon="13.0464701"><ele>12.666666666666666</ele><time>2026-05-01T08:08:48.369Z</time></trkpt><trkpt lat="41.3911005" lon="13.0463752"><ele>12.333333333333332</ele><time>2026-05-01T08:08:50.37Z</time></trkpt><trkpt lat="41.3911674" lon="13.0462938"><ele>12.0</ele><time>2026-05-01T08:08:52.37Z</time></trkpt><trkpt lat="41.3912337" lon="13.046209"><ele>11.666666666666666</ele><time>2026-05-01T08:08:54.369Z</time></trkpt><trkpt lat="41.3912936" lon="13.0461236"><ele>11.333333333333332</ele><time>2026-05-01T08:08:56.37Z</time></trkpt><trkpt lat="41.3913549" lon="13.046045"><ele>11.0</ele><time>2026-05-01T08:08:58.37Z</time></trkpt><trkpt lat="41.391429" lon="13.0459627"><ele>11.0</ele><time>2026-05-01T08:09:00.369Z</time></trkpt><trkpt lat="41.3914918" lon="13.0458772"><ele>11.0</ele><time>2026-05-01T08:09:02.369Z</time></trkpt><trkpt lat="41.3915595" lon="13.045792"><ele>11.0</ele><time>2026-05-01T08:09:04.369Z</time></trkpt><trkpt lat="41.3916292" lon="13.0457119"><ele>11.0</ele><time>2026-05-01T08:09:06.37Z</time></trkpt><trkpt lat="41.3916934" lon="13.0456214"><ele>11.0</ele><time>2026-05-01T08:09:08.369Z</time></trkpt><trkpt lat="41.3917573" lon="13.0455396"><ele>11.142857142857142</ele><time>2026-05-01T08:09:10.369Z</time></trkpt><trkpt lat="41.3918152" lon="13.0454568"><ele>11.285714285714285</ele><time>2026-05-01T08:09:12.37Z</time></trkpt><trkpt lat="41.3918714" lon="13.0453853"><ele>11.428571428571427</ele><time>2026-05-01T08:09:14.369Z</time></trkpt><trkpt lat="41.3919281" lon="13.0453137"><ele>11.571428571428571</ele><time>2026-05-01T08:09:16.37Z</time></trkpt><trkpt lat="41.3919746" lon="13.0452446"><ele>11.714285714285714</ele><time>2026-05-01T08:09:18.369Z</time></trkpt><trkpt lat="41.3920221" lon="13.0451796"><ele>11.857142857142856</ele><time>2026-05-01T08:09:20.37Z</time></trkpt><trkpt lat="41.3920697" lon="13.0451233"><ele>12.0</ele><time>2026-05-01T08:09:22.37Z</time></trkpt><trkpt lat="41.3921228" lon="13.0450601"><ele>12.0</ele><time>2026-05-01T08:09:24.369Z</time></trkpt><trkpt lat="41.3921768" lon="13.0449879"><ele>12.0</ele><time>2026-05-01T08:09:26.37Z</time></trkpt><trkpt lat="41.3922332" lon="13.0449115"><ele>12.0</ele><time>2026-05-01T08:09:28.369Z</time></trkpt><trkpt lat="41.3922945" lon="13.0448391"><ele>12.0</ele><time>2026-05-01T08:09:30.37Z</time></trkpt><trkpt lat="41.3923561" lon="13.0447567"><ele>12.0</ele><time>2026-05-01T08:09:32.37Z</time></trkpt><trkpt lat="41.3924189" lon="13.0446728"><ele>12.0</ele><time>2026-05-01T08:09:34.37Z</time></trkpt><trkpt lat="41.3924813" lon="13.0445848"><ele>12.0</ele><time>2026-05-01T08:09:36.37Z</time></trkpt><trkpt lat="41.3925474" lon="13.0445086"><ele>12.0</ele><time>2026-05-01T08:09:38.369Z</time></trkpt><trkpt lat="41.3926117" lon="13.0444224"><ele>12.0</ele><time>2026-05-01T08:09:40.37Z</time></trkpt><trkpt lat="41.3926698" lon="13.044339"><ele>12.0</ele><time>2026-05-01T08:09:42.37Z</time></trkpt><trkpt lat="41.3927291" lon="13.0442572"><ele>12.0</ele><time>2026-05-01T08:09:44.37Z</time></trkpt><trkpt lat="41.3927918" lon="13.0441761"><ele>12.0</ele><time>2026-05-01T08:09:46.37Z</time></trkpt><trkpt lat="41.3928582" lon="13.0440967"><ele>12.0</ele><time>2026-05-01T08:09:48.37Z</time></trkpt><trkpt lat="41.3929186" lon="13.0440139"><ele>12.0</ele><time>2026-05-01T08:09:50.369Z</time></trkpt><trkpt lat="41.39298" lon="13.0439344"><ele>12.0</ele><time>2026-05-01T08:09:52.37Z</time></trkpt><trkpt lat="41.3930385" lon="13.0438538"><ele>12.0</ele><time>2026-05-01T08:09:54.369Z</time></trkpt><trkpt lat="41.3930997" lon="13.0437748"><ele>12.0</ele><time>2026-05-01T08:09:56.37Z</time></trkpt><trkpt lat="41.3931645" lon="13.0437007"><ele>12.0</ele><time>2026-05-01T08:09:58.37Z</time></trkpt><trkpt lat="41.3932216" lon="13.0436231"><ele>12.0</ele><time>2026-05-01T08:10:00.37Z</time></trkpt><trkpt lat="41.3932878" lon="13.0435464"><ele>12.0</ele><time>2026-05-01T08:10:02.37Z</time></trkpt><trkpt lat="41.3933506" lon="13.043459"><ele>12.0</ele><time>2026-05-01T08:10:04.37Z</time></trkpt><trkpt lat="41.3934152" lon="13.0433718"><ele>12.0</ele><time>2026-05-01T08:10:06.37Z</time></trkpt><trkpt lat="41.3934777" lon="13.0432892"><ele>12.0</ele><time>2026-05-01T08:10:08.369Z</time></trkpt><trkpt lat="41.3935368" lon="13.0432102"><ele>12.0</ele><time>2026-05-01T08:10:10.37Z</time></trkpt><trkpt lat="41.3936001" lon="13.0431282"><ele>12.0</ele><time>2026-05-01T08:10:12.37Z</time></trkpt><trkpt lat="41.3936621" lon="13.0430547"><ele>12.0</ele><time>2026-05-01T08:10:14.37Z</time></trkpt><trkpt lat="41.393723" lon="13.0429695"><ele>12.0</ele><time>2026-05-01T08:10:16.369Z</time></trkpt><trkpt lat="41.3937811" lon="13.0428867"><ele>12.0</ele><time>2026-05-01T08:10:18.37Z</time></trkpt><trkpt lat="41.3938461" lon="13.0428103"><ele>12.0</ele><time>2026-05-01T08:10:20.37Z</time></trkpt><trkpt lat="41.3939092" lon="13.0427242"><ele>12.0</ele><time>2026-05-01T08:10:22.369Z</time></trkpt><trkpt lat="41.3939717" lon="13.0426401"><ele>12.2</ele><time>2026-05-01T08:10:24.369Z</time></trkpt><trkpt lat="41.3940351" lon="13.0425644"><ele>12.399999999999999</ele><time>2026-05-01T08:10:26.37Z</time></trkpt><trkpt lat="41.3940998" lon="13.0424785"><ele>12.600000000000001</ele><time>2026-05-01T08:10:28.37Z</time></trkpt><trkpt lat="41.3941615" lon="13.042392"><ele>12.8</ele><time>2026-05-01T08:10:30.37Z</time></trkpt><trkpt lat="41.3942273" lon="13.0423081"><ele>13.0</ele><time>2026-05-01T08:10:32.37Z</time></trkpt><trkpt lat="41.3942958" lon="13.0422245"><ele>12.999999999999998</ele><time>2026-05-01T08:10:34.369Z</time></trkpt><trkpt lat="41.3943575" lon="13.0421393"><ele>13.0</ele><time>2026-05-01T08:10:36.369Z</time></trkpt><trkpt lat="41.3944238" lon="13.0420551"><ele>13.0</ele><time>2026-05-01T08:10:38.37Z</time></trkpt><trkpt lat="41.3944863" lon="13.041974"><ele>13.0</ele><time>2026-05-01T08:10:40.37Z</time></trkpt><trkpt lat="41.3945435" lon="13.0418923"><ele>12.999999999999998</ele><time>2026-05-01T08:10:42.37Z</time></trkpt><trkpt lat="41.3946079" lon="13.0418127"><ele>13.0</ele><time>2026-05-01T08:10:44.37Z</time></trkpt><trkpt lat="41.3946699" lon="13.0417301"><ele>12.999999999999998</ele><time>2026-05-01T08:10:46.369Z</time></trkpt><trkpt lat="41.3947324" lon="13.0416461"><ele>13.0</ele><time>2026-05-01T08:10:48.369Z</time></trkpt><trkpt lat="41.394793" lon="13.0415704"><ele>13.0</ele><time>2026-05-01T08:10:50.37Z</time></trkpt><trkpt lat="41.3948541" lon="13.0414854"><ele>13.0</ele><time>2026-05-01T08:10:52.37Z</time></trkpt><trkpt lat="41.3949163" lon="13.0414104"><ele>12.999999999999998</ele><time>2026-05-01T08:10:54.369Z</time></trkpt><trkpt lat="41.3949748" lon="13.0413271"><ele>13.0</ele><time>2026-05-01T08:10:56.369Z</time></trkpt><trkpt lat="41.3950373" lon="13.0412524"><ele>12.999999999999998</ele><time>2026-05-01T08:10:58.37Z</time></trkpt><trkpt lat="41.3951008" lon="13.0411669"><ele>13.0</ele><time>2026-05-01T08:11:00.369Z</time></trkpt><trkpt lat="41.3951688" lon="13.0410969"><ele>13.0</ele><time>2026-05-01T08:11:02.37Z</time></trkpt><trkpt lat="41.3952242" lon="13.0410158"><ele>13.0</ele><time>2026-05-01T08:11:04.37Z</time></trkpt><trkpt lat="41.3952812" lon="13.0409377"><ele>12.999999999999998</ele><time>2026-05-01T08:11:06.37Z</time></trkpt><trkpt lat="41.3953385" lon="13.0408639"><ele>13.0</ele><time>2026-05-01T08:11:08.369Z</time></trkpt><trkpt lat="41.3953904" lon="13.040786"><ele>12.999999999999998</ele><time>2026-05-01T08:11:10.37Z</time></trkpt><trkpt lat="41.3954535" lon="13.0407059"><ele>13.0</ele><time>2026-05-01T08:11:12.37Z</time></trkpt><trkpt lat="41.3955145" lon="13.0406354"><ele>13.0</ele><time>2026-05-01T08:11:14.37Z</time></trkpt><trkpt lat="41.3955729" lon="13.040565"><ele>13.0</ele><time>2026-05-01T08:11:16.37Z</time></trkpt><trkpt lat="41.395628" lon="13.0404816"><ele>12.999999999999998</ele><time>2026-05-01T08:11:18.37Z</time></trkpt><trkpt lat="41.3956922" lon="13.0404038"><ele>13.0</ele><time>2026-05-01T08:11:20.37Z</time></trkpt><trkpt lat="41.3957559" lon="13.0403278"><ele>13.166666666666666</ele><time>2026-05-01T08:11:22.37Z</time></trkpt><trkpt lat="41.3958145" lon="13.0402536"><ele>13.333333333333332</ele><time>2026-05-01T08:11:24.37Z</time></trkpt><trkpt lat="41.3958712" lon="13.0401742"><ele>13.5</ele><time>2026-05-01T08:11:26.37Z</time></trkpt><trkpt lat="41.3959246" lon="13.0400943"><ele>13.666666666666668</ele><time>2026-05-01T08:11:28.369Z</time></trkpt><trkpt lat="41.3959735" lon="13.0400169"><ele>13.833333333333334</ele><time>2026-05-01T08:11:30.369Z</time></trkpt><trkpt lat="41.396025" lon="13.0399306"><ele>14.0</ele><time>2026-05-01T08:11:32.37Z</time></trkpt><trkpt lat="41.3960772" lon="13.0398438"><ele>14.000000000000002</ele><time>2026-05-01T08:11:34.37Z</time></trkpt><trkpt lat="41.3961297" lon="13.039755"><ele>14.0</ele><time>2026-05-01T08:11:36.37Z</time></trkpt><trkpt lat="41.396186" lon="13.0396636"><ele>14.0</ele><time>2026-05-01T08:11:38.37Z</time></trkpt><trkpt lat="41.3962413" lon="13.0395824"><ele>14.0</ele><time>2026-05-01T08:11:40.369Z</time></trkpt><trkpt lat="41.3962958" lon="13.0394948"><ele>14.000000000000002</ele><time>2026-05-01T08:11:42.37Z</time></trkpt><trkpt lat="41.3963499" lon="13.0394037"><ele>14.0</ele><time>2026-05-01T08:11:44.369Z</time></trkpt><trkpt lat="41.396395" lon="13.0393126"><ele>14.333333333333334</ele><time>2026-05-01T08:11:46.37Z</time></trkpt><trkpt lat="41.3964479" lon="13.0392214"><ele>14.666666666666668</ele><time>2026-05-01T08:11:48.37Z</time></trkpt><trkpt lat="41.3965069" lon="13.0391265"><ele>15.0</ele><time>2026-05-01T08:11:50.37Z</time></trkpt><trkpt lat="41.3965633" lon="13.0390363"><ele>15.333333333333332</ele><time>2026-05-01T08:11:52.37Z</time></trkpt><trkpt lat="41.3966192" lon="13.0389426"><ele>15.666666666666666</ele><time>2026-05-01T08:11:54.37Z</time></trkpt><trkpt lat="41.3966726" lon="13.0388543"><ele>16.0</ele><time>2026-05-01T08:11:56.37Z</time></trkpt><trkpt lat="41.3967262" lon="13.0387696"><ele>15.999999999999998</ele><time>2026-05-01T08:11:58.37Z</time></trkpt><trkpt lat="41.3967792" lon="13.0386745"><ele>16.0</ele><time>2026-05-01T08:12:00.37Z</time></trkpt><trkpt lat="41.3968357" lon="13.0385831"><ele>16.0</ele><time>2026-05-01T08:12:02.37Z</time></trkpt><trkpt lat="41.3968907" lon="13.0384807"><ele>16.0</ele><time>2026-05-01T08:12:04.37Z</time></trkpt><trkpt lat="41.3969481" lon="13.0383957"><ele>15.999999999999998</ele><time>2026-05-01T08:12:06.369Z</time></trkpt><trkpt lat="41.3970036" lon="13.0383008"><ele>16.0</ele><time>2026-05-01T08:12:08.37Z</time></trkpt><trkpt lat="41.3970595" lon="13.0382049"><ele>16.166666666666664</ele><time>2026-05-01T08:12:10.37Z</time></trkpt><trkpt lat="41.3971137" lon="13.038111"><ele>16.333333333333332</ele><time>2026-05-01T08:12:12.37Z</time></trkpt><trkpt lat="41.3971697" lon="13.0380166"><ele>16.5</ele><time>2026-05-01T08:12:14.37Z</time></trkpt><trkpt lat="41.3972224" lon="13.0379312"><ele>16.666666666666668</ele><time>2026-05-01T08:12:16.37Z</time></trkpt><trkpt lat="41.397275" lon="13.0378506"><ele>16.833333333333336</ele><time>2026-05-01T08:12:18.369Z</time></trkpt><trkpt lat="41.3973256" lon="13.0377754"><ele>17.0</ele><time>2026-05-01T08:12:20.37Z</time></trkpt><trkpt lat="41.3973656" lon="13.0376968"><ele>17.0</ele><time>2026-05-01T08:12:22.369Z</time></trkpt><trkpt lat="41.3974104" lon="13.0376203"><ele>17.0</ele><time>2026-05-01T08:12:24.369Z</time></trkpt><trkpt lat="41.3974556" lon="13.0375362"><ele>17.0</ele><time>2026-05-01T08:12:26.37Z</time></trkpt><trkpt lat="41.3975082" lon="13.0374551"><ele>17.0</ele><time>2026-05-01T08:12:28.37Z</time></trkpt><trkpt lat="41.3975571" lon="13.0373687"><ele>17.0</ele><time>2026-05-01T08:12:30.37Z</time></trkpt><trkpt lat="41.397602" lon="13.037287"><ele>17.0</ele><time>2026-05-01T08:12:32.37Z</time></trkpt><trkpt lat="41.3976569" lon="13.0372122"><ele>17.166666666666668</ele><time>2026-05-01T08:12:34.37Z</time></trkpt><trkpt lat="41.3977238" lon="13.0371637"><ele>17.333333333333336</ele><time>2026-05-01T08:12:39.369Z</time></trkpt><trkpt lat="41.397815" lon="13.0371456"><ele>17.5</ele><time>2026-05-01T08:12:42.37Z</time></trkpt><trkpt lat="41.3978901" lon="13.0371694"><ele>17.666666666666668</ele><time>2026-05-01T08:12:44.37Z</time></trkpt><trkpt lat="41.3979608" lon="13.0372112"><ele>17.833333333333332</ele><time>2026-05-01T08:12:46.369Z</time></trkpt><trkpt lat="41.398034" lon="13.0372512"><ele>18.0</ele><time>2026-05-01T08:12:48.369Z</time></trkpt><trkpt lat="41.3981144" lon="13.0372926"><ele>17.666666666666668</ele><time>2026-05-01T08:12:50.37Z</time></trkpt><trkpt lat="41.3981965" lon="13.0373389"><ele>17.333333333333332</ele><time>2026-05-01T08:12:52.37Z</time></trkpt><trkpt lat="41.3982759" lon="13.0373872"><ele>17.0</ele><time>2026-05-01T08:12:54.37Z</time></trkpt><trkpt lat="41.3983565" lon="13.0374344"><ele>16.666666666666664</ele><time>2026-05-01T08:12:56.37Z</time></trkpt><trkpt lat="41.3984361" lon="13.0374707"><ele>16.333333333333332</ele><time>2026-05-01T08:12:58.37Z</time></trkpt><trkpt lat="41.39851" lon="13.0375077"><ele>16.0</ele><time>2026-05-01T08:13:00.37Z</time></trkpt><trkpt lat="41.398586" lon="13.0375517"><ele>15.833333333333332</ele><time>2026-05-01T08:13:02.37Z</time></trkpt><trkpt lat="41.3986614" lon="13.0375962"><ele>15.666666666666666</ele><time>2026-05-01T08:13:04.369Z</time></trkpt><trkpt lat="41.3987379" lon="13.0376475"><ele>15.5</ele><time>2026-05-01T08:13:06.37Z</time></trkpt><trkpt lat="41.3988163" lon="13.0376926"><ele>15.333333333333332</ele><time>2026-05-01T08:13:08.37Z</time></trkpt><trkpt lat="41.3988922" lon="13.0377379"><ele>15.166666666666666</ele><time>2026-05-01T08:13:10.37Z</time></trkpt><trkpt lat="41.3989749" lon="13.037778"><ele>15.0</ele><time>2026-05-01T08:13:12.37Z</time></trkpt><trkpt lat="41.3990666" lon="13.037833"><ele>14.4</ele><time>2026-05-01T08:13:14.37Z</time></trkpt><trkpt lat="41.3991507" lon="13.0378858"><ele>13.8</ele><time>2026-05-01T08:13:16.369Z</time></trkpt><trkpt lat="41.3992316" lon="13.037932"><ele>13.2</ele><time>2026-05-01T08:13:18.37Z</time></trkpt><trkpt lat="41.3993128" lon="13.0379818"><ele>12.6</ele><time>2026-05-01T08:13:20.37Z</time></trkpt><trkpt lat="41.3993983" lon="13.0380257"><ele>12.0</ele><time>2026-05-01T08:13:22.369Z</time></trkpt><trkpt lat="41.3994805" lon="13.0380664"><ele>12.0</ele><time>2026-05-01T08:13:24.37Z</time></trkpt><trkpt lat="41.3995558" lon="13.0381128"><ele>12.0</ele><time>2026-05-01T08:13:26.37Z</time></trkpt><trkpt lat="41.399639" lon="13.0381721"><ele>12.0</ele><time>2026-05-01T08:13:28.37Z</time></trkpt><trkpt lat="41.3997248" lon="13.0382191"><ele>12.0</ele><time>2026-05-01T08:13:30.37Z</time></trkpt><trkpt lat="41.3998134" lon="13.0382673"><ele>12.0</ele><time>2026-05-01T08:13:32.369Z</time></trkpt><trkpt lat="41.3998995" lon="13.0383094"><ele>11.833333333333334</ele><time>2026-05-01T08:13:34.37Z</time></trkpt><trkpt lat="41.3999821" lon="13.0383564"><ele>11.666666666666666</ele><time>2026-05-01T08:13:36.37Z</time></trkpt><trkpt lat="41.4000685" lon="13.0384045"><ele>11.5</ele><time>2026-05-01T08:13:38.37Z</time></trkpt><trkpt lat="41.4001578" lon="13.0384414"><ele>11.333333333333332</ele><time>2026-05-01T08:13:40.37Z</time></trkpt><trkpt lat="41.4002374" lon="13.0385"><ele>11.166666666666666</ele><time>2026-05-01T08:13:42.37Z</time></trkpt><trkpt lat="41.4003071" lon="13.0385556"><ele>11.0</ele><time>2026-05-01T08:13:44.369Z</time></trkpt><trkpt lat="41.4003744" lon="13.038598"><ele>11.0</ele><time>2026-05-01T08:13:46.37Z</time></trkpt><trkpt lat="41.4004431" lon="13.0386494"><ele>11.0</ele><time>2026-05-01T08:13:48.37Z</time></trkpt><trkpt lat="41.4005056" lon="13.0387035"><ele>11.0</ele><time>2026-05-01T08:13:50.37Z</time></trkpt><trkpt lat="41.400565" lon="13.0387498"><ele>11.0</ele><time>2026-05-01T08:13:52.37Z</time></trkpt><trkpt lat="41.4006254" lon="13.038804"><ele>11.0</ele><time>2026-05-01T08:13:54.37Z</time></trkpt><trkpt lat="41.4006926" lon="13.0388547"><ele>11.0</ele><time>2026-05-01T08:13:56.369Z</time></trkpt><trkpt lat="41.4007607" lon="13.038916"><ele>10.8</ele><time>2026-05-01T08:13:58.368Z</time></trkpt><trkpt lat="41.4008302" lon="13.0389787"><ele>10.600000000000001</ele><time>2026-05-01T08:14:00.369Z</time></trkpt><trkpt lat="41.4009017" lon="13.0390548"><ele>10.4</ele><time>2026-05-01T08:14:02.369Z</time></trkpt><trkpt lat="41.4009782" lon="13.0391342"><ele>10.2</ele><time>2026-05-01T08:14:04.369Z</time></trkpt><trkpt lat="41.4010502" lon="13.0392106"><ele>10.0</ele><time>2026-05-01T08:14:06.369Z</time></trkpt><trkpt lat="41.401122" lon="13.0392832"><ele>10.0</ele><time>2026-05-01T08:14:08.368Z</time></trkpt><trkpt lat="41.4011924" lon="13.0393613"><ele>10.0</ele><time>2026-05-01T08:14:10.369Z</time></trkpt><trkpt lat="41.4012644" lon="13.0394471"><ele>10.0</ele><time>2026-05-01T08:14:12.369Z</time></trkpt><trkpt lat="41.4013347" lon="13.039529"><ele>10.0</ele><time>2026-05-01T08:14:14.369Z</time></trkpt><trkpt lat="41.4014029" lon="13.0396019"><ele>10.0</ele><time>2026-05-01T08:14:16.369Z</time></trkpt><trkpt lat="41.401469" lon="13.0396776"><ele>10.0</ele><time>2026-05-01T08:14:18.369Z</time></trkpt><trkpt lat="41.4015318" lon="13.0397598"><ele>10.0</ele><time>2026-05-01T08:14:20.368Z</time></trkpt><trkpt lat="41.4015986" lon="13.0398469"><ele>10.0</ele><time>2026-05-01T08:14:22.369Z</time></trkpt><trkpt lat="41.4016612" lon="13.0399349"><ele>10.0</ele><time>2026-05-01T08:14:24.369Z</time></trkpt><trkpt lat="41.4017264" lon="13.040024"><ele>10.0</ele><time>2026-05-01T08:14:26.369Z</time></trkpt><trkpt lat="41.4017919" lon="13.040115"><ele>10.2</ele><time>2026-05-01T08:14:28.369Z</time></trkpt><trkpt lat="41.401847" lon="13.0402057"><ele>10.4</ele><time>2026-05-01T08:14:30.369Z</time></trkpt><trkpt lat="41.4019117" lon="13.0402878"><ele>10.600000000000001</ele><time>2026-05-01T08:14:32.369Z</time></trkpt><trkpt lat="41.4019827" lon="13.0403792"><ele>10.8</ele><time>2026-05-01T08:14:34.369Z</time></trkpt><trkpt lat="41.402048" lon="13.0404634"><ele>11.0</ele><time>2026-05-01T08:14:36.368Z</time></trkpt><trkpt lat="41.4021094" lon="13.0405555"><ele>10.8</ele><time>2026-05-01T08:14:38.369Z</time></trkpt><trkpt lat="41.402176" lon="13.0406423"><ele>10.600000000000001</ele><time>2026-05-01T08:14:40.369Z</time></trkpt><trkpt lat="41.4022398" lon="13.0407307"><ele>10.4</ele><time>2026-05-01T08:14:42.369Z</time></trkpt><trkpt lat="41.402306" lon="13.0408221"><ele>10.2</ele><time>2026-05-01T08:14:44.369Z</time></trkpt><trkpt lat="41.4023666" lon="13.0409087"><ele>10.0</ele><time>2026-05-01T08:14:46.368Z</time></trkpt><trkpt lat="41.4024303" lon="13.0409951"><ele>9.8</ele><time>2026-05-01T08:14:48.369Z</time></trkpt><trkpt lat="41.4024949" lon="13.041088"><ele>9.6</ele><time>2026-05-01T08:14:50.369Z</time></trkpt><trkpt lat="41.402558" lon="13.0411778"><ele>9.4</ele><time>2026-05-01T08:14:52.368Z</time></trkpt><trkpt lat="41.4026229" lon="13.0412701"><ele>9.2</ele><time>2026-05-01T08:14:54.368Z</time></trkpt><trkpt lat="41.4026853" lon="13.0413608"><ele>9.0</ele><time>2026-05-01T08:14:56.369Z</time></trkpt><trkpt lat="41.4027502" lon="13.0414482"><ele>9.0</ele><time>2026-05-01T08:14:58.369Z</time></trkpt><trkpt lat="41.4028162" lon="13.0415385"><ele>9.0</ele><time>2026-05-01T08:15:00.369Z</time></trkpt><trkpt lat="41.4028822" lon="13.0416284"><ele>9.0</ele><time>2026-05-01T08:15:02.369Z</time></trkpt><trkpt lat="41.4029484" lon="13.0417244"><ele>9.0</ele><time>2026-05-01T08:15:04.369Z</time></trkpt><trkpt lat="41.4030148" lon="13.0418118"><ele>9.0</ele><time>2026-05-01T08:15:06.369Z</time></trkpt><trkpt lat="41.4030826" lon="13.0418965"><ele>8.8</ele><time>2026-05-01T08:15:08.369Z</time></trkpt><trkpt lat="41.4031443" lon="13.0419864"><ele>8.600000000000001</ele><time>2026-05-01T08:15:10.369Z</time></trkpt><trkpt lat="41.4032123" lon="13.0420718"><ele>8.4</ele><time>2026-05-01T08:15:12.368Z</time></trkpt><trkpt lat="41.4032753" lon="13.042157"><ele>8.200000000000001</ele><time>2026-05-01T08:15:14.368Z</time></trkpt><trkpt lat="41.4033418" lon="13.0422432"><ele>8.0</ele><time>2026-05-01T08:15:16.368Z</time></trkpt><trkpt lat="41.4034065" lon="13.0423327"><ele>7.999999999999999</ele><time>2026-05-01T08:15:18.369Z</time></trkpt><trkpt lat="41.4034721" lon="13.0424201"><ele>8.0</ele><time>2026-05-01T08:15:20.369Z</time></trkpt><trkpt lat="41.4035349" lon="13.0425074"><ele>8.0</ele><time>2026-05-01T08:15:22.369Z</time></trkpt><trkpt lat="41.4035869" lon="13.0425993"><ele>8.0</ele><time>2026-05-01T08:15:24.369Z</time></trkpt><trkpt lat="41.4036487" lon="13.0426852"><ele>7.999999999999999</ele><time>2026-05-01T08:15:26.369Z</time></trkpt><trkpt lat="41.4037098" lon="13.0427639"><ele>8.0</ele><time>2026-05-01T08:15:28.369Z</time></trkpt><trkpt lat="41.4037747" lon="13.0428512"><ele>7.666666666666666</ele><time>2026-05-01T08:15:30.368Z</time></trkpt><trkpt lat="41.4038382" lon="13.0429316"><ele>7.333333333333333</ele><time>2026-05-01T08:15:32.369Z</time></trkpt><trkpt lat="41.4039006" lon="13.043015"><ele>7.0</ele><time>2026-05-01T08:15:34.369Z</time></trkpt><trkpt lat="41.4039627" lon="13.043096"><ele>6.666666666666666</ele><time>2026-05-01T08:15:36.369Z</time></trkpt><trkpt lat="41.4040257" lon="13.0431822"><ele>6.333333333333333</ele><time>2026-05-01T08:15:38.369Z</time></trkpt><trkpt lat="41.4040912" lon="13.0432638"><ele>6.0</ele><time>2026-05-01T08:15:40.368Z</time></trkpt><trkpt lat="41.4041516" lon="13.0433512"><ele>6.0</ele><time>2026-05-01T08:15:42.369Z</time></trkpt><trkpt lat="41.40421" lon="13.0434363"><ele>6.0</ele><time>2026-05-01T08:15:44.369Z</time></trkpt><trkpt lat="41.4042686" lon="13.0435229"><ele>6.0</ele><time>2026-05-01T08:15:46.368Z</time></trkpt><trkpt lat="41.4043214" lon="13.0435976"><ele>6.0</ele><time>2026-05-01T08:15:48.369Z</time></trkpt><trkpt lat="41.4043688" lon="13.0436779"><ele>6.0</ele><time>2026-05-01T08:15:50.369Z</time></trkpt><trkpt lat="41.4044203" lon="13.0437614"><ele>6.0</ele><time>2026-05-01T08:15:52.369Z</time></trkpt><trkpt lat="41.4044739" lon="13.0438487"><ele>6.0</ele><time>2026-05-01T08:15:54.368Z</time></trkpt><trkpt lat="41.4045401" lon="13.0439273"><ele>6.0</ele><time>2026-05-01T08:15:56.369Z</time></trkpt><trkpt lat="41.4046139" lon="13.0439892"><ele>6.0</ele><time>2026-05-01T08:15:58.368Z</time></trkpt><trkpt lat="41.4047045" lon="13.0439584"><ele>6.0</ele><time>2026-05-01T08:16:00.368Z</time></trkpt><trkpt lat="41.4047841" lon="13.0438967"><ele>6.0</ele><time>2026-05-01T08:16:02.369Z</time></trkpt><trkpt lat="41.404864" lon="13.0438299"><ele>6.166666666666667</ele><time>2026-05-01T08:16:04.369Z</time></trkpt><trkpt lat="41.4049476" lon="13.0437807"><ele>6.333333333333334</ele><time>2026-05-01T08:16:06.369Z</time></trkpt><trkpt lat="41.4050237" lon="13.0437372"><ele>6.5</ele><time>2026-05-01T08:16:08.368Z</time></trkpt><trkpt lat="41.4051047" lon="13.0437059"><ele>6.666666666666667</ele><time>2026-05-01T08:16:10.369Z</time></trkpt><trkpt lat="41.4051876" lon="13.0436621"><ele>6.833333333333334</ele><time>2026-05-01T08:16:12.369Z</time></trkpt><trkpt lat="41.4052678" lon="13.0436148"><ele>7.0</ele><time>2026-05-01T08:16:14.368Z</time></trkpt><trkpt lat="41.4053462" lon="13.0435637"><ele>7.000000000000001</ele><time>2026-05-01T08:16:16.369Z</time></trkpt><trkpt lat="41.4054259" lon="13.0435177"><ele>7.0</ele><time>2026-05-01T08:16:18.369Z</time></trkpt><trkpt lat="41.405507" lon="13.0434741"><ele>7.0</ele><time>2026-05-01T08:16:20.369Z</time></trkpt><trkpt lat="41.4055862" lon="13.0434213"><ele>7.0</ele><time>2026-05-01T08:16:22.368Z</time></trkpt><trkpt lat="41.4056685" lon="13.043378"><ele>7.000000000000001</ele><time>2026-05-01T08:16:24.369Z</time></trkpt><trkpt lat="41.4057434" lon="13.0433234"><ele>7.0</ele><time>2026-05-01T08:16:26.369Z</time></trkpt><trkpt lat="41.4058276" lon="13.0432794"><ele>7.000000000000001</ele><time>2026-05-01T08:16:28.369Z</time></trkpt><trkpt lat="41.4059033" lon="13.0432388"><ele>7.0</ele><time>2026-05-01T08:16:30.369Z</time></trkpt><trkpt lat="41.4059936" lon="13.0431962"><ele>7.0</ele><time>2026-05-01T08:16:32.368Z</time></trkpt><trkpt lat="41.4060796" lon="13.0431618"><ele>7.0</ele><time>2026-05-01T08:16:34.369Z</time></trkpt><trkpt lat="41.4061626" lon="13.0431333"><ele>7.000000000000001</ele><time>2026-05-01T08:16:36.369Z</time></trkpt><trkpt lat="41.4062494" lon="13.0431063"><ele>7.0</ele><time>2026-05-01T08:16:38.369Z</time></trkpt><trkpt lat="41.4063342" lon="13.0430758"><ele>7.0</ele><time>2026-05-01T08:16:40.369Z</time></trkpt><trkpt lat="41.4064232" lon="13.0430614"><ele>6.999999999999999</ele><time>2026-05-01T08:16:42.369Z</time></trkpt><trkpt lat="41.4065126" lon="13.0430407"><ele>6.999999999999999</ele><time>2026-05-01T08:16:44.369Z</time></trkpt><trkpt lat="41.4065922" lon="13.0430068"><ele>7.0</ele><time>2026-05-01T08:16:46.369Z</time></trkpt><trkpt lat="41.406683" lon="13.0429842"><ele>7.0</ele><time>2026-05-01T08:16:48.368Z</time></trkpt><trkpt lat="41.4067798" lon="13.0429678"><ele>7.000000000000001</ele><time>2026-05-01T08:16:50.369Z</time></trkpt><trkpt lat="41.4068597" lon="13.042937"><ele>7.0</ele><time>2026-05-01T08:16:52.368Z</time></trkpt><trkpt lat="41.4069387" lon="13.0429233"><ele>7.0</ele><time>2026-05-01T08:16:54.369Z</time></trkpt><trkpt lat="41.4070092" lon="13.0428968"><ele>7.0</ele><time>2026-05-01T08:16:56.368Z</time></trkpt><trkpt lat="41.4070768" lon="13.0428749"><ele>7.000000000000001</ele><time>2026-05-01T08:16:58.369Z</time></trkpt><trkpt lat="41.4071545" lon="13.0428663"><ele>7.0</ele><time>2026-05-01T08:17:00.369Z</time></trkpt><trkpt lat="41.4072393" lon="13.0428714"><ele>7.333333333333334</ele><time>2026-05-01T08:17:02.369Z</time></trkpt><trkpt lat="41.4073248" lon="13.0428604"><ele>7.666666666666667</ele><time>2026-05-01T08:17:04.369Z</time></trkpt><trkpt lat="41.4074109" lon="13.0428431"><ele>8.0</ele><time>2026-05-01T08:17:06.368Z</time></trkpt><trkpt lat="41.4075027" lon="13.0428163"><ele>8.333333333333334</ele><time>2026-05-01T08:17:08.369Z</time></trkpt><trkpt lat="41.4075923" lon="13.0428004"><ele>8.666666666666666</ele><time>2026-05-01T08:17:10.369Z</time></trkpt><trkpt lat="41.4076815" lon="13.0427846"><ele>9.0</ele><time>2026-05-01T08:17:12.369Z</time></trkpt><trkpt lat="41.4077621" lon="13.0427591"><ele>9.0</ele><time>2026-05-01T08:17:14.369Z</time></trkpt><trkpt lat="41.4078465" lon="13.0427448"><ele>9.0</ele><time>2026-05-01T08:17:16.368Z</time></trkpt><trkpt lat="41.4079308" lon="13.0427364"><ele>9.0</ele><time>2026-05-01T08:17:18.369Z</time></trkpt><trkpt lat="41.4080154" lon="13.0427117"><ele>9.0</ele><time>2026-05-01T08:17:20.368Z</time></trkpt><trkpt lat="41.4081036" lon="13.0427034"><ele>9.0</ele><time>2026-05-01T08:17:22.369Z</time></trkpt><trkpt lat="41.4081853" lon="13.0426829"><ele>9.0</ele><time>2026-05-01T08:17:24.369Z</time></trkpt><trkpt lat="41.4082641" lon="13.0426576"><ele>8.8</ele><time>2026-05-01T08:17:26.369Z</time></trkpt><trkpt lat="41.4083482" lon="13.0426409"><ele>8.600000000000001</ele><time>2026-05-01T08:17:28.368Z</time></trkpt><trkpt lat="41.4084398" lon="13.0426244"><ele>8.4</ele><time>2026-05-01T08:17:30.369Z</time></trkpt><trkpt lat="41.4085302" lon="13.042612"><ele>8.200000000000001</ele><time>2026-05-01T08:17:32.369Z</time></trkpt><trkpt lat="41.4086212" lon="13.0425947"><ele>8.0</ele><time>2026-05-01T08:17:34.368Z</time></trkpt><trkpt lat="41.4087129" lon="13.0425779"><ele>7.999999999999999</ele><time>2026-05-01T08:17:36.369Z</time></trkpt><trkpt lat="41.4088091" lon="13.0425591"><ele>8.0</ele><time>2026-05-01T08:17:38.368Z</time></trkpt><trkpt lat="41.4088874" lon="13.0425343"><ele>8.0</ele><time>2026-05-01T08:17:40.369Z</time></trkpt><trkpt lat="41.4089624" lon="13.042518"><ele>8.0</ele><time>2026-05-01T08:17:42.368Z</time></trkpt><trkpt lat="41.4090387" lon="13.0424915"><ele>7.999999999999999</ele><time>2026-05-01T08:17:44.368Z</time></trkpt><trkpt lat="41.4091248" lon="13.0424722"><ele>8.0</ele><time>2026-05-01T08:17:46.368Z</time></trkpt><trkpt lat="41.4092037" lon="13.0424474"><ele>7.999999999999999</ele><time>2026-05-01T08:17:48.369Z</time></trkpt><trkpt lat="41.4093" lon="13.0424365"><ele>8.0</ele><time>2026-05-01T08:17:50.369Z</time></trkpt><trkpt lat="41.4093972" lon="13.0424253"><ele>8.0</ele><time>2026-05-01T08:17:52.369Z</time></trkpt><trkpt lat="41.4094753" lon="13.0423988"><ele>8.0</ele><time>2026-05-01T08:17:54.369Z</time></trkpt><trkpt lat="41.4095607" lon="13.0423815"><ele>7.999999999999999</ele><time>2026-05-01T08:17:56.369Z</time></trkpt><trkpt lat="41.4096403" lon="13.0423686"><ele>8.0</ele><time>2026-05-01T08:17:58.368Z</time></trkpt><trkpt lat="41.4097292" lon="13.0423443"><ele>7.999999999999999</ele><time>2026-05-01T08:18:00.369Z</time></trkpt><trkpt lat="41.4098169" lon="13.0423171"><ele>8.0</ele><time>2026-05-01T08:18:02.369Z</time></trkpt><trkpt lat="41.4099104" lon="13.0422997"><ele>8.0</ele><time>2026-05-01T08:18:04.368Z</time></trkpt><trkpt lat="41.4099891" lon="13.0422797"><ele>8.0</ele><time>2026-05-01T08:18:06.369Z</time></trkpt><trkpt lat="41.4100787" lon="13.042276"><ele>7.999999999999999</ele><time>2026-05-01T08:18:08.369Z</time></trkpt><trkpt lat="41.4101592" lon="13.0422501"><ele>8.0</ele><time>2026-05-01T08:18:10.368Z</time></trkpt><trkpt lat="41.4102383" lon="13.0422231"><ele>7.999999999999999</ele><time>2026-05-01T08:18:12.369Z</time></trkpt><trkpt lat="41.4103181" lon="13.0422094"><ele>8.0</ele><time>2026-05-01T08:18:14.369Z</time></trkpt><trkpt lat="41.410406" lon="13.0421941"><ele>8.0</ele><time>2026-05-01T08:18:16.369Z</time></trkpt><trkpt lat="41.4105065" lon="13.0421804"><ele>8.0</ele><time>2026-05-01T08:18:18.369Z</time></trkpt><trkpt lat="41.4106041" lon="13.0421652"><ele>7.999999999999999</ele><time>2026-05-01T08:18:20.369Z</time></trkpt><trkpt lat="41.4106752" lon="13.0421408"><ele>8.0</ele><time>2026-05-01T08:18:22.368Z</time></trkpt><trkpt lat="41.4107677" lon="13.042131"><ele>7.499999999999999</ele><time>2026-05-01T08:18:24.369Z</time></trkpt><trkpt lat="41.4108672" lon="13.0421122"><ele>7.0</ele><time>2026-05-01T08:18:26.368Z</time></trkpt><trkpt lat="41.4109522" lon="13.0420936"><ele>6.5</ele><time>2026-05-01T08:18:28.369Z</time></trkpt><trkpt lat="41.4110338" lon="13.0420616"><ele>6.0</ele><time>2026-05-01T08:18:30.369Z</time></trkpt><trkpt lat="41.4111161" lon="13.0420397"><ele>5.5</ele><time>2026-05-01T08:18:32.369Z</time></trkpt><trkpt lat="41.4112079" lon="13.0420337"><ele>5.0</ele><time>2026-05-01T08:18:34.368Z</time></trkpt><trkpt lat="41.4113051" lon="13.0420208"><ele>5.4</ele><time>2026-05-01T08:18:36.369Z</time></trkpt><trkpt lat="41.4113905" lon="13.0420005"><ele>5.8</ele><time>2026-05-01T08:18:38.368Z</time></trkpt><trkpt lat="41.4114834" lon="13.0419829"><ele>6.199999999999999</ele><time>2026-05-01T08:18:40.369Z</time></trkpt><trkpt lat="41.4115752" lon="13.0419826"><ele>6.6</ele><time>2026-05-01T08:18:42.369Z</time></trkpt><trkpt lat="41.4116659" lon="13.0419758"><ele>7.0</ele><time>2026-05-01T08:18:44.369Z</time></trkpt><trkpt lat="41.4117576" lon="13.0419566"><ele>7.000000000000001</ele><time>2026-05-01T08:18:46.369Z</time></trkpt><trkpt lat="41.4118401" lon="13.0419355"><ele>7.0</ele><time>2026-05-01T08:18:48.368Z</time></trkpt><trkpt lat="41.4119295" lon="13.0419165"><ele>7.0</ele><time>2026-05-01T08:18:50.369Z</time></trkpt><trkpt lat="41.4120179" lon="13.0418999"><ele>7.0</ele><time>2026-05-01T08:18:52.369Z</time></trkpt><trkpt lat="41.4120943" lon="13.0418877"><ele>7.000000000000001</ele><time>2026-05-01T08:18:54.369Z</time></trkpt><trkpt lat="41.4121701" lon="13.0418723"><ele>7.0</ele><time>2026-05-01T08:18:56.369Z</time></trkpt><trkpt lat="41.4122541" lon="13.041859"><ele>6.833333333333334</ele><time>2026-05-01T08:18:58.369Z</time></trkpt><trkpt lat="41.4123383" lon="13.0418486"><ele>6.666666666666667</ele><time>2026-05-01T08:19:00.369Z</time></trkpt><trkpt lat="41.4124195" lon="13.0418734"><ele>6.5</ele><time>2026-05-01T08:19:02.369Z</time></trkpt><trkpt lat="41.4124984" lon="13.0419087"><ele>6.333333333333334</ele><time>2026-05-01T08:19:04.369Z</time></trkpt><trkpt lat="41.4125641" lon="13.041966"><ele>6.166666666666667</ele><time>2026-05-01T08:19:06.369Z</time></trkpt><trkpt lat="41.4126346" lon="13.0420429"><ele>6.0</ele><time>2026-05-01T08:19:08.369Z</time></trkpt><trkpt lat="41.4126951" lon="13.0421251"><ele>6.0</ele><time>2026-05-01T08:19:10.369Z</time></trkpt><trkpt lat="41.4127518" lon="13.042214"><ele>6.0</ele><time>2026-05-01T08:19:12.369Z</time></trkpt><trkpt lat="41.4128227" lon="13.0422954"><ele>6.0</ele><time>2026-05-01T08:19:14.369Z</time></trkpt><trkpt lat="41.4128888" lon="13.0423796"><ele>6.0</ele><time>2026-05-01T08:19:16.368Z</time></trkpt><trkpt lat="41.4129492" lon="13.0424577"><ele>6.0</ele><time>2026-05-01T08:19:18.369Z</time></trkpt><trkpt lat="41.4130104" lon="13.0425415"><ele>6.0</ele><time>2026-05-01T08:19:20.369Z</time></trkpt><trkpt lat="41.4130681" lon="13.0426342"><ele>6.0</ele><time>2026-05-01T08:19:22.369Z</time></trkpt><trkpt lat="41.4131312" lon="13.0427251"><ele>6.0</ele><time>2026-05-01T08:19:24.369Z</time></trkpt><trkpt lat="41.4131883" lon="13.0428014"><ele>6.0</ele><time>2026-05-01T08:19:26.368Z</time></trkpt><trkpt lat="41.4132362" lon="13.0428678"><ele>6.0</ele><time>2026-05-01T08:19:28.369Z</time></trkpt><trkpt lat="41.4132901" lon="13.0429447"><ele>6.0</ele><time>2026-05-01T08:19:30.369Z</time></trkpt><trkpt lat="41.4133428" lon="13.0430254"><ele>6.0</ele><time>2026-05-01T08:19:32.369Z</time></trkpt><trkpt lat="41.4133807" lon="13.0431297"><ele>6.0</ele><time>2026-05-01T08:19:34.369Z</time></trkpt><trkpt lat="41.4133907" lon="13.0432436"><ele>6.0</ele><time>2026-05-01T08:19:36.369Z</time></trkpt><trkpt lat="41.4133979" lon="13.0433451"><ele>6.0</ele><time>2026-05-01T08:19:38.369Z</time></trkpt><trkpt lat="41.4134115" lon="13.0434427"><ele>6.0</ele><time>2026-05-01T08:19:40.368Z</time></trkpt><trkpt lat="41.4134212" lon="13.043551"><ele>6.0</ele><time>2026-05-01T08:19:42.369Z</time></trkpt><trkpt lat="41.4134062" lon="13.0436575"><ele>6.0</ele><time>2026-05-01T08:19:44.368Z</time></trkpt><trkpt lat="41.4133446" lon="13.0437378"><ele>5.833333333333333</ele><time>2026-05-01T08:19:46.369Z</time></trkpt><trkpt lat="41.4132817" lon="13.0438101"><ele>5.666666666666667</ele><time>2026-05-01T08:19:48.369Z</time></trkpt><trkpt lat="41.413219" lon="13.0438779"><ele>5.5</ele><time>2026-05-01T08:19:50.369Z</time></trkpt><trkpt lat="41.4131572" lon="13.0439401"><ele>5.333333333333334</ele><time>2026-05-01T08:19:52.369Z</time></trkpt><trkpt lat="41.4130998" lon="13.0440125"><ele>5.166666666666667</ele><time>2026-05-01T08:19:54.369Z</time></trkpt><trkpt lat="41.4130401" lon="13.0440937"><ele>5.0</ele><time>2026-05-01T08:19:56.369Z</time></trkpt><trkpt lat="41.4129879" lon="13.0441717"><ele>5.0</ele><time>2026-05-01T08:19:58.369Z</time></trkpt><trkpt lat="41.4129404" lon="13.0442346"><ele>5.0</ele><time>2026-05-01T08:20:00.368Z</time></trkpt><trkpt lat="41.4128825" lon="13.0442892"><ele>5.0</ele><time>2026-05-01T08:20:02.369Z</time></trkpt><trkpt lat="41.4128324" lon="13.0443542"><ele>5.0</ele><time>2026-05-01T08:20:04.369Z</time></trkpt><trkpt lat="41.4127645" lon="13.0444405"><ele>5.0</ele><time>2026-05-01T08:20:07.369Z</time></trkpt><trkpt lat="41.4127014" lon="13.0445247"><ele>5.0</ele><time>2026-05-01T08:20:10.369Z</time></trkpt><trkpt lat="41.4126305" lon="13.0446099"><ele>5.0</ele><time>2026-05-01T08:20:13.369Z</time></trkpt><trkpt lat="41.412584" lon="13.0446961"><ele>5.0</ele><time>2026-05-01T08:20:15.368Z</time></trkpt><trkpt lat="41.4125283" lon="13.0447707"><ele>5.0</ele><time>2026-05-01T08:20:17.369Z</time></trkpt><trkpt lat="41.4124635" lon="13.0448429"><ele>5.0</ele><time>2026-05-01T08:20:19.368Z</time></trkpt><trkpt lat="41.4123997" lon="13.0449173"><ele>5.0</ele><time>2026-05-01T08:20:21.369Z</time></trkpt><trkpt lat="41.4123473" lon="13.0449945"><ele>5.0</ele><time>2026-05-01T08:20:23.369Z</time></trkpt><trkpt lat="41.412282" lon="13.0450686"><ele>5.0</ele><time>2026-05-01T08:20:25.369Z</time></trkpt><trkpt lat="41.4122186" lon="13.0451458"><ele>5.0</ele><time>2026-05-01T08:20:27.369Z</time></trkpt><trkpt lat="41.4121594" lon="13.045226"><ele>5.0</ele><time>2026-05-01T08:20:29.368Z</time></trkpt><trkpt lat="41.4121012" lon="13.0453121"><ele>5.0</ele><time>2026-05-01T08:20:31.368Z</time></trkpt><trkpt lat="41.412042" lon="13.0453908"><ele>5.0</ele><time>2026-05-01T08:20:33.369Z</time></trkpt><trkpt lat="41.4119815" lon="13.04546"><ele>5.0</ele><time>2026-05-01T08:20:35.369Z</time></trkpt><trkpt lat="41.4119138" lon="13.045538"><ele>5.0</ele><time>2026-05-01T08:20:37.369Z</time></trkpt><trkpt lat="41.4118619" lon="13.0456151"><ele>5.0</ele><time>2026-05-01T08:20:39.368Z</time></trkpt><trkpt lat="41.4118018" lon="13.0456943"><ele>5.0</ele><time>2026-05-01T08:20:41.369Z</time></trkpt><trkpt lat="41.4117387" lon="13.0457735"><ele>5.0</ele><time>2026-05-01T08:20:43.369Z</time></trkpt><trkpt lat="41.4116767" lon="13.0458532"><ele>5.0</ele><time>2026-05-01T08:20:45.369Z</time></trkpt><trkpt lat="41.4116115" lon="13.04593"><ele>5.0</ele><time>2026-05-01T08:20:47.369Z</time></trkpt><trkpt lat="41.4115536" lon="13.0460113"><ele>5.166666666666667</ele><time>2026-05-01T08:20:49.369Z</time></trkpt><trkpt lat="41.4114995" lon="13.0460893"><ele>5.333333333333334</ele><time>2026-05-01T08:20:51.369Z</time></trkpt><trkpt lat="41.4114389" lon="13.0461696"><ele>5.5</ele><time>2026-05-01T08:20:53.369Z</time></trkpt><trkpt lat="41.4113765" lon="13.0462487"><ele>5.666666666666667</ele><time>2026-05-01T08:20:55.369Z</time></trkpt><trkpt lat="41.4113174" lon="13.0463173"><ele>5.833333333333333</ele><time>2026-05-01T08:20:57.368Z</time></trkpt><trkpt lat="41.4112541" lon="13.0463958"><ele>6.0</ele><time>2026-05-01T08:20:59.368Z</time></trkpt><trkpt lat="41.4111881" lon="13.0464747"><ele>6.0</ele><time>2026-05-01T08:21:01.369Z</time></trkpt><trkpt lat="41.4111258" lon="13.0465525"><ele>6.0</ele><time>2026-05-01T08:21:03.368Z</time></trkpt><trkpt lat="41.4110689" lon="13.0466333"><ele>6.0</ele><time>2026-05-01T08:21:05.369Z</time></trkpt><trkpt lat="41.4110046" lon="13.0467055"><ele>6.0</ele><time>2026-05-01T08:21:07.368Z</time></trkpt><trkpt lat="41.4109447" lon="13.0467801"><ele>6.0</ele><time>2026-05-01T08:21:09.369Z</time></trkpt><trkpt lat="41.4108876" lon="13.0468544"><ele>6.0</ele><time>2026-05-01T08:21:11.369Z</time></trkpt><trkpt lat="41.4108348" lon="13.0469303"><ele>5.833333333333333</ele><time>2026-05-01T08:21:13.369Z</time></trkpt><trkpt lat="41.410774" lon="13.0469966"><ele>5.666666666666667</ele><time>2026-05-01T08:21:15.368Z</time></trkpt><trkpt lat="41.4107129" lon="13.0470681"><ele>5.5</ele><time>2026-05-01T08:21:17.369Z</time></trkpt><trkpt lat="41.4106583" lon="13.047144"><ele>5.333333333333334</ele><time>2026-05-01T08:21:19.369Z</time></trkpt><trkpt lat="41.4105945" lon="13.0472275"><ele>5.166666666666667</ele><time>2026-05-01T08:21:21.368Z</time></trkpt><trkpt lat="41.4105346" lon="13.0473105"><ele>5.0</ele><time>2026-05-01T08:21:23.368Z</time></trkpt><trkpt lat="41.4104731" lon="13.0473885"><ele>5.0</ele><time>2026-05-01T08:21:25.368Z</time></trkpt><trkpt lat="41.4104121" lon="13.0474697"><ele>5.0</ele><time>2026-05-01T08:21:27.369Z</time></trkpt><trkpt lat="41.4103515" lon="13.0475514"><ele>5.0</ele><time>2026-05-01T08:21:29.369Z</time></trkpt><trkpt lat="41.4102879" lon="13.0476283"><ele>5.0</ele><time>2026-05-01T08:21:31.369Z</time></trkpt><trkpt lat="41.4102249" lon="13.0477132"><ele>5.0</ele><time>2026-05-01T08:21:33.369Z</time></trkpt><trkpt lat="41.4101585" lon="13.0477983"><ele>5.0</ele><time>2026-05-01T08:21:35.369Z</time></trkpt><trkpt lat="41.4100965" lon="13.0478792"><ele>5.0</ele><time>2026-05-01T08:21:37.369Z</time></trkpt><trkpt lat="41.4100327" lon="13.0479548"><ele>5.0</ele><time>2026-05-01T08:21:39.369Z</time></trkpt><trkpt lat="41.4099675" lon="13.0480247"><ele>5.0</ele><time>2026-05-01T08:21:41.369Z</time></trkpt><trkpt lat="41.4099136" lon="13.0480943"><ele>5.0</ele><time>2026-05-01T08:21:43.369Z</time></trkpt><trkpt lat="41.4098624" lon="13.0481664"><ele>5.0</ele><time>2026-05-01T08:21:45.368Z</time></trkpt><trkpt lat="41.4098145" lon="13.0482402"><ele>5.0</ele><time>2026-05-01T08:21:47.369Z</time></trkpt><trkpt lat="41.4097546" lon="13.0483087"><ele>5.166666666666667</ele><time>2026-05-01T08:21:49.369Z</time></trkpt><trkpt lat="41.4096936" lon="13.048382"><ele>5.333333333333334</ele><time>2026-05-01T08:21:51.369Z</time></trkpt><trkpt lat="41.4096395" lon="13.0484668"><ele>5.5</ele><time>2026-05-01T08:21:53.369Z</time></trkpt><trkpt lat="41.4095811" lon="13.0485616"><ele>5.666666666666667</ele><time>2026-05-01T08:21:55.369Z</time></trkpt><trkpt lat="41.4095189" lon="13.0486422"><ele>5.833333333333333</ele><time>2026-05-01T08:21:57.369Z</time></trkpt><trkpt lat="41.4094585" lon="13.0487169"><ele>6.0</ele><time>2026-05-01T08:21:59.369Z</time></trkpt><trkpt lat="41.4093982" lon="13.0487996"><ele>6.5</ele><time>2026-05-01T08:22:01.369Z</time></trkpt><trkpt lat="41.4093276" lon="13.0488813"><ele>7.0</ele><time>2026-05-01T08:22:03.369Z</time></trkpt><trkpt lat="41.4092574" lon="13.0489585"><ele>7.5</ele><time>2026-05-01T08:22:05.369Z</time></trkpt><trkpt lat="41.4091966" lon="13.0490393"><ele>8.0</ele><time>2026-05-01T08:22:07.369Z</time></trkpt><trkpt lat="41.4091369" lon="13.0491068"><ele>8.5</ele><time>2026-05-01T08:22:09.369Z</time></trkpt><trkpt lat="41.4090614" lon="13.0491501"><ele>9.0</ele><time>2026-05-01T08:22:11.369Z</time></trkpt><trkpt lat="41.4089937" lon="13.0490977"><ele>9.166666666666666</ele><time>2026-05-01T08:22:13.369Z</time></trkpt><trkpt lat="41.4089467" lon="13.0490107"><ele>9.333333333333334</ele><time>2026-05-01T08:22:15.368Z</time></trkpt><trkpt lat="41.4089027" lon="13.0489024"><ele>9.5</ele><time>2026-05-01T08:22:17.369Z</time></trkpt><trkpt lat="41.4088829" lon="13.0487875"><ele>9.666666666666668</ele><time>2026-05-01T08:22:19.369Z</time></trkpt><trkpt lat="41.4088641" lon="13.0486606"><ele>9.833333333333334</ele><time>2026-05-01T08:22:21.368Z</time></trkpt><trkpt lat="41.408852" lon="13.0485456"><ele>10.0</ele><time>2026-05-01T08:22:23.369Z</time></trkpt><trkpt lat="41.4088373" lon="13.0484268"><ele>9.333333333333334</ele><time>2026-05-01T08:22:25.369Z</time></trkpt><trkpt lat="41.4088256" lon="13.0483135"><ele>8.666666666666668</ele><time>2026-05-01T08:22:27.369Z</time></trkpt><trkpt lat="41.4088187" lon="13.0482007"><ele>8.0</ele><time>2026-05-01T08:22:29.369Z</time></trkpt><trkpt lat="41.4088072" lon="13.0480812"><ele>7.333333333333334</ele><time>2026-05-01T08:22:31.368Z</time></trkpt><trkpt lat="41.408794" lon="13.0479601"><ele>6.666666666666667</ele><time>2026-05-01T08:22:33.369Z</time></trkpt><trkpt lat="41.4087815" lon="13.0478521"><ele>6.0</ele><time>2026-05-01T08:22:35.369Z</time></trkpt><trkpt lat="41.4087689" lon="13.0477413"><ele>6.0</ele><time>2026-05-01T08:22:37.368Z</time></trkpt><trkpt lat="41.4087546" lon="13.04764"><ele>6.0</ele><time>2026-05-01T08:22:39.368Z</time></trkpt><trkpt lat="41.4087331" lon="13.0475428"><ele>6.0</ele><time>2026-05-01T08:22:41.369Z</time></trkpt><trkpt lat="41.408722" lon="13.0474356"><ele>6.0</ele><time>2026-05-01T08:22:43.368Z</time></trkpt><trkpt lat="41.4087009" lon="13.0473264"><ele>6.0</ele><time>2026-05-01T08:22:45.369Z</time></trkpt><trkpt lat="41.4086838" lon="13.047219"><ele>6.0</ele><time>2026-05-01T08:22:47.368Z</time></trkpt><trkpt lat="41.4086756" lon="13.0471143"><ele>6.0</ele><time>2026-05-01T08:22:49.368Z</time></trkpt><trkpt lat="41.408662" lon="13.0470086"><ele>6.0</ele><time>2026-05-01T08:22:51.368Z</time></trkpt><trkpt lat="41.408642" lon="13.0469203"><ele>6.0</ele><time>2026-05-01T08:22:53.368Z</time></trkpt><trkpt lat="41.408641" lon="13.0468141"><ele>6.0</ele><time>2026-05-01T08:22:55.368Z</time></trkpt><trkpt lat="41.4086269" lon="13.0467029"><ele>6.0</ele><time>2026-05-01T08:22:57.368Z</time></trkpt><trkpt lat="41.4086157" lon="13.0465926"><ele>6.0</ele><time>2026-05-01T08:22:59.369Z</time></trkpt><trkpt lat="41.4085997" lon="13.0464925"><ele>6.0</ele><time>2026-05-01T08:23:01.369Z</time></trkpt><trkpt lat="41.4085829" lon="13.0463831"><ele>6.0</ele><time>2026-05-01T08:23:03.368Z</time></trkpt><trkpt lat="41.408572" lon="13.0462828"><ele>6.0</ele><time>2026-05-01T08:23:05.369Z</time></trkpt><trkpt lat="41.4085666" lon="13.0461882"><ele>6.0</ele><time>2026-05-01T08:23:07.368Z</time></trkpt><trkpt lat="41.4085558" lon="13.046089"><ele>6.0</ele><time>2026-05-01T08:23:10.368Z</time></trkpt><trkpt lat="41.4085048" lon="13.0460126"><ele>6.0</ele><time>2026-05-01T08:23:13.369Z</time></trkpt><trkpt lat="41.4084068" lon="13.0460095"><ele>6.0</ele><time>2026-05-01T08:23:16.368Z</time></trkpt><trkpt lat="41.4083308" lon="13.0460249"><ele>6.0</ele><time>2026-05-01T08:23:18.369Z</time></trkpt><trkpt lat="41.4082477" lon="13.046044"><ele>6.0</ele><time>2026-05-01T08:23:20.369Z</time></trkpt><trkpt lat="41.4081594" lon="13.0460699"><ele>6.0</ele><time>2026-05-01T08:23:22.368Z</time></trkpt><trkpt lat="41.4080738" lon="13.0460817"><ele>6.0</ele><time>2026-05-01T08:23:24.369Z</time></trkpt><trkpt lat="41.4079945" lon="13.0460962"><ele>6.0</ele><time>2026-05-01T08:23:26.368Z</time></trkpt><trkpt lat="41.407914" lon="13.0461118"><ele>6.166666666666667</ele><time>2026-05-01T08:23:28.369Z</time></trkpt><trkpt lat="41.4078317" lon="13.0461481"><ele>6.333333333333334</ele><time>2026-05-01T08:23:30.369Z</time></trkpt><trkpt lat="41.4077466" lon="13.0461687"><ele>6.5</ele><time>2026-05-01T08:23:32.369Z</time></trkpt><trkpt lat="41.4076701" lon="13.0461866"><ele>6.666666666666667</ele><time>2026-05-01T08:23:34.369Z</time></trkpt><trkpt lat="41.4075666" lon="13.0462159"><ele>6.833333333333334</ele><time>2026-05-01T08:23:37.369Z</time></trkpt><trkpt lat="41.4074782" lon="13.0462313"><ele>7.0</ele><time>2026-05-01T08:23:39.369Z</time></trkpt><trkpt lat="41.4073988" lon="13.0462305"><ele>7.000000000000001</ele><time>2026-05-01T08:23:41.369Z</time></trkpt><trkpt lat="41.4073213" lon="13.0462461"><ele>7.0</ele><time>2026-05-01T08:23:43.368Z</time></trkpt><trkpt lat="41.4072366" lon="13.0462776"><ele>7.0</ele><time>2026-05-01T08:23:45.369Z</time></trkpt><trkpt lat="41.4071528" lon="13.046304"><ele>7.0</ele><time>2026-05-01T08:23:47.368Z</time></trkpt><trkpt lat="41.4070773" lon="13.0463263"><ele>7.000000000000001</ele><time>2026-05-01T08:23:49.369Z</time></trkpt><trkpt lat="41.4070125" lon="13.0463369"><ele>7.0</ele><time>2026-05-01T08:23:51.368Z</time></trkpt><trkpt lat="41.4069333" lon="13.0463384"><ele>7.000000000000001</ele><time>2026-05-01T08:23:54.369Z</time></trkpt><trkpt lat="41.4069106" lon="13.0464213"><ele>7.0</ele><time>2026-05-01T08:24:01.369Z</time></trkpt><trkpt lat="41.406922" lon="13.0465145"><ele>7.0</ele><time>2026-05-01T08:24:03.369Z</time></trkpt><trkpt lat="41.4069291" lon="13.0466376"><ele>7.0</ele><time>2026-05-01T08:24:05.368Z</time></trkpt><trkpt lat="41.406932" lon="13.0467405"><ele>7.000000000000001</ele><time>2026-05-01T08:24:07.368Z</time></trkpt><trkpt lat="41.4069486" lon="13.0468468"><ele>7.0</ele><time>2026-05-01T08:24:09.369Z</time></trkpt><trkpt lat="41.4069524" lon="13.0469357"><ele>6.833333333333334</ele><time>2026-05-01T08:24:11.368Z</time></trkpt><trkpt lat="41.4069405" lon="13.0470285"><ele>6.666666666666667</ele><time>2026-05-01T08:24:14.369Z</time></trkpt><trkpt lat="41.406904" lon="13.0471287"><ele>6.5</ele><time>2026-05-01T08:24:17.369Z</time></trkpt><trkpt lat="41.4068631" lon="13.0472425"><ele>6.333333333333334</ele><time>2026-05-01T08:24:20.369Z</time></trkpt><trkpt lat="41.4068229" lon="13.047317"><ele>6.166666666666667</ele><time>2026-05-01T08:24:22.369Z</time></trkpt><trkpt lat="41.4067713" lon="13.047383"><ele>6.0</ele><time>2026-05-01T08:24:24.369Z</time></trkpt><trkpt lat="41.4067108" lon="13.0474504"><ele>6.166666666666667</ele><time>2026-05-01T08:24:26.369Z</time></trkpt><trkpt lat="41.4066481" lon="13.0475211"><ele>6.333333333333334</ele><time>2026-05-01T08:24:28.369Z</time></trkpt><trkpt lat="41.406591" lon="13.0475976"><ele>6.5</ele><time>2026-05-01T08:24:30.369Z</time></trkpt><trkpt lat="41.4065288" lon="13.0476744"><ele>6.666666666666667</ele><time>2026-05-01T08:24:32.369Z</time></trkpt><trkpt lat="41.4064673" lon="13.0477481"><ele>6.833333333333334</ele><time>2026-05-01T08:24:34.369Z</time></trkpt><trkpt lat="41.4064066" lon="13.0478253"><ele>7.0</ele><time>2026-05-01T08:24:36.369Z</time></trkpt><trkpt lat="41.4063479" lon="13.0479004"><ele>7.000000000000001</ele><time>2026-05-01T08:24:38.369Z</time></trkpt><trkpt lat="41.4062896" lon="13.0479766"><ele>7.0</ele><time>2026-05-01T08:24:40.368Z</time></trkpt><trkpt lat="41.4062326" lon="13.0480557"><ele>7.0</ele><time>2026-05-01T08:24:42.368Z</time></trkpt><trkpt lat="41.406176" lon="13.0481373"><ele>7.0</ele><time>2026-05-01T08:24:44.368Z</time></trkpt><trkpt lat="41.4061162" lon="13.048217"><ele>7.000000000000001</ele><time>2026-05-01T08:24:46.369Z</time></trkpt><trkpt lat="41.4060558" lon="13.0482912"><ele>7.0</ele><time>2026-05-01T08:24:48.369Z</time></trkpt><trkpt lat="41.4059949" lon="13.0483761"><ele>6.833333333333334</ele><time>2026-05-01T08:24:50.368Z</time></trkpt><trkpt lat="41.4059275" lon="13.0484559"><ele>6.666666666666667</ele><time>2026-05-01T08:24:52.369Z</time></trkpt><trkpt lat="41.4058522" lon="13.048502"><ele>6.5</ele><time>2026-05-01T08:24:54.369Z</time></trkpt><trkpt lat="41.4057791" lon="13.0485649"><ele>6.333333333333334</ele><time>2026-05-01T08:24:56.369Z</time></trkpt><trkpt lat="41.4057313" lon="13.0486692"><ele>6.166666666666667</ele><time>2026-05-01T08:24:58.369Z</time></trkpt><trkpt lat="41.4056989" lon="13.0487763"><ele>6.0</ele><time>2026-05-01T08:25:00.369Z</time></trkpt><trkpt lat="41.4056553" lon="13.0488796"><ele>6.0</ele><time>2026-05-01T08:25:02.368Z</time></trkpt><trkpt lat="41.4055911" lon="13.0489635"><ele>6.0</ele><time>2026-05-01T08:25:04.369Z</time></trkpt><trkpt lat="41.4055306" lon="13.0490444"><ele>6.0</ele><time>2026-05-01T08:25:06.369Z</time></trkpt><trkpt lat="41.4054619" lon="13.0491308"><ele>6.0</ele><time>2026-05-01T08:25:08.369Z</time></trkpt><trkpt lat="41.405394" lon="13.0492135"><ele>6.0</ele><time>2026-05-01T08:25:10.369Z</time></trkpt><trkpt lat="41.4053311" lon="13.0492998"><ele>6.166666666666667</ele><time>2026-05-01T08:25:12.368Z</time></trkpt><trkpt lat="41.4052564" lon="13.0493849"><ele>6.333333333333334</ele><time>2026-05-01T08:25:14.369Z</time></trkpt><trkpt lat="41.4051972" lon="13.0494753"><ele>6.5</ele><time>2026-05-01T08:25:16.367Z</time></trkpt><trkpt lat="41.4051829" lon="13.049581"><ele>6.666666666666667</ele><time>2026-05-01T08:25:18.368Z</time></trkpt><trkpt lat="41.4052249" lon="13.0496667"><ele>6.833333333333334</ele><time>2026-05-01T08:25:20.368Z</time></trkpt><trkpt lat="41.4052685" lon="13.0497469"><ele>7.0</ele><time>2026-05-01T08:25:22.368Z</time></trkpt><trkpt lat="41.4053188" lon="13.049825"><ele>7.0</ele><time>2026-05-01T08:25:24.367Z</time></trkpt><trkpt lat="41.4053847" lon="13.0498995"><ele>6.999999999999999</ele><time>2026-05-01T08:25:26.368Z</time></trkpt><trkpt lat="41.4054487" lon="13.0499802"><ele>6.999999999999999</ele><time>2026-05-01T08:25:28.368Z</time></trkpt><trkpt lat="41.4055125" lon="13.0500694"><ele>7.0</ele><time>2026-05-01T08:25:30.368Z</time></trkpt><trkpt lat="41.4055686" lon="13.050164"><ele>7.0</ele><time>2026-05-01T08:25:32.367Z</time></trkpt><trkpt lat="41.4056416" lon="13.0502558"><ele>6.666666666666667</ele><time>2026-05-01T08:25:34.367Z</time></trkpt><trkpt lat="41.4057101" lon="13.0503561"><ele>6.333333333333334</ele><time>2026-05-01T08:25:36.368Z</time></trkpt><trkpt lat="41.4057712" lon="13.0504545"><ele>6.0</ele><time>2026-05-01T08:25:38.368Z</time></trkpt><trkpt lat="41.4058352" lon="13.0505326"><ele>5.666666666666667</ele><time>2026-05-01T08:25:40.367Z</time></trkpt><trkpt lat="41.4058949" lon="13.050596"><ele>5.333333333333334</ele><time>2026-05-01T08:25:42.368Z</time></trkpt><trkpt lat="41.4059483" lon="13.0506559"><ele>5.0</ele><time>2026-05-01T08:25:44.367Z</time></trkpt><trkpt lat="41.405995" lon="13.050718"><ele>5.0</ele><time>2026-05-01T08:25:46.367Z</time></trkpt><trkpt lat="41.4060372" lon="13.0507814"><ele>5.0</ele><time>2026-05-01T08:25:48.368Z</time></trkpt><trkpt lat="41.4060843" lon="13.0508516"><ele>5.0</ele><time>2026-05-01T08:25:50.368Z</time></trkpt><trkpt lat="41.4061384" lon="13.0509166"><ele>5.0</ele><time>2026-05-01T08:25:52.368Z</time></trkpt><trkpt lat="41.4061722" lon="13.0510256"><ele>5.0</ele><time>2026-05-01T08:25:55.367Z</time></trkpt><trkpt lat="41.4061376" lon="13.0511029"><ele>5.0</ele><time>2026-05-01T08:25:57.368Z</time></trkpt><trkpt lat="41.4060837" lon="13.0511616"><ele>5.0</ele><time>2026-05-01T08:25:59.368Z</time></trkpt><trkpt lat="41.4060349" lon="13.0512189"><ele>4.857142857142857</ele><time>2026-05-01T08:26:01.367Z</time></trkpt><trkpt lat="41.4059835" lon="13.0512736"><ele>4.714285714285714</ele><time>2026-05-01T08:26:03.368Z</time></trkpt><trkpt lat="41.4059295" lon="13.0513333"><ele>4.571428571428571</ele><time>2026-05-01T08:26:05.368Z</time></trkpt><trkpt lat="41.4058853" lon="13.0513953"><ele>4.428571428571429</ele><time>2026-05-01T08:26:07.367Z</time></trkpt><trkpt lat="41.4058231" lon="13.0514774"><ele>4.285714285714286</ele><time>2026-05-01T08:26:10.367Z</time></trkpt><trkpt lat="41.4057679" lon="13.051543"><ele>4.142857142857142</ele><time>2026-05-01T08:26:13.367Z</time></trkpt><trkpt lat="41.4057295" lon="13.0516181"><ele>4.0</ele><time>2026-05-01T08:26:16.368Z</time></trkpt><trkpt lat="41.4057151" lon="13.0517099"><ele>4.0</ele><time>2026-05-01T08:26:20.368Z</time></trkpt><trkpt lat="41.4058237" lon="13.0517341"><ele>4.0</ele><time>2026-05-01T08:28:06.367Z</time></trkpt></trkseg></trk></gpx>